<?xml version="1.0" encoding="UTF-8"?>
<gpx version="1.1" creator="https://www.youtrack.es" xsi:schemaLocation="http://www.topografix.com/GPX/1/1 http://www.topografix.com/GPX/1/1/gpx.xsd http://www.garmin.com/xmlschemas/GpxExtensions/v3 http://www.garmin.com/xmlschemas/GpxExtensionsv3.xsd http://www.garmin.com/xmlschemas/TrackPointExtension/v1 http://www.garmin.com/xmlschemas/TrackPointExtensionv1.xsd" xmlns:gpxtpx="http://www.garmin.com/xmlschemas/TrackPointExtension/v1" xmlns:gpxx="http://www.garmin.com/xmlschemas/GpxExtensions/v3" xmlns:xsi="http://www.w3.org/2001/XMLSchema-instance">
  <metadata>
    <link href="https://www.youtrack.es">
      <text>YouTrack.es</text>
    </link>
    <time>2026-05-09T03:39:06Z</time>
  </metadata>
  <trk>
    <src>https://www.youtrack.es</src>
    <link href="https://www.youtrack.es/ruta/19158-57-carrera-urbana">
      <text>YouTrack.es</text>
    </link>
    <trkseg>
      <trkpt lat="36.41613398" lon="-6.1518645">
        <ele>76.0</ele>
        <time>2019-10-25T09:57:36Z</time>
      </trkpt>
      <trkpt lat="36.41613484" lon="-6.15192547">
        <ele>76.0</ele>
        <time>2019-10-25T09:57:49Z</time>
      </trkpt>
      <trkpt lat="36.41611759" lon="-6.15199638">
        <ele>77.0</ele>
        <time>2019-10-25T09:57:53Z</time>
      </trkpt>
      <trkpt lat="36.41610923" lon="-6.1520607">
        <ele>76.0</ele>
        <time>2019-10-25T09:57:56Z</time>
      </trkpt>
      <trkpt lat="36.41612657" lon="-6.15211927">
        <ele>77.0</ele>
        <time>2019-10-25T09:58:00Z</time>
      </trkpt>
      <trkpt lat="36.41613466" lon="-6.1521769">
        <ele>77.0</ele>
        <time>2019-10-25T09:58:04Z</time>
      </trkpt>
      <trkpt lat="36.41612891" lon="-6.15224009">
        <ele>75.0</ele>
        <time>2019-10-25T09:58:09Z</time>
      </trkpt>
      <trkpt lat="36.41611055" lon="-6.15229416">
        <ele>76.0</ele>
        <time>2019-10-25T09:58:13Z</time>
      </trkpt>
      <trkpt lat="36.41607864" lon="-6.15236126">
        <ele>76.0</ele>
        <time>2019-10-25T09:58:19Z</time>
      </trkpt>
      <trkpt lat="36.41606841" lon="-6.15242828">
        <ele>78.0</ele>
        <time>2019-10-25T09:58:23Z</time>
      </trkpt>
      <trkpt lat="36.41607011" lon="-6.15248492">
        <ele>79.0</ele>
        <time>2019-10-25T09:58:25Z</time>
      </trkpt>
      <trkpt lat="36.4160787" lon="-6.152545">
        <ele>80.0</ele>
        <time>2019-10-25T09:58:27Z</time>
      </trkpt>
      <trkpt lat="36.41611163" lon="-6.15260158">
        <ele>81.0</ele>
        <time>2019-10-25T09:58:29Z</time>
      </trkpt>
      <trkpt lat="36.41614257" lon="-6.15264344">
        <ele>79.0</ele>
        <time>2019-10-25T09:58:31Z</time>
      </trkpt>
      <trkpt lat="36.41616429" lon="-6.15269446">
        <ele>78.0</ele>
        <time>2019-10-25T09:58:33Z</time>
      </trkpt>
      <trkpt lat="36.41619156" lon="-6.15275944">
        <ele>76.0</ele>
        <time>2019-10-25T09:58:37Z</time>
      </trkpt>
      <trkpt lat="36.41620451" lon="-6.15282663">
        <ele>76.0</ele>
        <time>2019-10-25T09:58:41Z</time>
      </trkpt>
      <trkpt lat="36.41622268" lon="-6.15288835">
        <ele>75.0</ele>
        <time>2019-10-25T09:58:47Z</time>
      </trkpt>
      <trkpt lat="36.41623989" lon="-6.15294223">
        <ele>77.0</ele>
        <time>2019-10-25T09:58:50Z</time>
      </trkpt>
      <trkpt lat="36.41624064" lon="-6.15299873">
        <ele>75.0</ele>
        <time>2019-10-25T09:58:53Z</time>
      </trkpt>
      <trkpt lat="36.41623338" lon="-6.15306164">
        <ele>76.0</ele>
        <time>2019-10-25T09:58:56Z</time>
      </trkpt>
      <trkpt lat="36.41623708" lon="-6.15312435">
        <ele>74.0</ele>
        <time>2019-10-25T09:58:59Z</time>
      </trkpt>
      <trkpt lat="36.41622948" lon="-6.15318665">
        <ele>75.0</ele>
        <time>2019-10-25T09:59:03Z</time>
      </trkpt>
      <trkpt lat="36.41623372" lon="-6.15325575">
        <ele>76.0</ele>
        <time>2019-10-25T09:59:07Z</time>
      </trkpt>
      <trkpt lat="36.4162392" lon="-6.15332645">
        <ele>77.0</ele>
        <time>2019-10-25T09:59:12Z</time>
      </trkpt>
      <trkpt lat="36.41625277" lon="-6.15338979">
        <ele>76.0</ele>
        <time>2019-10-25T09:59:16Z</time>
      </trkpt>
      <trkpt lat="36.41625883" lon="-6.15345244">
        <ele>73.0</ele>
        <time>2019-10-25T09:59:20Z</time>
      </trkpt>
      <trkpt lat="36.41627202" lon="-6.15351148">
        <ele>70.0</ele>
        <time>2019-10-25T09:59:24Z</time>
      </trkpt>
      <trkpt lat="36.41628364" lon="-6.15356931">
        <ele>69.0</ele>
        <time>2019-10-25T09:59:28Z</time>
      </trkpt>
      <trkpt lat="36.41630071" lon="-6.15362878">
        <ele>67.0</ele>
        <time>2019-10-25T09:59:32Z</time>
      </trkpt>
      <trkpt lat="36.41631057" lon="-6.15369459">
        <ele>67.0</ele>
        <time>2019-10-25T09:59:35Z</time>
      </trkpt>
      <trkpt lat="36.41631966" lon="-6.15376034">
        <ele>66.0</ele>
        <time>2019-10-25T09:59:39Z</time>
      </trkpt>
      <trkpt lat="36.41632312" lon="-6.15382923">
        <ele>65.0</ele>
        <time>2019-10-25T09:59:43Z</time>
      </trkpt>
      <trkpt lat="36.41632736" lon="-6.15388997">
        <ele>64.0</ele>
        <time>2019-10-25T09:59:47Z</time>
      </trkpt>
      <trkpt lat="36.41633787" lon="-6.1539462">
        <ele>64.0</ele>
        <time>2019-10-25T09:59:51Z</time>
      </trkpt>
      <trkpt lat="36.41634473" lon="-6.15400545">
        <ele>65.0</ele>
        <time>2019-10-25T09:59:55Z</time>
      </trkpt>
      <trkpt lat="36.4163502" lon="-6.15406714">
        <ele>65.0</ele>
        <time>2019-10-25T09:59:59Z</time>
      </trkpt>
      <trkpt lat="36.41636155" lon="-6.1541218">
        <ele>66.0</ele>
        <time>2019-10-25T10:00:03Z</time>
      </trkpt>
      <trkpt lat="36.41638273" lon="-6.15418519">
        <ele>67.0</ele>
        <time>2019-10-25T10:00:08Z</time>
      </trkpt>
      <trkpt lat="36.41638854" lon="-6.15425157">
        <ele>66.0</ele>
        <time>2019-10-25T10:00:13Z</time>
      </trkpt>
      <trkpt lat="36.41638952" lon="-6.15430843">
        <ele>65.0</ele>
        <time>2019-10-25T10:00:17Z</time>
      </trkpt>
      <trkpt lat="36.41638926" lon="-6.15438078">
        <ele>64.0</ele>
        <time>2019-10-25T10:00:22Z</time>
      </trkpt>
      <trkpt lat="36.41638955" lon="-6.15443734">
        <ele>64.0</ele>
        <time>2019-10-25T10:00:25Z</time>
      </trkpt>
      <trkpt lat="36.41638652" lon="-6.15450806">
        <ele>65.0</ele>
        <time>2019-10-25T10:00:29Z</time>
      </trkpt>
      <trkpt lat="36.41640122" lon="-6.15457666">
        <ele>64.0</ele>
        <time>2019-10-25T10:00:33Z</time>
      </trkpt>
      <trkpt lat="36.41641397" lon="-6.15463691">
        <ele>62.0</ele>
        <time>2019-10-25T10:00:36Z</time>
      </trkpt>
      <trkpt lat="36.41641947" lon="-6.15471023">
        <ele>63.0</ele>
        <time>2019-10-25T10:00:40Z</time>
      </trkpt>
      <trkpt lat="36.41641433" lon="-6.15477082">
        <ele>62.0</ele>
        <time>2019-10-25T10:00:43Z</time>
      </trkpt>
      <trkpt lat="36.41641285" lon="-6.15484345">
        <ele>64.0</ele>
        <time>2019-10-25T10:00:47Z</time>
      </trkpt>
      <trkpt lat="36.41641809" lon="-6.15490419">
        <ele>64.0</ele>
        <time>2019-10-25T10:00:50Z</time>
      </trkpt>
      <trkpt lat="36.41642738" lon="-6.15497563">
        <ele>65.0</ele>
        <time>2019-10-25T10:00:54Z</time>
      </trkpt>
      <trkpt lat="36.41643468" lon="-6.15503283">
        <ele>65.0</ele>
        <time>2019-10-25T10:00:57Z</time>
      </trkpt>
      <trkpt lat="36.41643597" lon="-6.15510007">
        <ele>66.0</ele>
        <time>2019-10-25T10:01:01Z</time>
      </trkpt>
      <trkpt lat="36.41643673" lon="-6.15516256">
        <ele>63.0</ele>
        <time>2019-10-25T10:01:05Z</time>
      </trkpt>
      <trkpt lat="36.41645053" lon="-6.15521778">
        <ele>62.0</ele>
        <time>2019-10-25T10:01:09Z</time>
      </trkpt>
      <trkpt lat="36.41646567" lon="-6.15528247">
        <ele>63.0</ele>
        <time>2019-10-25T10:01:13Z</time>
      </trkpt>
      <trkpt lat="36.41648272" lon="-6.15534438">
        <ele>62.0</ele>
        <time>2019-10-25T10:01:18Z</time>
      </trkpt>
      <trkpt lat="36.41650701" lon="-6.15539619">
        <ele>62.0</ele>
        <time>2019-10-25T10:01:25Z</time>
      </trkpt>
      <trkpt lat="36.41651488" lon="-6.15545664">
        <ele>60.0</ele>
        <time>2019-10-25T10:01:32Z</time>
      </trkpt>
      <trkpt lat="36.41652975" lon="-6.15551373">
        <ele>65.0</ele>
        <time>2019-10-25T10:01:36Z</time>
      </trkpt>
      <trkpt lat="36.41654894" lon="-6.15557146">
        <ele>64.0</ele>
        <time>2019-10-25T10:01:39Z</time>
      </trkpt>
      <trkpt lat="36.41656677" lon="-6.15562415">
        <ele>64.0</ele>
        <time>2019-10-25T10:01:42Z</time>
      </trkpt>
      <trkpt lat="36.41659422" lon="-6.15568267">
        <ele>61.0</ele>
        <time>2019-10-25T10:01:46Z</time>
      </trkpt>
      <trkpt lat="36.41664088" lon="-6.15570796">
        <ele>62.0</ele>
        <time>2019-10-25T10:01:50Z</time>
      </trkpt>
      <trkpt lat="36.41670461" lon="-6.15570918">
        <ele>59.0</ele>
        <time>2019-10-25T10:01:54Z</time>
      </trkpt>
      <trkpt lat="36.41675029" lon="-6.15571615">
        <ele>57.0</ele>
        <time>2019-10-25T10:01:57Z</time>
      </trkpt>
      <trkpt lat="36.41680054" lon="-6.15571621">
        <ele>58.0</ele>
        <time>2019-10-25T10:02:02Z</time>
      </trkpt>
      <trkpt lat="36.4168531" lon="-6.15568841">
        <ele>56.0</ele>
        <time>2019-10-25T10:02:06Z</time>
      </trkpt>
      <trkpt lat="36.41690528" lon="-6.15566565">
        <ele>58.0</ele>
        <time>2019-10-25T10:02:09Z</time>
      </trkpt>
      <trkpt lat="36.41694783" lon="-6.15564009">
        <ele>66.0</ele>
        <time>2019-10-25T10:02:11Z</time>
      </trkpt>
      <trkpt lat="36.41699162" lon="-6.15561467">
        <ele>65.0</ele>
        <time>2019-10-25T10:02:14Z</time>
      </trkpt>
      <trkpt lat="36.4170379" lon="-6.15559893">
        <ele>63.0</ele>
        <time>2019-10-25T10:02:17Z</time>
      </trkpt>
      <trkpt lat="36.41708743" lon="-6.15561929">
        <ele>59.0</ele>
        <time>2019-10-25T10:02:24Z</time>
      </trkpt>
      <trkpt lat="36.41713461" lon="-6.15560479">
        <ele>58.0</ele>
        <time>2019-10-25T10:02:29Z</time>
      </trkpt>
      <trkpt lat="36.41718378" lon="-6.15558108">
        <ele>58.0</ele>
        <time>2019-10-25T10:02:36Z</time>
      </trkpt>
      <trkpt lat="36.41723999" lon="-6.15556849">
        <ele>60.0</ele>
        <time>2019-10-25T10:02:41Z</time>
      </trkpt>
      <trkpt lat="36.41729638" lon="-6.15554654">
        <ele>58.0</ele>
        <time>2019-10-25T10:02:44Z</time>
      </trkpt>
      <trkpt lat="36.41734713" lon="-6.15552903">
        <ele>59.0</ele>
        <time>2019-10-25T10:02:47Z</time>
      </trkpt>
      <trkpt lat="36.41739924" lon="-6.15550803">
        <ele>60.0</ele>
        <time>2019-10-25T10:02:50Z</time>
      </trkpt>
      <trkpt lat="36.41744291" lon="-6.15548713">
        <ele>60.0</ele>
        <time>2019-10-25T10:02:53Z</time>
      </trkpt>
      <trkpt lat="36.4174933" lon="-6.1554623">
        <ele>59.0</ele>
        <time>2019-10-25T10:02:57Z</time>
      </trkpt>
      <trkpt lat="36.41753883" lon="-6.15544111">
        <ele>60.0</ele>
        <time>2019-10-25T10:03:00Z</time>
      </trkpt>
      <trkpt lat="36.41758916" lon="-6.15541945">
        <ele>62.0</ele>
        <time>2019-10-25T10:03:03Z</time>
      </trkpt>
      <trkpt lat="36.4176508" lon="-6.15538847">
        <ele>62.0</ele>
        <time>2019-10-25T10:03:06Z</time>
      </trkpt>
      <trkpt lat="36.41770968" lon="-6.15535896">
        <ele>64.0</ele>
        <time>2019-10-25T10:03:09Z</time>
      </trkpt>
      <trkpt lat="36.41776233" lon="-6.15535102">
        <ele>68.0</ele>
        <time>2019-10-25T10:03:12Z</time>
      </trkpt>
      <trkpt lat="36.41781902" lon="-6.15536815">
        <ele>64.0</ele>
        <time>2019-10-25T10:03:20Z</time>
      </trkpt>
      <trkpt lat="36.4178761" lon="-6.15536139">
        <ele>59.0</ele>
        <time>2019-10-25T10:03:31Z</time>
      </trkpt>
      <trkpt lat="36.41793999" lon="-6.15534399">
        <ele>60.0</ele>
        <time>2019-10-25T10:03:35Z</time>
      </trkpt>
      <trkpt lat="36.41799619" lon="-6.15532802">
        <ele>60.0</ele>
        <time>2019-10-25T10:03:38Z</time>
      </trkpt>
      <trkpt lat="36.41805092" lon="-6.15531648">
        <ele>62.0</ele>
        <time>2019-10-25T10:03:41Z</time>
      </trkpt>
      <trkpt lat="36.41810066" lon="-6.15532053">
        <ele>62.0</ele>
        <time>2019-10-25T10:03:45Z</time>
      </trkpt>
      <trkpt lat="36.41815547" lon="-6.1552963">
        <ele>62.0</ele>
        <time>2019-10-25T10:03:48Z</time>
      </trkpt>
      <trkpt lat="36.41821545" lon="-6.15528729">
        <ele>64.0</ele>
        <time>2019-10-25T10:03:51Z</time>
      </trkpt>
      <trkpt lat="36.41827347" lon="-6.15526211">
        <ele>58.0</ele>
        <time>2019-10-25T10:03:55Z</time>
      </trkpt>
      <trkpt lat="36.41831746" lon="-6.15523582">
        <ele>60.0</ele>
        <time>2019-10-25T10:03:57Z</time>
      </trkpt>
      <trkpt lat="36.41836064" lon="-6.15520525">
        <ele>57.0</ele>
        <time>2019-10-25T10:03:59Z</time>
      </trkpt>
      <trkpt lat="36.4184149" lon="-6.15516667">
        <ele>56.0</ele>
        <time>2019-10-25T10:04:01Z</time>
      </trkpt>
      <trkpt lat="36.4184634" lon="-6.15512909">
        <ele>56.0</ele>
        <time>2019-10-25T10:04:03Z</time>
      </trkpt>
      <trkpt lat="36.41850459" lon="-6.15508862">
        <ele>55.0</ele>
        <time>2019-10-25T10:04:05Z</time>
      </trkpt>
      <trkpt lat="36.41855055" lon="-6.1550511">
        <ele>56.0</ele>
        <time>2019-10-25T10:04:08Z</time>
      </trkpt>
      <trkpt lat="36.41859438" lon="-6.15500832">
        <ele>56.0</ele>
        <time>2019-10-25T10:04:13Z</time>
      </trkpt>
      <trkpt lat="36.41863763" lon="-6.15499138">
        <ele>56.0</ele>
        <time>2019-10-25T10:04:15Z</time>
      </trkpt>
      <trkpt lat="36.41867959" lon="-6.15494269">
        <ele>55.0</ele>
        <time>2019-10-25T10:04:19Z</time>
      </trkpt>
      <trkpt lat="36.41867064" lon="-6.15488404">
        <ele>55.0</ele>
        <time>2019-10-25T10:04:27Z</time>
      </trkpt>
      <trkpt lat="36.41865505" lon="-6.15483039">
        <ele>55.0</ele>
        <time>2019-10-25T10:04:33Z</time>
      </trkpt>
      <trkpt lat="36.41863487" lon="-6.15477506">
        <ele>56.0</ele>
        <time>2019-10-25T10:04:39Z</time>
      </trkpt>
      <trkpt lat="36.41860734" lon="-6.15472401">
        <ele>55.0</ele>
        <time>2019-10-25T10:04:44Z</time>
      </trkpt>
      <trkpt lat="36.41858216" lon="-6.15466908">
        <ele>55.0</ele>
        <time>2019-10-25T10:04:48Z</time>
      </trkpt>
      <trkpt lat="36.41857215" lon="-6.15452446">
        <ele>53.0</ele>
        <time>2019-10-25T10:04:55Z</time>
      </trkpt>
      <trkpt lat="36.41857161" lon="-6.15444832">
        <ele>53.0</ele>
        <time>2019-10-25T10:04:58Z</time>
      </trkpt>
      <trkpt lat="36.41857832" lon="-6.15438139">
        <ele>54.0</ele>
        <time>2019-10-25T10:05:01Z</time>
      </trkpt>
      <trkpt lat="36.41858645" lon="-6.15431783">
        <ele>54.0</ele>
        <time>2019-10-25T10:05:04Z</time>
      </trkpt>
      <trkpt lat="36.41859373" lon="-6.15425772">
        <ele>54.0</ele>
        <time>2019-10-25T10:05:07Z</time>
      </trkpt>
      <trkpt lat="36.41860603" lon="-6.1542011">
        <ele>56.0</ele>
        <time>2019-10-25T10:05:10Z</time>
      </trkpt>
      <trkpt lat="36.41863306" lon="-6.15413745">
        <ele>57.0</ele>
        <time>2019-10-25T10:05:14Z</time>
      </trkpt>
      <trkpt lat="36.41864585" lon="-6.15406569">
        <ele>55.0</ele>
        <time>2019-10-25T10:05:18Z</time>
      </trkpt>
      <trkpt lat="36.41862448" lon="-6.15401588">
        <ele>52.0</ele>
        <time>2019-10-25T10:05:22Z</time>
      </trkpt>
      <trkpt lat="36.41858954" lon="-6.15398018">
        <ele>51.0</ele>
        <time>2019-10-25T10:05:26Z</time>
      </trkpt>
      <trkpt lat="36.41855678" lon="-6.15393693">
        <ele>52.0</ele>
        <time>2019-10-25T10:05:32Z</time>
      </trkpt>
      <trkpt lat="36.41853761" lon="-6.15388577">
        <ele>49.0</ele>
        <time>2019-10-25T10:05:37Z</time>
      </trkpt>
      <trkpt lat="36.41853982" lon="-6.15381819">
        <ele>52.0</ele>
        <time>2019-10-25T10:05:45Z</time>
      </trkpt>
      <trkpt lat="36.41853536" lon="-6.15374488">
        <ele>52.0</ele>
        <time>2019-10-25T10:05:48Z</time>
      </trkpt>
      <trkpt lat="36.41851916" lon="-6.15366405">
        <ele>51.0</ele>
        <time>2019-10-25T10:05:51Z</time>
      </trkpt>
      <trkpt lat="36.41851703" lon="-6.15360325">
        <ele>49.0</ele>
        <time>2019-10-25T10:05:53Z</time>
      </trkpt>
      <trkpt lat="36.41850882" lon="-6.15353895">
        <ele>49.0</ele>
        <time>2019-10-25T10:05:56Z</time>
      </trkpt>
      <trkpt lat="36.41848462" lon="-6.15347051">
        <ele>47.0</ele>
        <time>2019-10-25T10:06:01Z</time>
      </trkpt>
      <trkpt lat="36.41850365" lon="-6.15340901">
        <ele>47.0</ele>
        <time>2019-10-25T10:06:07Z</time>
      </trkpt>
      <trkpt lat="36.41850858" lon="-6.15335211">
        <ele>48.0</ele>
        <time>2019-10-25T10:06:11Z</time>
      </trkpt>
      <trkpt lat="36.41849228" lon="-6.15329168">
        <ele>45.0</ele>
        <time>2019-10-25T10:06:18Z</time>
      </trkpt>
      <trkpt lat="36.41847848" lon="-6.15323097">
        <ele>46.0</ele>
        <time>2019-10-25T10:06:25Z</time>
      </trkpt>
      <trkpt lat="36.41847308" lon="-6.15316835">
        <ele>47.0</ele>
        <time>2019-10-25T10:06:29Z</time>
      </trkpt>
      <trkpt lat="36.41846378" lon="-6.15310279">
        <ele>41.0</ele>
        <time>2019-10-25T10:06:32Z</time>
      </trkpt>
      <trkpt lat="36.41845819" lon="-6.15304687">
        <ele>42.0</ele>
        <time>2019-10-25T10:06:34Z</time>
      </trkpt>
      <trkpt lat="36.41847208" lon="-6.15296307">
        <ele>43.0</ele>
        <time>2019-10-25T10:06:37Z</time>
      </trkpt>
      <trkpt lat="36.41848186" lon="-6.15288268">
        <ele>44.0</ele>
        <time>2019-10-25T10:06:40Z</time>
      </trkpt>
      <trkpt lat="36.41850288" lon="-6.15282014">
        <ele>44.0</ele>
        <time>2019-10-25T10:06:42Z</time>
      </trkpt>
      <trkpt lat="36.41852582" lon="-6.15275565">
        <ele>46.0</ele>
        <time>2019-10-25T10:06:44Z</time>
      </trkpt>
      <trkpt lat="36.41854588" lon="-6.15269551">
        <ele>46.0</ele>
        <time>2019-10-25T10:06:46Z</time>
      </trkpt>
      <trkpt lat="36.41856268" lon="-6.15263334">
        <ele>47.0</ele>
        <time>2019-10-25T10:06:48Z</time>
      </trkpt>
      <trkpt lat="36.41857092" lon="-6.15256396">
        <ele>46.0</ele>
        <time>2019-10-25T10:06:50Z</time>
      </trkpt>
      <trkpt lat="36.41857626" lon="-6.15250789">
        <ele>45.0</ele>
        <time>2019-10-25T10:06:54Z</time>
      </trkpt>
      <trkpt lat="36.41858844" lon="-6.1524513">
        <ele>46.0</ele>
        <time>2019-10-25T10:06:57Z</time>
      </trkpt>
      <trkpt lat="36.41861748" lon="-6.1523999">
        <ele>44.0</ele>
        <time>2019-10-25T10:07:02Z</time>
      </trkpt>
      <trkpt lat="36.41863798" lon="-6.15234766">
        <ele>44.0</ele>
        <time>2019-10-25T10:07:12Z</time>
      </trkpt>
      <trkpt lat="36.41866944" lon="-6.15230482">
        <ele>46.0</ele>
        <time>2019-10-25T10:07:22Z</time>
      </trkpt>
      <trkpt lat="36.41864747" lon="-6.15224415">
        <ele>45.0</ele>
        <time>2019-10-25T10:07:25Z</time>
      </trkpt>
      <trkpt lat="36.41863377" lon="-6.1521561">
        <ele>44.0</ele>
        <time>2019-10-25T10:07:33Z</time>
      </trkpt>
      <trkpt lat="36.418614" lon="-6.15207795">
        <ele>46.0</ele>
        <time>2019-10-25T10:07:36Z</time>
      </trkpt>
      <trkpt lat="36.41860602" lon="-6.1520041">
        <ele>44.0</ele>
        <time>2019-10-25T10:07:38Z</time>
      </trkpt>
      <trkpt lat="36.41861519" lon="-6.15193667">
        <ele>47.0</ele>
        <time>2019-10-25T10:07:40Z</time>
      </trkpt>
      <trkpt lat="36.41862959" lon="-6.15187562">
        <ele>47.0</ele>
        <time>2019-10-25T10:07:43Z</time>
      </trkpt>
      <trkpt lat="36.41861771" lon="-6.15179095">
        <ele>49.0</ele>
        <time>2019-10-25T10:07:46Z</time>
      </trkpt>
      <trkpt lat="36.41864654" lon="-6.15173248">
        <ele>53.0</ele>
        <time>2019-10-25T10:07:49Z</time>
      </trkpt>
      <trkpt lat="36.41866913" lon="-6.15167494">
        <ele>51.0</ele>
        <time>2019-10-25T10:07:52Z</time>
      </trkpt>
      <trkpt lat="36.41868341" lon="-6.15161099">
        <ele>52.0</ele>
        <time>2019-10-25T10:07:56Z</time>
      </trkpt>
      <trkpt lat="36.41869897" lon="-6.15154794">
        <ele>49.0</ele>
        <time>2019-10-25T10:08:00Z</time>
      </trkpt>
      <trkpt lat="36.41869712" lon="-6.15147686">
        <ele>51.0</ele>
        <time>2019-10-25T10:08:04Z</time>
      </trkpt>
      <trkpt lat="36.41869197" lon="-6.15140983">
        <ele>51.0</ele>
        <time>2019-10-25T10:08:08Z</time>
      </trkpt>
      <trkpt lat="36.41869815" lon="-6.15133564">
        <ele>50.0</ele>
        <time>2019-10-25T10:08:12Z</time>
      </trkpt>
      <trkpt lat="36.41870282" lon="-6.15127463">
        <ele>50.0</ele>
        <time>2019-10-25T10:08:17Z</time>
      </trkpt>
      <trkpt lat="36.41869659" lon="-6.15120929">
        <ele>50.0</ele>
        <time>2019-10-25T10:08:22Z</time>
      </trkpt>
      <trkpt lat="36.41869254" lon="-6.15115039">
        <ele>56.0</ele>
        <time>2019-10-25T10:08:32Z</time>
      </trkpt>
      <trkpt lat="36.41870749" lon="-6.15108752">
        <ele>55.0</ele>
        <time>2019-10-25T10:08:37Z</time>
      </trkpt>
      <trkpt lat="36.41871368" lon="-6.15103163">
        <ele>53.0</ele>
        <time>2019-10-25T10:08:43Z</time>
      </trkpt>
      <trkpt lat="36.41871987" lon="-6.15096452">
        <ele>58.0</ele>
        <time>2019-10-25T10:08:48Z</time>
      </trkpt>
      <trkpt lat="36.41873521" lon="-6.15091108">
        <ele>56.0</ele>
        <time>2019-10-25T10:08:52Z</time>
      </trkpt>
      <trkpt lat="36.418747" lon="-6.15084993">
        <ele>62.0</ele>
        <time>2019-10-25T10:08:59Z</time>
      </trkpt>
      <trkpt lat="36.41874807" lon="-6.15078115">
        <ele>58.0</ele>
        <time>2019-10-25T10:09:05Z</time>
      </trkpt>
      <trkpt lat="36.41874782" lon="-6.15070297">
        <ele>58.0</ele>
        <time>2019-10-25T10:09:11Z</time>
      </trkpt>
      <trkpt lat="36.41872704" lon="-6.15063679">
        <ele>53.0</ele>
        <time>2019-10-25T10:10:18Z</time>
      </trkpt>
      <trkpt lat="36.41871005" lon="-6.15058317">
        <ele>55.0</ele>
        <time>2019-10-25T10:10:19Z</time>
      </trkpt>
      <trkpt lat="36.41873976" lon="-6.15052876">
        <ele>54.0</ele>
        <time>2019-10-25T10:11:38Z</time>
      </trkpt>
      <trkpt lat="36.4187629" lon="-6.15047967">
        <ele>61.0</ele>
        <time>2019-10-25T10:11:44Z</time>
      </trkpt>
      <trkpt lat="36.41877268" lon="-6.15040795">
        <ele>60.0</ele>
        <time>2019-10-25T10:11:49Z</time>
      </trkpt>
      <trkpt lat="36.4187812" lon="-6.15033852">
        <ele>58.0</ele>
        <time>2019-10-25T10:11:52Z</time>
      </trkpt>
      <trkpt lat="36.41879209" lon="-6.15028345">
        <ele>60.0</ele>
        <time>2019-10-25T10:11:55Z</time>
      </trkpt>
      <trkpt lat="36.4188209" lon="-6.15022608">
        <ele>57.0</ele>
        <time>2019-10-25T10:11:58Z</time>
      </trkpt>
      <trkpt lat="36.41883491" lon="-6.15014678">
        <ele>57.0</ele>
        <time>2019-10-25T10:12:01Z</time>
      </trkpt>
      <trkpt lat="36.41884225" lon="-6.15007517">
        <ele>53.0</ele>
        <time>2019-10-25T10:12:04Z</time>
      </trkpt>
      <trkpt lat="36.41886302" lon="-6.15000978">
        <ele>53.0</ele>
        <time>2019-10-25T10:12:09Z</time>
      </trkpt>
      <trkpt lat="36.41888902" lon="-6.14995344">
        <ele>53.0</ele>
        <time>2019-10-25T10:12:12Z</time>
      </trkpt>
      <trkpt lat="36.41889983" lon="-6.14988501">
        <ele>54.0</ele>
        <time>2019-10-25T10:12:15Z</time>
      </trkpt>
      <trkpt lat="36.41889549" lon="-6.14982779">
        <ele>55.0</ele>
        <time>2019-10-25T10:12:18Z</time>
      </trkpt>
      <trkpt lat="36.41889812" lon="-6.14977086">
        <ele>53.0</ele>
        <time>2019-10-25T10:12:25Z</time>
      </trkpt>
      <trkpt lat="36.41895321" lon="-6.14976801">
        <ele>54.0</ele>
        <time>2019-10-25T10:12:42Z</time>
      </trkpt>
      <trkpt lat="36.41900004" lon="-6.14976088">
        <ele>56.0</ele>
        <time>2019-10-25T10:12:46Z</time>
      </trkpt>
      <trkpt lat="36.41904435" lon="-6.1497483">
        <ele>55.0</ele>
        <time>2019-10-25T10:12:50Z</time>
      </trkpt>
      <trkpt lat="36.41909549" lon="-6.14974409">
        <ele>53.0</ele>
        <time>2019-10-25T10:12:55Z</time>
      </trkpt>
      <trkpt lat="36.41914138" lon="-6.14973999">
        <ele>55.0</ele>
        <time>2019-10-25T10:13:00Z</time>
      </trkpt>
      <trkpt lat="36.41919694" lon="-6.14972857">
        <ele>52.0</ele>
        <time>2019-10-25T10:13:05Z</time>
      </trkpt>
      <trkpt lat="36.41924452" lon="-6.149703">
        <ele>52.0</ele>
        <time>2019-10-25T10:13:08Z</time>
      </trkpt>
      <trkpt lat="36.41928611" lon="-6.14968116">
        <ele>53.0</ele>
        <time>2019-10-25T10:13:10Z</time>
      </trkpt>
      <trkpt lat="36.41934927" lon="-6.14965828">
        <ele>56.0</ele>
        <time>2019-10-25T10:13:13Z</time>
      </trkpt>
      <trkpt lat="36.41940016" lon="-6.14964433">
        <ele>58.0</ele>
        <time>2019-10-25T10:13:15Z</time>
      </trkpt>
      <trkpt lat="36.41944855" lon="-6.14962968">
        <ele>59.0</ele>
        <time>2019-10-25T10:13:17Z</time>
      </trkpt>
      <trkpt lat="36.41949293" lon="-6.14961476">
        <ele>57.0</ele>
        <time>2019-10-25T10:13:19Z</time>
      </trkpt>
      <trkpt lat="36.41955253" lon="-6.14961355">
        <ele>57.0</ele>
        <time>2019-10-25T10:13:22Z</time>
      </trkpt>
      <trkpt lat="36.41960345" lon="-6.14960275">
        <ele>59.0</ele>
        <time>2019-10-25T10:13:25Z</time>
      </trkpt>
      <trkpt lat="36.41964807" lon="-6.14957105">
        <ele>60.0</ele>
        <time>2019-10-25T10:13:29Z</time>
      </trkpt>
      <trkpt lat="36.41969909" lon="-6.14955867">
        <ele>59.0</ele>
        <time>2019-10-25T10:13:32Z</time>
      </trkpt>
      <trkpt lat="36.41975387" lon="-6.14955557">
        <ele>59.0</ele>
        <time>2019-10-25T10:13:35Z</time>
      </trkpt>
      <trkpt lat="36.41980195" lon="-6.14952991">
        <ele>61.0</ele>
        <time>2019-10-25T10:13:38Z</time>
      </trkpt>
      <trkpt lat="36.41984627" lon="-6.14951134">
        <ele>58.0</ele>
        <time>2019-10-25T10:13:41Z</time>
      </trkpt>
      <trkpt lat="36.4198812" lon="-6.14946265">
        <ele>57.0</ele>
        <time>2019-10-25T10:13:43Z</time>
      </trkpt>
      <trkpt lat="36.41990676" lon="-6.14939218">
        <ele>57.0</ele>
        <time>2019-10-25T10:13:46Z</time>
      </trkpt>
      <trkpt lat="36.41994181" lon="-6.14932296">
        <ele>56.0</ele>
        <time>2019-10-25T10:13:49Z</time>
      </trkpt>
      <trkpt lat="36.41996933" lon="-6.14925609">
        <ele>53.0</ele>
        <time>2019-10-25T10:13:52Z</time>
      </trkpt>
      <trkpt lat="36.42000006" lon="-6.14921012">
        <ele>48.0</ele>
        <time>2019-10-25T10:13:56Z</time>
      </trkpt>
      <trkpt lat="36.42004049" lon="-6.14916772">
        <ele>52.0</ele>
        <time>2019-10-25T10:14:00Z</time>
      </trkpt>
      <trkpt lat="36.42007825" lon="-6.14912689">
        <ele>55.0</ele>
        <time>2019-10-25T10:14:04Z</time>
      </trkpt>
      <trkpt lat="36.4201025" lon="-6.14907089">
        <ele>55.0</ele>
        <time>2019-10-25T10:14:12Z</time>
      </trkpt>
      <trkpt lat="36.42011314" lon="-6.14901594">
        <ele>51.0</ele>
        <time>2019-10-25T10:14:19Z</time>
      </trkpt>
      <trkpt lat="36.42006032" lon="-6.14902379">
        <ele>53.0</ele>
        <time>2019-10-25T10:14:30Z</time>
      </trkpt>
      <trkpt lat="36.42009147" lon="-6.14898293">
        <ele>49.0</ele>
        <time>2019-10-25T10:14:38Z</time>
      </trkpt>
      <trkpt lat="36.42014043" lon="-6.14894682">
        <ele>47.0</ele>
        <time>2019-10-25T10:14:43Z</time>
      </trkpt>
      <trkpt lat="36.42018092" lon="-6.14890748">
        <ele>43.0</ele>
        <time>2019-10-25T10:14:49Z</time>
      </trkpt>
      <trkpt lat="36.42022847" lon="-6.14887785">
        <ele>36.0</ele>
        <time>2019-10-25T10:14:54Z</time>
      </trkpt>
      <trkpt lat="36.42025892" lon="-6.14883469">
        <ele>35.0</ele>
        <time>2019-10-25T10:14:58Z</time>
      </trkpt>
      <trkpt lat="36.42029896" lon="-6.14878757">
        <ele>37.0</ele>
        <time>2019-10-25T10:15:01Z</time>
      </trkpt>
      <trkpt lat="36.42034114" lon="-6.14873902">
        <ele>39.0</ele>
        <time>2019-10-25T10:15:05Z</time>
      </trkpt>
      <trkpt lat="36.42038496" lon="-6.14870495">
        <ele>36.0</ele>
        <time>2019-10-25T10:15:08Z</time>
      </trkpt>
      <trkpt lat="36.42042439" lon="-6.14863191">
        <ele>40.0</ele>
        <time>2019-10-25T10:15:10Z</time>
      </trkpt>
      <trkpt lat="36.42045297" lon="-6.14854486">
        <ele>41.0</ele>
        <time>2019-10-25T10:15:12Z</time>
      </trkpt>
      <trkpt lat="36.42048645" lon="-6.14847819">
        <ele>41.0</ele>
        <time>2019-10-25T10:15:14Z</time>
      </trkpt>
      <trkpt lat="36.42051505" lon="-6.14842655">
        <ele>40.0</ele>
        <time>2019-10-25T10:15:17Z</time>
      </trkpt>
      <trkpt lat="36.42055885" lon="-6.1483969">
        <ele>47.0</ele>
        <time>2019-10-25T10:15:23Z</time>
      </trkpt>
      <trkpt lat="36.42059085" lon="-6.14832658">
        <ele>48.0</ele>
        <time>2019-10-25T10:15:25Z</time>
      </trkpt>
      <trkpt lat="36.42060908" lon="-6.14825818">
        <ele>48.0</ele>
        <time>2019-10-25T10:15:27Z</time>
      </trkpt>
      <trkpt lat="36.42062206" lon="-6.14819423">
        <ele>48.0</ele>
        <time>2019-10-25T10:15:29Z</time>
      </trkpt>
      <trkpt lat="36.42064761" lon="-6.14812929">
        <ele>49.0</ele>
        <time>2019-10-25T10:15:32Z</time>
      </trkpt>
      <trkpt lat="36.42069201" lon="-6.14807832">
        <ele>52.0</ele>
        <time>2019-10-25T10:15:35Z</time>
      </trkpt>
      <trkpt lat="36.42073403" lon="-6.14803173">
        <ele>52.0</ele>
        <time>2019-10-25T10:15:37Z</time>
      </trkpt>
      <trkpt lat="36.42077127" lon="-6.14796872">
        <ele>50.0</ele>
        <time>2019-10-25T10:15:40Z</time>
      </trkpt>
      <trkpt lat="36.42078965" lon="-6.14791135">
        <ele>50.0</ele>
        <time>2019-10-25T10:15:42Z</time>
      </trkpt>
      <trkpt lat="36.42081056" lon="-6.14785374">
        <ele>51.0</ele>
        <time>2019-10-25T10:15:44Z</time>
      </trkpt>
      <trkpt lat="36.42082398" lon="-6.14779912">
        <ele>47.0</ele>
        <time>2019-10-25T10:15:49Z</time>
      </trkpt>
      <trkpt lat="36.42082298" lon="-6.14773158">
        <ele>52.0</ele>
        <time>2019-10-25T10:16:08Z</time>
      </trkpt>
      <trkpt lat="36.42078474" lon="-6.1476791">
        <ele>53.0</ele>
        <time>2019-10-25T10:16:11Z</time>
      </trkpt>
      <trkpt lat="36.42078946" lon="-6.1476193">
        <ele>54.0</ele>
        <time>2019-10-25T10:16:14Z</time>
      </trkpt>
      <trkpt lat="36.42079376" lon="-6.14750205">
        <ele>55.0</ele>
        <time>2019-10-25T10:16:18Z</time>
      </trkpt>
      <trkpt lat="36.42078154" lon="-6.14742448">
        <ele>54.0</ele>
        <time>2019-10-25T10:16:20Z</time>
      </trkpt>
      <trkpt lat="36.42077398" lon="-6.14736276">
        <ele>55.0</ele>
        <time>2019-10-25T10:16:22Z</time>
      </trkpt>
      <trkpt lat="36.42077119" lon="-6.14730054">
        <ele>52.0</ele>
        <time>2019-10-25T10:16:25Z</time>
      </trkpt>
      <trkpt lat="36.42076905" lon="-6.14723685">
        <ele>55.0</ele>
        <time>2019-10-25T10:16:34Z</time>
      </trkpt>
      <trkpt lat="36.42077672" lon="-6.14718096">
        <ele>53.0</ele>
        <time>2019-10-25T10:16:43Z</time>
      </trkpt>
      <trkpt lat="36.4207586" lon="-6.14712487">
        <ele>51.0</ele>
        <time>2019-10-25T10:16:49Z</time>
      </trkpt>
      <trkpt lat="36.42073341" lon="-6.14707302">
        <ele>49.0</ele>
        <time>2019-10-25T10:16:56Z</time>
      </trkpt>
      <trkpt lat="36.42070655" lon="-6.1470236">
        <ele>50.0</ele>
        <time>2019-10-25T10:17:01Z</time>
      </trkpt>
      <trkpt lat="36.42069004" lon="-6.14695485">
        <ele>51.0</ele>
        <time>2019-10-25T10:17:04Z</time>
      </trkpt>
      <trkpt lat="36.42066644" lon="-6.14690159">
        <ele>56.0</ele>
        <time>2019-10-25T10:17:07Z</time>
      </trkpt>
      <trkpt lat="36.42063034" lon="-6.14684063">
        <ele>60.0</ele>
        <time>2019-10-25T10:17:09Z</time>
      </trkpt>
      <trkpt lat="36.42059624" lon="-6.14676273">
        <ele>60.0</ele>
        <time>2019-10-25T10:17:11Z</time>
      </trkpt>
      <trkpt lat="36.42058281" lon="-6.14669088">
        <ele>60.0</ele>
        <time>2019-10-25T10:17:13Z</time>
      </trkpt>
      <trkpt lat="36.42057224" lon="-6.14660541">
        <ele>59.0</ele>
        <time>2019-10-25T10:17:15Z</time>
      </trkpt>
      <trkpt lat="36.42055947" lon="-6.14653237">
        <ele>60.0</ele>
        <time>2019-10-25T10:17:17Z</time>
      </trkpt>
      <trkpt lat="36.42053721" lon="-6.14647496">
        <ele>57.0</ele>
        <time>2019-10-25T10:17:19Z</time>
      </trkpt>
      <trkpt lat="36.42049787" lon="-6.1464096">
        <ele>58.0</ele>
        <time>2019-10-25T10:17:22Z</time>
      </trkpt>
      <trkpt lat="36.4204695" lon="-6.14636269">
        <ele>58.0</ele>
        <time>2019-10-25T10:17:27Z</time>
      </trkpt>
      <trkpt lat="36.42042745" lon="-6.14633186">
        <ele>59.0</ele>
        <time>2019-10-25T10:17:31Z</time>
      </trkpt>
      <trkpt lat="36.42034845" lon="-6.14625703">
        <ele>55.0</ele>
        <time>2019-10-25T10:17:38Z</time>
      </trkpt>
      <trkpt lat="36.420273" lon="-6.14626685">
        <ele>55.0</ele>
        <time>2019-10-25T10:17:47Z</time>
      </trkpt>
      <trkpt lat="36.42028687" lon="-6.14620372">
        <ele>55.0</ele>
        <time>2019-10-25T10:17:49Z</time>
      </trkpt>
      <trkpt lat="36.42028373" lon="-6.14614538">
        <ele>55.0</ele>
        <time>2019-10-25T10:17:52Z</time>
      </trkpt>
      <trkpt lat="36.4202958" lon="-6.14608294">
        <ele>54.0</ele>
        <time>2019-10-25T10:17:55Z</time>
      </trkpt>
      <trkpt lat="36.42032329" lon="-6.14601183">
        <ele>53.0</ele>
        <time>2019-10-25T10:17:59Z</time>
      </trkpt>
      <trkpt lat="36.42033696" lon="-6.145941">
        <ele>51.0</ele>
        <time>2019-10-25T10:18:02Z</time>
      </trkpt>
      <trkpt lat="36.42037302" lon="-6.1458727">
        <ele>51.0</ele>
        <time>2019-10-25T10:18:04Z</time>
      </trkpt>
      <trkpt lat="36.42033461" lon="-6.14583918">
        <ele>51.0</ele>
        <time>2019-10-25T10:18:08Z</time>
      </trkpt>
      <trkpt lat="36.42027627" lon="-6.14582019">
        <ele>50.0</ele>
        <time>2019-10-25T10:18:11Z</time>
      </trkpt>
      <trkpt lat="36.42022384" lon="-6.1457854">
        <ele>49.0</ele>
        <time>2019-10-25T10:18:15Z</time>
      </trkpt>
      <trkpt lat="36.42019367" lon="-6.14573889">
        <ele>49.0</ele>
        <time>2019-10-25T10:18:20Z</time>
      </trkpt>
      <trkpt lat="36.4201423" lon="-6.14573422">
        <ele>41.0</ele>
        <time>2019-10-25T10:18:33Z</time>
      </trkpt>
      <trkpt lat="36.42009697" lon="-6.14571657">
        <ele>43.0</ele>
        <time>2019-10-25T10:18:38Z</time>
      </trkpt>
      <trkpt lat="36.42004298" lon="-6.14569587">
        <ele>43.0</ele>
        <time>2019-10-25T10:18:42Z</time>
      </trkpt>
      <trkpt lat="36.41998156" lon="-6.14568156">
        <ele>45.0</ele>
        <time>2019-10-25T10:18:45Z</time>
      </trkpt>
      <trkpt lat="36.41993364" lon="-6.14567922">
        <ele>46.0</ele>
        <time>2019-10-25T10:18:47Z</time>
      </trkpt>
      <trkpt lat="36.41988902" lon="-6.14566287">
        <ele>46.0</ele>
        <time>2019-10-25T10:18:49Z</time>
      </trkpt>
      <trkpt lat="36.41983999" lon="-6.14563939">
        <ele>43.0</ele>
        <time>2019-10-25T10:18:51Z</time>
      </trkpt>
      <trkpt lat="36.41979675" lon="-6.14562004">
        <ele>43.0</ele>
        <time>2019-10-25T10:18:53Z</time>
      </trkpt>
      <trkpt lat="36.41974268" lon="-6.1456068">
        <ele>42.0</ele>
        <time>2019-10-25T10:18:57Z</time>
      </trkpt>
      <trkpt lat="36.41969689" lon="-6.14558382">
        <ele>43.0</ele>
        <time>2019-10-25T10:19:01Z</time>
      </trkpt>
      <trkpt lat="36.41965848" lon="-6.14555145">
        <ele>46.0</ele>
        <time>2019-10-25T10:19:04Z</time>
      </trkpt>
      <trkpt lat="36.41960131" lon="-6.14553018">
        <ele>48.0</ele>
        <time>2019-10-25T10:19:08Z</time>
      </trkpt>
      <trkpt lat="36.41953406" lon="-6.1454946">
        <ele>53.0</ele>
        <time>2019-10-25T10:19:11Z</time>
      </trkpt>
      <trkpt lat="36.41948772" lon="-6.14547781">
        <ele>56.0</ele>
        <time>2019-10-25T10:19:13Z</time>
      </trkpt>
      <trkpt lat="36.41943174" lon="-6.1454759">
        <ele>54.0</ele>
        <time>2019-10-25T10:19:17Z</time>
      </trkpt>
      <trkpt lat="36.41938366" lon="-6.14546049">
        <ele>56.0</ele>
        <time>2019-10-25T10:19:22Z</time>
      </trkpt>
      <trkpt lat="36.41933743" lon="-6.14546235">
        <ele>54.0</ele>
        <time>2019-10-25T10:19:26Z</time>
      </trkpt>
      <trkpt lat="36.41928662" lon="-6.14546417">
        <ele>55.0</ele>
        <time>2019-10-25T10:19:31Z</time>
      </trkpt>
      <trkpt lat="36.4192405" lon="-6.14546354">
        <ele>54.0</ele>
        <time>2019-10-25T10:19:35Z</time>
      </trkpt>
      <trkpt lat="36.41918726" lon="-6.14545698">
        <ele>55.0</ele>
        <time>2019-10-25T10:19:39Z</time>
      </trkpt>
      <trkpt lat="36.41913914" lon="-6.14544937">
        <ele>57.0</ele>
        <time>2019-10-25T10:19:42Z</time>
      </trkpt>
      <trkpt lat="36.4190677" lon="-6.14544233">
        <ele>58.0</ele>
        <time>2019-10-25T10:19:46Z</time>
      </trkpt>
      <trkpt lat="36.41902238" lon="-6.14545899">
        <ele>64.0</ele>
        <time>2019-10-25T10:19:51Z</time>
      </trkpt>
      <trkpt lat="36.4189885" lon="-6.14550964">
        <ele>63.0</ele>
        <time>2019-10-25T10:19:56Z</time>
      </trkpt>
      <trkpt lat="36.4189659" lon="-6.14557163">
        <ele>60.0</ele>
        <time>2019-10-25T10:19:59Z</time>
      </trkpt>
      <trkpt lat="36.41897177" lon="-6.14562835">
        <ele>57.0</ele>
        <time>2019-10-25T10:20:09Z</time>
      </trkpt>
      <trkpt lat="36.41895488" lon="-6.14568246">
        <ele>57.0</ele>
        <time>2019-10-25T10:20:16Z</time>
      </trkpt>
      <trkpt lat="36.41890696" lon="-6.14572647">
        <ele>58.0</ele>
        <time>2019-10-25T10:20:19Z</time>
      </trkpt>
      <trkpt lat="36.41888463" lon="-6.14578759">
        <ele>56.0</ele>
        <time>2019-10-25T10:20:23Z</time>
      </trkpt>
      <trkpt lat="36.41884248" lon="-6.14582927">
        <ele>58.0</ele>
        <time>2019-10-25T10:20:27Z</time>
      </trkpt>
      <trkpt lat="36.41880082" lon="-6.14586793">
        <ele>60.0</ele>
        <time>2019-10-25T10:20:31Z</time>
      </trkpt>
      <trkpt lat="36.41874064" lon="-6.14590738">
        <ele>61.0</ele>
        <time>2019-10-25T10:20:42Z</time>
      </trkpt>
      <trkpt lat="36.41869522" lon="-6.1459388">
        <ele>59.0</ele>
        <time>2019-10-25T10:20:45Z</time>
      </trkpt>
      <trkpt lat="36.41865021" lon="-6.14594582">
        <ele>60.0</ele>
        <time>2019-10-25T10:20:48Z</time>
      </trkpt>
      <trkpt lat="36.41860811" lon="-6.14596679">
        <ele>60.0</ele>
        <time>2019-10-25T10:20:53Z</time>
      </trkpt>
      <trkpt lat="36.41856253" lon="-6.14600134">
        <ele>63.0</ele>
        <time>2019-10-25T10:20:57Z</time>
      </trkpt>
      <trkpt lat="36.41851812" lon="-6.14602683">
        <ele>62.0</ele>
        <time>2019-10-25T10:20:59Z</time>
      </trkpt>
      <trkpt lat="36.41846733" lon="-6.14606114">
        <ele>66.0</ele>
        <time>2019-10-25T10:21:02Z</time>
      </trkpt>
      <trkpt lat="36.41842618" lon="-6.1460918">
        <ele>65.0</ele>
        <time>2019-10-25T10:21:07Z</time>
      </trkpt>
      <trkpt lat="36.41838638" lon="-6.14613079">
        <ele>63.0</ele>
        <time>2019-10-25T10:21:13Z</time>
      </trkpt>
      <trkpt lat="36.41833084" lon="-6.14617057">
        <ele>61.0</ele>
        <time>2019-10-25T10:21:17Z</time>
      </trkpt>
      <trkpt lat="36.41827753" lon="-6.1461902">
        <ele>58.0</ele>
        <time>2019-10-25T10:21:19Z</time>
      </trkpt>
      <trkpt lat="36.41820726" lon="-6.14619493">
        <ele>60.0</ele>
        <time>2019-10-25T10:21:21Z</time>
      </trkpt>
      <trkpt lat="36.4181586" lon="-6.14617416">
        <ele>60.0</ele>
        <time>2019-10-25T10:21:23Z</time>
      </trkpt>
      <trkpt lat="36.41810615" lon="-6.14618571">
        <ele>57.0</ele>
        <time>2019-10-25T10:21:32Z</time>
      </trkpt>
      <trkpt lat="36.41807044" lon="-6.14622196">
        <ele>58.0</ele>
        <time>2019-10-25T10:21:37Z</time>
      </trkpt>
      <trkpt lat="36.41802782" lon="-6.14617972">
        <ele>45.0</ele>
        <time>2019-10-25T10:21:48Z</time>
      </trkpt>
      <trkpt lat="36.4179818" lon="-6.14617748">
        <ele>44.0</ele>
        <time>2019-10-25T10:21:53Z</time>
      </trkpt>
      <trkpt lat="36.41793919" lon="-6.14622214">
        <ele>38.0</ele>
        <time>2019-10-25T10:22:00Z</time>
      </trkpt>
      <trkpt lat="36.41789594" lon="-6.14627398">
        <ele>40.0</ele>
        <time>2019-10-25T10:22:03Z</time>
      </trkpt>
      <trkpt lat="36.41785843" lon="-6.14630987">
        <ele>41.0</ele>
        <time>2019-10-25T10:22:05Z</time>
      </trkpt>
      <trkpt lat="36.41781951" lon="-6.14633953">
        <ele>43.0</ele>
        <time>2019-10-25T10:22:07Z</time>
      </trkpt>
      <trkpt lat="36.41775776" lon="-6.14636605">
        <ele>44.0</ele>
        <time>2019-10-25T10:22:10Z</time>
      </trkpt>
      <trkpt lat="36.41769733" lon="-6.14636653">
        <ele>49.0</ele>
        <time>2019-10-25T10:22:13Z</time>
      </trkpt>
      <trkpt lat="36.41765119" lon="-6.14634464">
        <ele>48.0</ele>
        <time>2019-10-25T10:22:15Z</time>
      </trkpt>
      <trkpt lat="36.41760633" lon="-6.1463268">
        <ele>50.0</ele>
        <time>2019-10-25T10:22:17Z</time>
      </trkpt>
      <trkpt lat="36.41754727" lon="-6.14631972">
        <ele>52.0</ele>
        <time>2019-10-25T10:22:20Z</time>
      </trkpt>
      <trkpt lat="36.41749799" lon="-6.14629033">
        <ele>56.0</ele>
        <time>2019-10-25T10:22:23Z</time>
      </trkpt>
      <trkpt lat="36.41745468" lon="-6.14626626">
        <ele>60.0</ele>
        <time>2019-10-25T10:22:27Z</time>
      </trkpt>
      <trkpt lat="36.41740491" lon="-6.14625454">
        <ele>64.0</ele>
        <time>2019-10-25T10:22:58Z</time>
      </trkpt>
      <trkpt lat="36.41735864" lon="-6.14626059">
        <ele>62.0</ele>
        <time>2019-10-25T10:23:04Z</time>
      </trkpt>
      <trkpt lat="36.41730496" lon="-6.14626981">
        <ele>66.0</ele>
        <time>2019-10-25T10:23:09Z</time>
      </trkpt>
      <trkpt lat="36.41725973" lon="-6.1462424">
        <ele>68.0</ele>
        <time>2019-10-25T10:23:14Z</time>
      </trkpt>
      <trkpt lat="36.417199" lon="-6.14622495">
        <ele>69.0</ele>
        <time>2019-10-25T10:23:20Z</time>
      </trkpt>
      <trkpt lat="36.4171496" lon="-6.14623275">
        <ele>70.0</ele>
        <time>2019-10-25T10:23:22Z</time>
      </trkpt>
      <trkpt lat="36.41709466" lon="-6.14624326">
        <ele>69.0</ele>
        <time>2019-10-25T10:23:24Z</time>
      </trkpt>
      <trkpt lat="36.41703409" lon="-6.14625397">
        <ele>69.0</ele>
        <time>2019-10-25T10:23:27Z</time>
      </trkpt>
      <trkpt lat="36.41697877" lon="-6.14625713">
        <ele>71.0</ele>
        <time>2019-10-25T10:23:30Z</time>
      </trkpt>
      <trkpt lat="36.4169098" lon="-6.14627628">
        <ele>73.0</ele>
        <time>2019-10-25T10:23:33Z</time>
      </trkpt>
      <trkpt lat="36.41685613" lon="-6.14628455">
        <ele>71.0</ele>
        <time>2019-10-25T10:23:35Z</time>
      </trkpt>
      <trkpt lat="36.41679117" lon="-6.14628491">
        <ele>69.0</ele>
        <time>2019-10-25T10:23:38Z</time>
      </trkpt>
      <trkpt lat="36.41674357" lon="-6.14627603">
        <ele>65.0</ele>
        <time>2019-10-25T10:23:42Z</time>
      </trkpt>
      <trkpt lat="36.41669058" lon="-6.14628025">
        <ele>69.0</ele>
        <time>2019-10-25T10:23:51Z</time>
      </trkpt>
      <trkpt lat="36.41663767" lon="-6.14629984">
        <ele>67.0</ele>
        <time>2019-10-25T10:23:53Z</time>
      </trkpt>
      <trkpt lat="36.41659879" lon="-6.14633063">
        <ele>67.0</ele>
        <time>2019-10-25T10:23:58Z</time>
      </trkpt>
      <trkpt lat="36.41655161" lon="-6.14635296">
        <ele>65.0</ele>
        <time>2019-10-25T10:24:07Z</time>
      </trkpt>
      <trkpt lat="36.41649137" lon="-6.1463836">
        <ele>65.0</ele>
        <time>2019-10-25T10:24:10Z</time>
      </trkpt>
      <trkpt lat="36.41644426" lon="-6.14641878">
        <ele>65.0</ele>
        <time>2019-10-25T10:24:14Z</time>
      </trkpt>
      <trkpt lat="36.41646766" lon="-6.14647164">
        <ele>63.0</ele>
        <time>2019-10-25T10:24:24Z</time>
      </trkpt>
      <trkpt lat="36.41648017" lon="-6.14652694">
        <ele>63.0</ele>
        <time>2019-10-25T10:24:27Z</time>
      </trkpt>
      <trkpt lat="36.41652272" lon="-6.14659314">
        <ele>62.0</ele>
        <time>2019-10-25T10:24:30Z</time>
      </trkpt>
      <trkpt lat="36.41655425" lon="-6.14663479">
        <ele>60.0</ele>
        <time>2019-10-25T10:24:32Z</time>
      </trkpt>
      <trkpt lat="36.41659047" lon="-6.14668451">
        <ele>61.0</ele>
        <time>2019-10-25T10:24:35Z</time>
      </trkpt>
      <trkpt lat="36.41660456" lon="-6.14674874">
        <ele>61.0</ele>
        <time>2019-10-25T10:24:49Z</time>
      </trkpt>
      <trkpt lat="36.41661103" lon="-6.14682001">
        <ele>58.0</ele>
        <time>2019-10-25T10:24:54Z</time>
      </trkpt>
      <trkpt lat="36.41658396" lon="-6.14688036">
        <ele>62.0</ele>
        <time>2019-10-25T10:25:00Z</time>
      </trkpt>
      <trkpt lat="36.41657568" lon="-6.14693525">
        <ele>63.0</ele>
        <time>2019-10-25T10:25:02Z</time>
      </trkpt>
      <trkpt lat="36.41659569" lon="-6.14701865">
        <ele>60.0</ele>
        <time>2019-10-25T10:25:04Z</time>
      </trkpt>
      <trkpt lat="36.4166115" lon="-6.14708887">
        <ele>58.0</ele>
        <time>2019-10-25T10:25:06Z</time>
      </trkpt>
      <trkpt lat="36.41661604" lon="-6.14714759">
        <ele>58.0</ele>
        <time>2019-10-25T10:25:09Z</time>
      </trkpt>
      <trkpt lat="36.41660626" lon="-6.14720652">
        <ele>63.0</ele>
        <time>2019-10-25T10:25:17Z</time>
      </trkpt>
      <trkpt lat="36.4166184" lon="-6.14729139">
        <ele>66.0</ele>
        <time>2019-10-25T10:25:19Z</time>
      </trkpt>
      <trkpt lat="36.41664411" lon="-6.14734056">
        <ele>69.0</ele>
        <time>2019-10-25T10:25:21Z</time>
      </trkpt>
      <trkpt lat="36.41668771" lon="-6.14739958">
        <ele>67.0</ele>
        <time>2019-10-25T10:25:28Z</time>
      </trkpt>
      <trkpt lat="36.4167022" lon="-6.14745371">
        <ele>67.0</ele>
        <time>2019-10-25T10:25:33Z</time>
      </trkpt>
      <trkpt lat="36.41672227" lon="-6.14750631">
        <ele>68.0</ele>
        <time>2019-10-25T10:25:38Z</time>
      </trkpt>
      <trkpt lat="36.41673988" lon="-6.14757017">
        <ele>68.0</ele>
        <time>2019-10-25T10:25:42Z</time>
      </trkpt>
      <trkpt lat="36.41677416" lon="-6.14760784">
        <ele>67.0</ele>
        <time>2019-10-25T10:25:45Z</time>
      </trkpt>
      <trkpt lat="36.41681643" lon="-6.14764761">
        <ele>67.0</ele>
        <time>2019-10-25T10:25:48Z</time>
      </trkpt>
      <trkpt lat="36.41685015" lon="-6.14773681">
        <ele>67.0</ele>
        <time>2019-10-25T10:25:54Z</time>
      </trkpt>
      <trkpt lat="36.41679872" lon="-6.14778288">
        <ele>68.0</ele>
        <time>2019-10-25T10:25:58Z</time>
      </trkpt>
      <trkpt lat="36.41681721" lon="-6.14785038">
        <ele>68.0</ele>
        <time>2019-10-25T10:26:02Z</time>
      </trkpt>
      <trkpt lat="36.41685428" lon="-6.14789968">
        <ele>68.0</ele>
        <time>2019-10-25T10:26:04Z</time>
      </trkpt>
      <trkpt lat="36.41695422" lon="-6.14801666">
        <ele>66.0</ele>
        <time>2019-10-25T10:26:12Z</time>
      </trkpt>
      <trkpt lat="36.41692247" lon="-6.14807991">
        <ele>67.0</ele>
        <time>2019-10-25T10:26:15Z</time>
      </trkpt>
      <trkpt lat="36.41690789" lon="-6.14813517">
        <ele>68.0</ele>
        <time>2019-10-25T10:26:18Z</time>
      </trkpt>
      <trkpt lat="36.41697199" lon="-6.14814624">
        <ele>68.0</ele>
        <time>2019-10-25T10:26:21Z</time>
      </trkpt>
      <trkpt lat="36.41702142" lon="-6.1481809">
        <ele>69.0</ele>
        <time>2019-10-25T10:26:24Z</time>
      </trkpt>
      <trkpt lat="36.41703784" lon="-6.1482355">
        <ele>70.0</ele>
        <time>2019-10-25T10:26:28Z</time>
      </trkpt>
      <trkpt lat="36.41705038" lon="-6.14830767">
        <ele>71.0</ele>
        <time>2019-10-25T10:26:32Z</time>
      </trkpt>
      <trkpt lat="36.41704035" lon="-6.14836859">
        <ele>71.0</ele>
        <time>2019-10-25T10:26:35Z</time>
      </trkpt>
      <trkpt lat="36.41705285" lon="-6.14842912">
        <ele>68.0</ele>
        <time>2019-10-25T10:26:39Z</time>
      </trkpt>
      <trkpt lat="36.41705674" lon="-6.14850224">
        <ele>64.0</ele>
        <time>2019-10-25T10:26:47Z</time>
      </trkpt>
      <trkpt lat="36.41702358" lon="-6.14856149">
        <ele>64.0</ele>
        <time>2019-10-25T10:26:51Z</time>
      </trkpt>
      <trkpt lat="36.41700924" lon="-6.14862734">
        <ele>64.0</ele>
        <time>2019-10-25T10:26:55Z</time>
      </trkpt>
      <trkpt lat="36.4170537" lon="-6.14868338">
        <ele>65.0</ele>
        <time>2019-10-25T10:26:59Z</time>
      </trkpt>
      <trkpt lat="36.41710842" lon="-6.14871572">
        <ele>65.0</ele>
        <time>2019-10-25T10:27:02Z</time>
      </trkpt>
      <trkpt lat="36.41710741" lon="-6.14877378">
        <ele>64.0</ele>
        <time>2019-10-25T10:27:06Z</time>
      </trkpt>
      <trkpt lat="36.41708269" lon="-6.14883434">
        <ele>64.0</ele>
        <time>2019-10-25T10:27:09Z</time>
      </trkpt>
      <trkpt lat="36.41705192" lon="-6.1489014">
        <ele>65.0</ele>
        <time>2019-10-25T10:27:12Z</time>
      </trkpt>
      <trkpt lat="36.41704451" lon="-6.14896559">
        <ele>65.0</ele>
        <time>2019-10-25T10:27:15Z</time>
      </trkpt>
      <trkpt lat="36.41707979" lon="-6.14901179">
        <ele>62.0</ele>
        <time>2019-10-25T10:27:19Z</time>
      </trkpt>
      <trkpt lat="36.41713932" lon="-6.14903581">
        <ele>65.0</ele>
        <time>2019-10-25T10:27:22Z</time>
      </trkpt>
      <trkpt lat="36.41718068" lon="-6.14906413">
        <ele>62.0</ele>
        <time>2019-10-25T10:27:24Z</time>
      </trkpt>
      <trkpt lat="36.41723217" lon="-6.14910174">
        <ele>63.0</ele>
        <time>2019-10-25T10:27:27Z</time>
      </trkpt>
      <trkpt lat="36.41727159" lon="-6.14914342">
        <ele>66.0</ele>
        <time>2019-10-25T10:27:30Z</time>
      </trkpt>
      <trkpt lat="36.41729166" lon="-6.14919553">
        <ele>67.0</ele>
        <time>2019-10-25T10:27:33Z</time>
      </trkpt>
      <trkpt lat="36.41727349" lon="-6.14931257">
        <ele>68.0</ele>
        <time>2019-10-25T10:27:40Z</time>
      </trkpt>
      <trkpt lat="36.41720785" lon="-6.14941395">
        <ele>65.0</ele>
        <time>2019-10-25T10:27:46Z</time>
      </trkpt>
      <trkpt lat="36.41715708" lon="-6.14945411">
        <ele>67.0</ele>
        <time>2019-10-25T10:27:50Z</time>
      </trkpt>
      <trkpt lat="36.41711888" lon="-6.14948578">
        <ele>64.0</ele>
        <time>2019-10-25T10:27:54Z</time>
      </trkpt>
      <trkpt lat="36.41708206" lon="-6.1495292">
        <ele>59.0</ele>
        <time>2019-10-25T10:27:59Z</time>
      </trkpt>
      <trkpt lat="36.4170354" lon="-6.14955011">
        <ele>61.0</ele>
        <time>2019-10-25T10:28:03Z</time>
      </trkpt>
      <trkpt lat="36.41698683" lon="-6.14956712">
        <ele>65.0</ele>
        <time>2019-10-25T10:28:08Z</time>
      </trkpt>
      <trkpt lat="36.41693502" lon="-6.14955367">
        <ele>65.0</ele>
        <time>2019-10-25T10:28:13Z</time>
      </trkpt>
      <trkpt lat="36.41688773" lon="-6.14956106">
        <ele>67.0</ele>
        <time>2019-10-25T10:28:17Z</time>
      </trkpt>
      <trkpt lat="36.41684158" lon="-6.14956124">
        <ele>68.0</ele>
        <time>2019-10-25T10:28:21Z</time>
      </trkpt>
      <trkpt lat="36.41679168" lon="-6.14958315">
        <ele>68.0</ele>
        <time>2019-10-25T10:28:26Z</time>
      </trkpt>
      <trkpt lat="36.41676354" lon="-6.14964185">
        <ele>69.0</ele>
        <time>2019-10-25T10:28:32Z</time>
      </trkpt>
      <trkpt lat="36.4167371" lon="-6.14969501">
        <ele>68.0</ele>
        <time>2019-10-25T10:28:35Z</time>
      </trkpt>
      <trkpt lat="36.41672089" lon="-6.14978223">
        <ele>67.0</ele>
        <time>2019-10-25T10:28:38Z</time>
      </trkpt>
      <trkpt lat="36.41672833" lon="-6.14983839">
        <ele>66.0</ele>
        <time>2019-10-25T10:28:39Z</time>
      </trkpt>
      <trkpt lat="36.41674263" lon="-6.14989145">
        <ele>67.0</ele>
        <time>2019-10-25T10:28:40Z</time>
      </trkpt>
      <trkpt lat="36.41676935" lon="-6.14996135">
        <ele>66.0</ele>
        <time>2019-10-25T10:28:42Z</time>
      </trkpt>
      <trkpt lat="36.41676933" lon="-6.15001821">
        <ele>66.0</ele>
        <time>2019-10-25T10:28:45Z</time>
      </trkpt>
      <trkpt lat="36.41676021" lon="-6.15009414">
        <ele>67.0</ele>
        <time>2019-10-25T10:28:48Z</time>
      </trkpt>
      <trkpt lat="36.41673401" lon="-6.1501461">
        <ele>66.0</ele>
        <time>2019-10-25T10:28:52Z</time>
      </trkpt>
      <trkpt lat="36.41669441" lon="-6.15018517">
        <ele>69.0</ele>
        <time>2019-10-25T10:28:59Z</time>
      </trkpt>
      <trkpt lat="36.4166456" lon="-6.1501919">
        <ele>67.0</ele>
        <time>2019-10-25T10:29:03Z</time>
      </trkpt>
      <trkpt lat="36.41659457" lon="-6.15017324">
        <ele>68.0</ele>
        <time>2019-10-25T10:29:06Z</time>
      </trkpt>
      <trkpt lat="36.41654746" lon="-6.15018476">
        <ele>69.0</ele>
        <time>2019-10-25T10:29:12Z</time>
      </trkpt>
      <trkpt lat="36.41651277" lon="-6.15023315">
        <ele>70.0</ele>
        <time>2019-10-25T10:29:17Z</time>
      </trkpt>
      <trkpt lat="36.41650648" lon="-6.15029275">
        <ele>66.0</ele>
        <time>2019-10-25T10:29:22Z</time>
      </trkpt>
      <trkpt lat="36.41650625" lon="-6.15035965">
        <ele>69.0</ele>
        <time>2019-10-25T10:29:27Z</time>
      </trkpt>
      <trkpt lat="36.41649708" lon="-6.15042998">
        <ele>73.0</ele>
        <time>2019-10-25T10:29:31Z</time>
      </trkpt>
      <trkpt lat="36.41646692" lon="-6.15048816">
        <ele>72.0</ele>
        <time>2019-10-25T10:29:35Z</time>
      </trkpt>
      <trkpt lat="36.41644027" lon="-6.15054551">
        <ele>75.0</ele>
        <time>2019-10-25T10:29:39Z</time>
      </trkpt>
      <trkpt lat="36.41641414" lon="-6.15060254">
        <ele>74.0</ele>
        <time>2019-10-25T10:29:43Z</time>
      </trkpt>
      <trkpt lat="36.41640542" lon="-6.15065868">
        <ele>72.0</ele>
        <time>2019-10-25T10:29:47Z</time>
      </trkpt>
      <trkpt lat="36.4164064" lon="-6.15071596">
        <ele>73.0</ele>
        <time>2019-10-25T10:29:52Z</time>
      </trkpt>
      <trkpt lat="36.41640187" lon="-6.15078825">
        <ele>73.0</ele>
        <time>2019-10-25T10:29:56Z</time>
      </trkpt>
      <trkpt lat="36.41637109" lon="-6.15084632">
        <ele>74.0</ele>
        <time>2019-10-25T10:30:01Z</time>
      </trkpt>
      <trkpt lat="36.41635605" lon="-6.15091286">
        <ele>76.0</ele>
        <time>2019-10-25T10:30:06Z</time>
      </trkpt>
      <trkpt lat="36.41633515" lon="-6.15097437">
        <ele>77.0</ele>
        <time>2019-10-25T10:30:11Z</time>
      </trkpt>
      <trkpt lat="36.41630597" lon="-6.15102389">
        <ele>78.0</ele>
        <time>2019-10-25T10:30:15Z</time>
      </trkpt>
      <trkpt lat="36.41628454" lon="-6.15107574">
        <ele>77.0</ele>
        <time>2019-10-25T10:30:20Z</time>
      </trkpt>
      <trkpt lat="36.41628148" lon="-6.15114308">
        <ele>74.0</ele>
        <time>2019-10-25T10:30:26Z</time>
      </trkpt>
      <trkpt lat="36.41626481" lon="-6.15120407">
        <ele>74.0</ele>
        <time>2019-10-25T10:30:31Z</time>
      </trkpt>
      <trkpt lat="36.41625009" lon="-6.15125881">
        <ele>73.0</ele>
        <time>2019-10-25T10:30:35Z</time>
      </trkpt>
      <trkpt lat="36.41623601" lon="-6.1513189">
        <ele>71.0</ele>
        <time>2019-10-25T10:30:39Z</time>
      </trkpt>
      <trkpt lat="36.41622225" lon="-6.15137251">
        <ele>69.0</ele>
        <time>2019-10-25T10:30:43Z</time>
      </trkpt>
      <trkpt lat="36.41619511" lon="-6.15142565">
        <ele>67.0</ele>
        <time>2019-10-25T10:30:48Z</time>
      </trkpt>
      <trkpt lat="36.41618272" lon="-6.15148277">
        <ele>67.0</ele>
        <time>2019-10-25T10:30:53Z</time>
      </trkpt>
      <trkpt lat="36.41617814" lon="-6.15155206">
        <ele>64.0</ele>
        <time>2019-10-25T10:30:58Z</time>
      </trkpt>
      <trkpt lat="36.41615665" lon="-6.15160904">
        <ele>67.0</ele>
        <time>2019-10-25T10:31:02Z</time>
      </trkpt>
      <trkpt lat="36.41613516" lon="-6.15166697">
        <ele>66.0</ele>
        <time>2019-10-25T10:31:06Z</time>
      </trkpt>
      <trkpt lat="36.41613437" lon="-6.15172573">
        <ele>64.0</ele>
        <time>2019-10-25T10:31:10Z</time>
      </trkpt>
      <trkpt lat="36.41613398" lon="-6.1518645">
        <ele>67.0</ele>
        <time>2019-10-25T10:31:14Z</time>
      </trkpt>
      <trkpt lat="36.41613398" lon="-6.1518645">
        <ele>76.0</ele>
        <time>2019-10-25T09:57:36Z</time>
      </trkpt>
      <trkpt lat="36.41613484" lon="-6.15192547">
        <ele>76.0</ele>
        <time>2019-10-25T09:57:49Z</time>
      </trkpt>
      <trkpt lat="36.41611759" lon="-6.15199638">
        <ele>77.0</ele>
        <time>2019-10-25T09:57:53Z</time>
      </trkpt>
      <trkpt lat="36.41610923" lon="-6.1520607">
        <ele>76.0</ele>
        <time>2019-10-25T09:57:56Z</time>
      </trkpt>
      <trkpt lat="36.41612657" lon="-6.15211927">
        <ele>77.0</ele>
        <time>2019-10-25T09:58:00Z</time>
      </trkpt>
      <trkpt lat="36.41613466" lon="-6.1521769">
        <ele>77.0</ele>
        <time>2019-10-25T09:58:04Z</time>
      </trkpt>
      <trkpt lat="36.41612891" lon="-6.15224009">
        <ele>75.0</ele>
        <time>2019-10-25T09:58:09Z</time>
      </trkpt>
      <trkpt lat="36.41611055" lon="-6.15229416">
        <ele>76.0</ele>
        <time>2019-10-25T09:58:13Z</time>
      </trkpt>
      <trkpt lat="36.41607864" lon="-6.15236126">
        <ele>76.0</ele>
        <time>2019-10-25T09:58:19Z</time>
      </trkpt>
      <trkpt lat="36.41606841" lon="-6.15242828">
        <ele>78.0</ele>
        <time>2019-10-25T09:58:23Z</time>
      </trkpt>
      <trkpt lat="36.41607011" lon="-6.15248492">
        <ele>79.0</ele>
        <time>2019-10-25T09:58:25Z</time>
      </trkpt>
      <trkpt lat="36.4160787" lon="-6.152545">
        <ele>80.0</ele>
        <time>2019-10-25T09:58:27Z</time>
      </trkpt>
      <trkpt lat="36.41611163" lon="-6.15260158">
        <ele>81.0</ele>
        <time>2019-10-25T09:58:29Z</time>
      </trkpt>
      <trkpt lat="36.41614257" lon="-6.15264344">
        <ele>79.0</ele>
        <time>2019-10-25T09:58:31Z</time>
      </trkpt>
      <trkpt lat="36.41616429" lon="-6.15269446">
        <ele>78.0</ele>
        <time>2019-10-25T09:58:33Z</time>
      </trkpt>
      <trkpt lat="36.41619156" lon="-6.15275944">
        <ele>76.0</ele>
        <time>2019-10-25T09:58:37Z</time>
      </trkpt>
      <trkpt lat="36.41620451" lon="-6.15282663">
        <ele>76.0</ele>
        <time>2019-10-25T09:58:41Z</time>
      </trkpt>
      <trkpt lat="36.41622268" lon="-6.15288835">
        <ele>75.0</ele>
        <time>2019-10-25T09:58:47Z</time>
      </trkpt>
      <trkpt lat="36.41623989" lon="-6.15294223">
        <ele>77.0</ele>
        <time>2019-10-25T09:58:50Z</time>
      </trkpt>
      <trkpt lat="36.41624064" lon="-6.15299873">
        <ele>75.0</ele>
        <time>2019-10-25T09:58:53Z</time>
      </trkpt>
      <trkpt lat="36.41623338" lon="-6.15306164">
        <ele>76.0</ele>
        <time>2019-10-25T09:58:56Z</time>
      </trkpt>
      <trkpt lat="36.41623708" lon="-6.15312435">
        <ele>74.0</ele>
        <time>2019-10-25T09:58:59Z</time>
      </trkpt>
      <trkpt lat="36.41622948" lon="-6.15318665">
        <ele>75.0</ele>
        <time>2019-10-25T09:59:03Z</time>
      </trkpt>
      <trkpt lat="36.41623372" lon="-6.15325575">
        <ele>76.0</ele>
        <time>2019-10-25T09:59:07Z</time>
      </trkpt>
      <trkpt lat="36.4162392" lon="-6.15332645">
        <ele>77.0</ele>
        <time>2019-10-25T09:59:12Z</time>
      </trkpt>
      <trkpt lat="36.41625277" lon="-6.15338979">
        <ele>76.0</ele>
        <time>2019-10-25T09:59:16Z</time>
      </trkpt>
      <trkpt lat="36.41625883" lon="-6.15345244">
        <ele>73.0</ele>
        <time>2019-10-25T09:59:20Z</time>
      </trkpt>
      <trkpt lat="36.41627202" lon="-6.15351148">
        <ele>70.0</ele>
        <time>2019-10-25T09:59:24Z</time>
      </trkpt>
      <trkpt lat="36.41628364" lon="-6.15356931">
        <ele>69.0</ele>
        <time>2019-10-25T09:59:28Z</time>
      </trkpt>
      <trkpt lat="36.41630071" lon="-6.15362878">
        <ele>67.0</ele>
        <time>2019-10-25T09:59:32Z</time>
      </trkpt>
      <trkpt lat="36.41631057" lon="-6.15369459">
        <ele>67.0</ele>
        <time>2019-10-25T09:59:35Z</time>
      </trkpt>
      <trkpt lat="36.41631966" lon="-6.15376034">
        <ele>66.0</ele>
        <time>2019-10-25T09:59:39Z</time>
      </trkpt>
      <trkpt lat="36.41632312" lon="-6.15382923">
        <ele>65.0</ele>
        <time>2019-10-25T09:59:43Z</time>
      </trkpt>
      <trkpt lat="36.41632736" lon="-6.15388997">
        <ele>64.0</ele>
        <time>2019-10-25T09:59:47Z</time>
      </trkpt>
      <trkpt lat="36.41633787" lon="-6.1539462">
        <ele>64.0</ele>
        <time>2019-10-25T09:59:51Z</time>
      </trkpt>
      <trkpt lat="36.41634473" lon="-6.15400545">
        <ele>65.0</ele>
        <time>2019-10-25T09:59:55Z</time>
      </trkpt>
      <trkpt lat="36.4163502" lon="-6.15406714">
        <ele>65.0</ele>
        <time>2019-10-25T09:59:59Z</time>
      </trkpt>
      <trkpt lat="36.41636155" lon="-6.1541218">
        <ele>66.0</ele>
        <time>2019-10-25T10:00:03Z</time>
      </trkpt>
      <trkpt lat="36.41638273" lon="-6.15418519">
        <ele>67.0</ele>
        <time>2019-10-25T10:00:08Z</time>
      </trkpt>
      <trkpt lat="36.41638854" lon="-6.15425157">
        <ele>66.0</ele>
        <time>2019-10-25T10:00:13Z</time>
      </trkpt>
      <trkpt lat="36.41638952" lon="-6.15430843">
        <ele>65.0</ele>
        <time>2019-10-25T10:00:17Z</time>
      </trkpt>
      <trkpt lat="36.41638926" lon="-6.15438078">
        <ele>64.0</ele>
        <time>2019-10-25T10:00:22Z</time>
      </trkpt>
      <trkpt lat="36.41638955" lon="-6.15443734">
        <ele>64.0</ele>
        <time>2019-10-25T10:00:25Z</time>
      </trkpt>
      <trkpt lat="36.41638652" lon="-6.15450806">
        <ele>65.0</ele>
        <time>2019-10-25T10:00:29Z</time>
      </trkpt>
      <trkpt lat="36.41640122" lon="-6.15457666">
        <ele>64.0</ele>
        <time>2019-10-25T10:00:33Z</time>
      </trkpt>
      <trkpt lat="36.41641397" lon="-6.15463691">
        <ele>62.0</ele>
        <time>2019-10-25T10:00:36Z</time>
      </trkpt>
      <trkpt lat="36.41641947" lon="-6.15471023">
        <ele>63.0</ele>
        <time>2019-10-25T10:00:40Z</time>
      </trkpt>
      <trkpt lat="36.41641433" lon="-6.15477082">
        <ele>62.0</ele>
        <time>2019-10-25T10:00:43Z</time>
      </trkpt>
      <trkpt lat="36.41641285" lon="-6.15484345">
        <ele>64.0</ele>
        <time>2019-10-25T10:00:47Z</time>
      </trkpt>
      <trkpt lat="36.41641809" lon="-6.15490419">
        <ele>64.0</ele>
        <time>2019-10-25T10:00:50Z</time>
      </trkpt>
      <trkpt lat="36.41642738" lon="-6.15497563">
        <ele>65.0</ele>
        <time>2019-10-25T10:00:54Z</time>
      </trkpt>
      <trkpt lat="36.41643468" lon="-6.15503283">
        <ele>65.0</ele>
        <time>2019-10-25T10:00:57Z</time>
      </trkpt>
      <trkpt lat="36.41643597" lon="-6.15510007">
        <ele>66.0</ele>
        <time>2019-10-25T10:01:01Z</time>
      </trkpt>
      <trkpt lat="36.41643673" lon="-6.15516256">
        <ele>63.0</ele>
        <time>2019-10-25T10:01:05Z</time>
      </trkpt>
      <trkpt lat="36.41645053" lon="-6.15521778">
        <ele>62.0</ele>
        <time>2019-10-25T10:01:09Z</time>
      </trkpt>
      <trkpt lat="36.41646567" lon="-6.15528247">
        <ele>63.0</ele>
        <time>2019-10-25T10:01:13Z</time>
      </trkpt>
      <trkpt lat="36.41648272" lon="-6.15534438">
        <ele>62.0</ele>
        <time>2019-10-25T10:01:18Z</time>
      </trkpt>
      <trkpt lat="36.41650701" lon="-6.15539619">
        <ele>62.0</ele>
        <time>2019-10-25T10:01:25Z</time>
      </trkpt>
      <trkpt lat="36.41651488" lon="-6.15545664">
        <ele>60.0</ele>
        <time>2019-10-25T10:01:32Z</time>
      </trkpt>
      <trkpt lat="36.41652975" lon="-6.15551373">
        <ele>65.0</ele>
        <time>2019-10-25T10:01:36Z</time>
      </trkpt>
      <trkpt lat="36.41654894" lon="-6.15557146">
        <ele>64.0</ele>
        <time>2019-10-25T10:01:39Z</time>
      </trkpt>
      <trkpt lat="36.41656677" lon="-6.15562415">
        <ele>64.0</ele>
        <time>2019-10-25T10:01:42Z</time>
      </trkpt>
      <trkpt lat="36.41659422" lon="-6.15568267">
        <ele>61.0</ele>
        <time>2019-10-25T10:01:46Z</time>
      </trkpt>
      <trkpt lat="36.41664088" lon="-6.15570796">
        <ele>62.0</ele>
        <time>2019-10-25T10:01:50Z</time>
      </trkpt>
      <trkpt lat="36.41670461" lon="-6.15570918">
        <ele>59.0</ele>
        <time>2019-10-25T10:01:54Z</time>
      </trkpt>
      <trkpt lat="36.41675029" lon="-6.15571615">
        <ele>57.0</ele>
        <time>2019-10-25T10:01:57Z</time>
      </trkpt>
      <trkpt lat="36.41680054" lon="-6.15571621">
        <ele>58.0</ele>
        <time>2019-10-25T10:02:02Z</time>
      </trkpt>
      <trkpt lat="36.4168531" lon="-6.15568841">
        <ele>56.0</ele>
        <time>2019-10-25T10:02:06Z</time>
      </trkpt>
      <trkpt lat="36.41690528" lon="-6.15566565">
        <ele>58.0</ele>
        <time>2019-10-25T10:02:09Z</time>
      </trkpt>
      <trkpt lat="36.41694783" lon="-6.15564009">
        <ele>66.0</ele>
        <time>2019-10-25T10:02:11Z</time>
      </trkpt>
      <trkpt lat="36.41699162" lon="-6.15561467">
        <ele>65.0</ele>
        <time>2019-10-25T10:02:14Z</time>
      </trkpt>
      <trkpt lat="36.4170379" lon="-6.15559893">
        <ele>63.0</ele>
        <time>2019-10-25T10:02:17Z</time>
      </trkpt>
      <trkpt lat="36.41708743" lon="-6.15561929">
        <ele>59.0</ele>
        <time>2019-10-25T10:02:24Z</time>
      </trkpt>
      <trkpt lat="36.41713461" lon="-6.15560479">
        <ele>58.0</ele>
        <time>2019-10-25T10:02:29Z</time>
      </trkpt>
      <trkpt lat="36.41718378" lon="-6.15558108">
        <ele>58.0</ele>
        <time>2019-10-25T10:02:36Z</time>
      </trkpt>
      <trkpt lat="36.41723999" lon="-6.15556849">
        <ele>60.0</ele>
        <time>2019-10-25T10:02:41Z</time>
      </trkpt>
      <trkpt lat="36.41729638" lon="-6.15554654">
        <ele>58.0</ele>
        <time>2019-10-25T10:02:44Z</time>
      </trkpt>
      <trkpt lat="36.41734713" lon="-6.15552903">
        <ele>59.0</ele>
        <time>2019-10-25T10:02:47Z</time>
      </trkpt>
      <trkpt lat="36.41739924" lon="-6.15550803">
        <ele>60.0</ele>
        <time>2019-10-25T10:02:50Z</time>
      </trkpt>
      <trkpt lat="36.41744291" lon="-6.15548713">
        <ele>60.0</ele>
        <time>2019-10-25T10:02:53Z</time>
      </trkpt>
      <trkpt lat="36.4174933" lon="-6.1554623">
        <ele>59.0</ele>
        <time>2019-10-25T10:02:57Z</time>
      </trkpt>
      <trkpt lat="36.41753883" lon="-6.15544111">
        <ele>60.0</ele>
        <time>2019-10-25T10:03:00Z</time>
      </trkpt>
      <trkpt lat="36.41758916" lon="-6.15541945">
        <ele>62.0</ele>
        <time>2019-10-25T10:03:03Z</time>
      </trkpt>
      <trkpt lat="36.4176508" lon="-6.15538847">
        <ele>62.0</ele>
        <time>2019-10-25T10:03:06Z</time>
      </trkpt>
      <trkpt lat="36.41770968" lon="-6.15535896">
        <ele>64.0</ele>
        <time>2019-10-25T10:03:09Z</time>
      </trkpt>
      <trkpt lat="36.41776233" lon="-6.15535102">
        <ele>68.0</ele>
        <time>2019-10-25T10:03:12Z</time>
      </trkpt>
      <trkpt lat="36.41781902" lon="-6.15536815">
        <ele>64.0</ele>
        <time>2019-10-25T10:03:20Z</time>
      </trkpt>
      <trkpt lat="36.4178761" lon="-6.15536139">
        <ele>59.0</ele>
        <time>2019-10-25T10:03:31Z</time>
      </trkpt>
      <trkpt lat="36.41793999" lon="-6.15534399">
        <ele>60.0</ele>
        <time>2019-10-25T10:03:35Z</time>
      </trkpt>
      <trkpt lat="36.41799619" lon="-6.15532802">
        <ele>60.0</ele>
        <time>2019-10-25T10:03:38Z</time>
      </trkpt>
      <trkpt lat="36.41805092" lon="-6.15531648">
        <ele>62.0</ele>
        <time>2019-10-25T10:03:41Z</time>
      </trkpt>
      <trkpt lat="36.41810066" lon="-6.15532053">
        <ele>62.0</ele>
        <time>2019-10-25T10:03:45Z</time>
      </trkpt>
      <trkpt lat="36.41815547" lon="-6.1552963">
        <ele>62.0</ele>
        <time>2019-10-25T10:03:48Z</time>
      </trkpt>
      <trkpt lat="36.41821545" lon="-6.15528729">
        <ele>64.0</ele>
        <time>2019-10-25T10:03:51Z</time>
      </trkpt>
      <trkpt lat="36.41827347" lon="-6.15526211">
        <ele>58.0</ele>
        <time>2019-10-25T10:03:55Z</time>
      </trkpt>
      <trkpt lat="36.41831746" lon="-6.15523582">
        <ele>60.0</ele>
        <time>2019-10-25T10:03:57Z</time>
      </trkpt>
      <trkpt lat="36.41836064" lon="-6.15520525">
        <ele>57.0</ele>
        <time>2019-10-25T10:03:59Z</time>
      </trkpt>
      <trkpt lat="36.4184149" lon="-6.15516667">
        <ele>56.0</ele>
        <time>2019-10-25T10:04:01Z</time>
      </trkpt>
      <trkpt lat="36.4184634" lon="-6.15512909">
        <ele>56.0</ele>
        <time>2019-10-25T10:04:03Z</time>
      </trkpt>
      <trkpt lat="36.41850459" lon="-6.15508862">
        <ele>55.0</ele>
        <time>2019-10-25T10:04:05Z</time>
      </trkpt>
      <trkpt lat="36.41855055" lon="-6.1550511">
        <ele>56.0</ele>
        <time>2019-10-25T10:04:08Z</time>
      </trkpt>
      <trkpt lat="36.41859438" lon="-6.15500832">
        <ele>56.0</ele>
        <time>2019-10-25T10:04:13Z</time>
      </trkpt>
      <trkpt lat="36.41863763" lon="-6.15499138">
        <ele>56.0</ele>
        <time>2019-10-25T10:04:15Z</time>
      </trkpt>
      <trkpt lat="36.41867959" lon="-6.15494269">
        <ele>55.0</ele>
        <time>2019-10-25T10:04:19Z</time>
      </trkpt>
      <trkpt lat="36.41867064" lon="-6.15488404">
        <ele>55.0</ele>
        <time>2019-10-25T10:04:27Z</time>
      </trkpt>
      <trkpt lat="36.41865505" lon="-6.15483039">
        <ele>55.0</ele>
        <time>2019-10-25T10:04:33Z</time>
      </trkpt>
      <trkpt lat="36.41863487" lon="-6.15477506">
        <ele>56.0</ele>
        <time>2019-10-25T10:04:39Z</time>
      </trkpt>
      <trkpt lat="36.41860734" lon="-6.15472401">
        <ele>55.0</ele>
        <time>2019-10-25T10:04:44Z</time>
      </trkpt>
      <trkpt lat="36.41858216" lon="-6.15466908">
        <ele>55.0</ele>
        <time>2019-10-25T10:04:48Z</time>
      </trkpt>
      <trkpt lat="36.41857215" lon="-6.15452446">
        <ele>53.0</ele>
        <time>2019-10-25T10:04:55Z</time>
      </trkpt>
      <trkpt lat="36.41857161" lon="-6.15444832">
        <ele>53.0</ele>
        <time>2019-10-25T10:04:58Z</time>
      </trkpt>
      <trkpt lat="36.41857832" lon="-6.15438139">
        <ele>54.0</ele>
        <time>2019-10-25T10:05:01Z</time>
      </trkpt>
      <trkpt lat="36.41858645" lon="-6.15431783">
        <ele>54.0</ele>
        <time>2019-10-25T10:05:04Z</time>
      </trkpt>
      <trkpt lat="36.41859373" lon="-6.15425772">
        <ele>54.0</ele>
        <time>2019-10-25T10:05:07Z</time>
      </trkpt>
      <trkpt lat="36.41860603" lon="-6.1542011">
        <ele>56.0</ele>
        <time>2019-10-25T10:05:10Z</time>
      </trkpt>
      <trkpt lat="36.41863306" lon="-6.15413745">
        <ele>57.0</ele>
        <time>2019-10-25T10:05:14Z</time>
      </trkpt>
      <trkpt lat="36.41864585" lon="-6.15406569">
        <ele>55.0</ele>
        <time>2019-10-25T10:05:18Z</time>
      </trkpt>
      <trkpt lat="36.41862448" lon="-6.15401588">
        <ele>52.0</ele>
        <time>2019-10-25T10:05:22Z</time>
      </trkpt>
      <trkpt lat="36.41858954" lon="-6.15398018">
        <ele>51.0</ele>
        <time>2019-10-25T10:05:26Z</time>
      </trkpt>
      <trkpt lat="36.41855678" lon="-6.15393693">
        <ele>52.0</ele>
        <time>2019-10-25T10:05:32Z</time>
      </trkpt>
      <trkpt lat="36.41853761" lon="-6.15388577">
        <ele>49.0</ele>
        <time>2019-10-25T10:05:37Z</time>
      </trkpt>
      <trkpt lat="36.41853982" lon="-6.15381819">
        <ele>52.0</ele>
        <time>2019-10-25T10:05:45Z</time>
      </trkpt>
      <trkpt lat="36.41853536" lon="-6.15374488">
        <ele>52.0</ele>
        <time>2019-10-25T10:05:48Z</time>
      </trkpt>
      <trkpt lat="36.41851916" lon="-6.15366405">
        <ele>51.0</ele>
        <time>2019-10-25T10:05:51Z</time>
      </trkpt>
      <trkpt lat="36.41851703" lon="-6.15360325">
        <ele>49.0</ele>
        <time>2019-10-25T10:05:53Z</time>
      </trkpt>
      <trkpt lat="36.41850882" lon="-6.15353895">
        <ele>49.0</ele>
        <time>2019-10-25T10:05:56Z</time>
      </trkpt>
      <trkpt lat="36.41848462" lon="-6.15347051">
        <ele>47.0</ele>
        <time>2019-10-25T10:06:01Z</time>
      </trkpt>
      <trkpt lat="36.41850365" lon="-6.15340901">
        <ele>47.0</ele>
        <time>2019-10-25T10:06:07Z</time>
      </trkpt>
      <trkpt lat="36.41850858" lon="-6.15335211">
        <ele>48.0</ele>
        <time>2019-10-25T10:06:11Z</time>
      </trkpt>
      <trkpt lat="36.41849228" lon="-6.15329168">
        <ele>45.0</ele>
        <time>2019-10-25T10:06:18Z</time>
      </trkpt>
      <trkpt lat="36.41847848" lon="-6.15323097">
        <ele>46.0</ele>
        <time>2019-10-25T10:06:25Z</time>
      </trkpt>
      <trkpt lat="36.41847308" lon="-6.15316835">
        <ele>47.0</ele>
        <time>2019-10-25T10:06:29Z</time>
      </trkpt>
      <trkpt lat="36.41846378" lon="-6.15310279">
        <ele>41.0</ele>
        <time>2019-10-25T10:06:32Z</time>
      </trkpt>
      <trkpt lat="36.41845819" lon="-6.15304687">
        <ele>42.0</ele>
        <time>2019-10-25T10:06:34Z</time>
      </trkpt>
      <trkpt lat="36.41847208" lon="-6.15296307">
        <ele>43.0</ele>
        <time>2019-10-25T10:06:37Z</time>
      </trkpt>
      <trkpt lat="36.41848186" lon="-6.15288268">
        <ele>44.0</ele>
        <time>2019-10-25T10:06:40Z</time>
      </trkpt>
      <trkpt lat="36.41850288" lon="-6.15282014">
        <ele>44.0</ele>
        <time>2019-10-25T10:06:42Z</time>
      </trkpt>
      <trkpt lat="36.41852582" lon="-6.15275565">
        <ele>46.0</ele>
        <time>2019-10-25T10:06:44Z</time>
      </trkpt>
      <trkpt lat="36.41854588" lon="-6.15269551">
        <ele>46.0</ele>
        <time>2019-10-25T10:06:46Z</time>
      </trkpt>
      <trkpt lat="36.41856268" lon="-6.15263334">
        <ele>47.0</ele>
        <time>2019-10-25T10:06:48Z</time>
      </trkpt>
      <trkpt lat="36.41857092" lon="-6.15256396">
        <ele>46.0</ele>
        <time>2019-10-25T10:06:50Z</time>
      </trkpt>
      <trkpt lat="36.41857626" lon="-6.15250789">
        <ele>45.0</ele>
        <time>2019-10-25T10:06:54Z</time>
      </trkpt>
      <trkpt lat="36.41858844" lon="-6.1524513">
        <ele>46.0</ele>
        <time>2019-10-25T10:06:57Z</time>
      </trkpt>
      <trkpt lat="36.41861748" lon="-6.1523999">
        <ele>44.0</ele>
        <time>2019-10-25T10:07:02Z</time>
      </trkpt>
      <trkpt lat="36.41863798" lon="-6.15234766">
        <ele>44.0</ele>
        <time>2019-10-25T10:07:12Z</time>
      </trkpt>
      <trkpt lat="36.41866944" lon="-6.15230482">
        <ele>46.0</ele>
        <time>2019-10-25T10:07:22Z</time>
      </trkpt>
      <trkpt lat="36.41864747" lon="-6.15224415">
        <ele>45.0</ele>
        <time>2019-10-25T10:07:25Z</time>
      </trkpt>
      <trkpt lat="36.41863377" lon="-6.1521561">
        <ele>44.0</ele>
        <time>2019-10-25T10:07:33Z</time>
      </trkpt>
      <trkpt lat="36.418614" lon="-6.15207795">
        <ele>46.0</ele>
        <time>2019-10-25T10:07:36Z</time>
      </trkpt>
      <trkpt lat="36.41860602" lon="-6.1520041">
        <ele>44.0</ele>
        <time>2019-10-25T10:07:38Z</time>
      </trkpt>
      <trkpt lat="36.41861519" lon="-6.15193667">
        <ele>47.0</ele>
        <time>2019-10-25T10:07:40Z</time>
      </trkpt>
      <trkpt lat="36.41862959" lon="-6.15187562">
        <ele>47.0</ele>
        <time>2019-10-25T10:07:43Z</time>
      </trkpt>
      <trkpt lat="36.41861771" lon="-6.15179095">
        <ele>49.0</ele>
        <time>2019-10-25T10:07:46Z</time>
      </trkpt>
      <trkpt lat="36.41864654" lon="-6.15173248">
        <ele>53.0</ele>
        <time>2019-10-25T10:07:49Z</time>
      </trkpt>
      <trkpt lat="36.41866913" lon="-6.15167494">
        <ele>51.0</ele>
        <time>2019-10-25T10:07:52Z</time>
      </trkpt>
      <trkpt lat="36.41868341" lon="-6.15161099">
        <ele>52.0</ele>
        <time>2019-10-25T10:07:56Z</time>
      </trkpt>
      <trkpt lat="36.41869897" lon="-6.15154794">
        <ele>49.0</ele>
        <time>2019-10-25T10:08:00Z</time>
      </trkpt>
      <trkpt lat="36.41869712" lon="-6.15147686">
        <ele>51.0</ele>
        <time>2019-10-25T10:08:04Z</time>
      </trkpt>
      <trkpt lat="36.41869197" lon="-6.15140983">
        <ele>51.0</ele>
        <time>2019-10-25T10:08:08Z</time>
      </trkpt>
      <trkpt lat="36.41869815" lon="-6.15133564">
        <ele>50.0</ele>
        <time>2019-10-25T10:08:12Z</time>
      </trkpt>
      <trkpt lat="36.41870282" lon="-6.15127463">
        <ele>50.0</ele>
        <time>2019-10-25T10:08:17Z</time>
      </trkpt>
      <trkpt lat="36.41869659" lon="-6.15120929">
        <ele>50.0</ele>
        <time>2019-10-25T10:08:22Z</time>
      </trkpt>
      <trkpt lat="36.41869254" lon="-6.15115039">
        <ele>56.0</ele>
        <time>2019-10-25T10:08:32Z</time>
      </trkpt>
      <trkpt lat="36.41870749" lon="-6.15108752">
        <ele>55.0</ele>
        <time>2019-10-25T10:08:37Z</time>
      </trkpt>
      <trkpt lat="36.41871368" lon="-6.15103163">
        <ele>53.0</ele>
        <time>2019-10-25T10:08:43Z</time>
      </trkpt>
      <trkpt lat="36.41871987" lon="-6.15096452">
        <ele>58.0</ele>
        <time>2019-10-25T10:08:48Z</time>
      </trkpt>
      <trkpt lat="36.41873521" lon="-6.15091108">
        <ele>56.0</ele>
        <time>2019-10-25T10:08:52Z</time>
      </trkpt>
      <trkpt lat="36.418747" lon="-6.15084993">
        <ele>62.0</ele>
        <time>2019-10-25T10:08:59Z</time>
      </trkpt>
      <trkpt lat="36.41874807" lon="-6.15078115">
        <ele>58.0</ele>
        <time>2019-10-25T10:09:05Z</time>
      </trkpt>
      <trkpt lat="36.41874782" lon="-6.15070297">
        <ele>58.0</ele>
        <time>2019-10-25T10:09:11Z</time>
      </trkpt>
      <trkpt lat="36.41872704" lon="-6.15063679">
        <ele>53.0</ele>
        <time>2019-10-25T10:10:18Z</time>
      </trkpt>
      <trkpt lat="36.41871005" lon="-6.15058317">
        <ele>55.0</ele>
        <time>2019-10-25T10:10:19Z</time>
      </trkpt>
      <trkpt lat="36.41873976" lon="-6.15052876">
        <ele>54.0</ele>
        <time>2019-10-25T10:11:38Z</time>
      </trkpt>
      <trkpt lat="36.4187629" lon="-6.15047967">
        <ele>61.0</ele>
        <time>2019-10-25T10:11:44Z</time>
      </trkpt>
      <trkpt lat="36.41877268" lon="-6.15040795">
        <ele>60.0</ele>
        <time>2019-10-25T10:11:49Z</time>
      </trkpt>
      <trkpt lat="36.4187812" lon="-6.15033852">
        <ele>58.0</ele>
        <time>2019-10-25T10:11:52Z</time>
      </trkpt>
      <trkpt lat="36.41879209" lon="-6.15028345">
        <ele>60.0</ele>
        <time>2019-10-25T10:11:55Z</time>
      </trkpt>
      <trkpt lat="36.4188209" lon="-6.15022608">
        <ele>57.0</ele>
        <time>2019-10-25T10:11:58Z</time>
      </trkpt>
      <trkpt lat="36.41883491" lon="-6.15014678">
        <ele>57.0</ele>
        <time>2019-10-25T10:12:01Z</time>
      </trkpt>
      <trkpt lat="36.41884225" lon="-6.15007517">
        <ele>53.0</ele>
        <time>2019-10-25T10:12:04Z</time>
      </trkpt>
      <trkpt lat="36.41886302" lon="-6.15000978">
        <ele>53.0</ele>
        <time>2019-10-25T10:12:09Z</time>
      </trkpt>
      <trkpt lat="36.41888902" lon="-6.14995344">
        <ele>53.0</ele>
        <time>2019-10-25T10:12:12Z</time>
      </trkpt>
      <trkpt lat="36.41889983" lon="-6.14988501">
        <ele>54.0</ele>
        <time>2019-10-25T10:12:15Z</time>
      </trkpt>
      <trkpt lat="36.41889549" lon="-6.14982779">
        <ele>55.0</ele>
        <time>2019-10-25T10:12:18Z</time>
      </trkpt>
      <trkpt lat="36.41889812" lon="-6.14977086">
        <ele>53.0</ele>
        <time>2019-10-25T10:12:25Z</time>
      </trkpt>
      <trkpt lat="36.41895321" lon="-6.14976801">
        <ele>54.0</ele>
        <time>2019-10-25T10:12:42Z</time>
      </trkpt>
      <trkpt lat="36.41900004" lon="-6.14976088">
        <ele>56.0</ele>
        <time>2019-10-25T10:12:46Z</time>
      </trkpt>
      <trkpt lat="36.41904435" lon="-6.1497483">
        <ele>55.0</ele>
        <time>2019-10-25T10:12:50Z</time>
      </trkpt>
      <trkpt lat="36.41909549" lon="-6.14974409">
        <ele>53.0</ele>
        <time>2019-10-25T10:12:55Z</time>
      </trkpt>
      <trkpt lat="36.41914138" lon="-6.14973999">
        <ele>55.0</ele>
        <time>2019-10-25T10:13:00Z</time>
      </trkpt>
      <trkpt lat="36.41919694" lon="-6.14972857">
        <ele>52.0</ele>
        <time>2019-10-25T10:13:05Z</time>
      </trkpt>
      <trkpt lat="36.41924452" lon="-6.149703">
        <ele>52.0</ele>
        <time>2019-10-25T10:13:08Z</time>
      </trkpt>
      <trkpt lat="36.41928611" lon="-6.14968116">
        <ele>53.0</ele>
        <time>2019-10-25T10:13:10Z</time>
      </trkpt>
      <trkpt lat="36.41934927" lon="-6.14965828">
        <ele>56.0</ele>
        <time>2019-10-25T10:13:13Z</time>
      </trkpt>
      <trkpt lat="36.41940016" lon="-6.14964433">
        <ele>58.0</ele>
        <time>2019-10-25T10:13:15Z</time>
      </trkpt>
      <trkpt lat="36.41944855" lon="-6.14962968">
        <ele>59.0</ele>
        <time>2019-10-25T10:13:17Z</time>
      </trkpt>
      <trkpt lat="36.41949293" lon="-6.14961476">
        <ele>57.0</ele>
        <time>2019-10-25T10:13:19Z</time>
      </trkpt>
      <trkpt lat="36.41955253" lon="-6.14961355">
        <ele>57.0</ele>
        <time>2019-10-25T10:13:22Z</time>
      </trkpt>
      <trkpt lat="36.41960345" lon="-6.14960275">
        <ele>59.0</ele>
        <time>2019-10-25T10:13:25Z</time>
      </trkpt>
      <trkpt lat="36.41964807" lon="-6.14957105">
        <ele>60.0</ele>
        <time>2019-10-25T10:13:29Z</time>
      </trkpt>
      <trkpt lat="36.41969909" lon="-6.14955867">
        <ele>59.0</ele>
        <time>2019-10-25T10:13:32Z</time>
      </trkpt>
      <trkpt lat="36.41975387" lon="-6.14955557">
        <ele>59.0</ele>
        <time>2019-10-25T10:13:35Z</time>
      </trkpt>
      <trkpt lat="36.41980195" lon="-6.14952991">
        <ele>61.0</ele>
        <time>2019-10-25T10:13:38Z</time>
      </trkpt>
      <trkpt lat="36.41984627" lon="-6.14951134">
        <ele>58.0</ele>
        <time>2019-10-25T10:13:41Z</time>
      </trkpt>
      <trkpt lat="36.4198812" lon="-6.14946265">
        <ele>57.0</ele>
        <time>2019-10-25T10:13:43Z</time>
      </trkpt>
      <trkpt lat="36.41990676" lon="-6.14939218">
        <ele>57.0</ele>
        <time>2019-10-25T10:13:46Z</time>
      </trkpt>
      <trkpt lat="36.41994181" lon="-6.14932296">
        <ele>56.0</ele>
        <time>2019-10-25T10:13:49Z</time>
      </trkpt>
      <trkpt lat="36.41996933" lon="-6.14925609">
        <ele>53.0</ele>
        <time>2019-10-25T10:13:52Z</time>
      </trkpt>
      <trkpt lat="36.42000006" lon="-6.14921012">
        <ele>48.0</ele>
        <time>2019-10-25T10:13:56Z</time>
      </trkpt>
      <trkpt lat="36.42004049" lon="-6.14916772">
        <ele>52.0</ele>
        <time>2019-10-25T10:14:00Z</time>
      </trkpt>
      <trkpt lat="36.42007825" lon="-6.14912689">
        <ele>55.0</ele>
        <time>2019-10-25T10:14:04Z</time>
      </trkpt>
      <trkpt lat="36.4201025" lon="-6.14907089">
        <ele>55.0</ele>
        <time>2019-10-25T10:14:12Z</time>
      </trkpt>
      <trkpt lat="36.42011314" lon="-6.14901594">
        <ele>51.0</ele>
        <time>2019-10-25T10:14:19Z</time>
      </trkpt>
      <trkpt lat="36.42006032" lon="-6.14902379">
        <ele>53.0</ele>
        <time>2019-10-25T10:14:30Z</time>
      </trkpt>
      <trkpt lat="36.42009147" lon="-6.14898293">
        <ele>49.0</ele>
        <time>2019-10-25T10:14:38Z</time>
      </trkpt>
      <trkpt lat="36.42014043" lon="-6.14894682">
        <ele>47.0</ele>
        <time>2019-10-25T10:14:43Z</time>
      </trkpt>
      <trkpt lat="36.42018092" lon="-6.14890748">
        <ele>43.0</ele>
        <time>2019-10-25T10:14:49Z</time>
      </trkpt>
      <trkpt lat="36.42022847" lon="-6.14887785">
        <ele>36.0</ele>
        <time>2019-10-25T10:14:54Z</time>
      </trkpt>
      <trkpt lat="36.42025892" lon="-6.14883469">
        <ele>35.0</ele>
        <time>2019-10-25T10:14:58Z</time>
      </trkpt>
      <trkpt lat="36.42029896" lon="-6.14878757">
        <ele>37.0</ele>
        <time>2019-10-25T10:15:01Z</time>
      </trkpt>
      <trkpt lat="36.42034114" lon="-6.14873902">
        <ele>39.0</ele>
        <time>2019-10-25T10:15:05Z</time>
      </trkpt>
      <trkpt lat="36.42038496" lon="-6.14870495">
        <ele>36.0</ele>
        <time>2019-10-25T10:15:08Z</time>
      </trkpt>
      <trkpt lat="36.42042439" lon="-6.14863191">
        <ele>40.0</ele>
        <time>2019-10-25T10:15:10Z</time>
      </trkpt>
      <trkpt lat="36.42045297" lon="-6.14854486">
        <ele>41.0</ele>
        <time>2019-10-25T10:15:12Z</time>
      </trkpt>
      <trkpt lat="36.42048645" lon="-6.14847819">
        <ele>41.0</ele>
        <time>2019-10-25T10:15:14Z</time>
      </trkpt>
      <trkpt lat="36.42051505" lon="-6.14842655">
        <ele>40.0</ele>
        <time>2019-10-25T10:15:17Z</time>
      </trkpt>
      <trkpt lat="36.42055885" lon="-6.1483969">
        <ele>47.0</ele>
        <time>2019-10-25T10:15:23Z</time>
      </trkpt>
      <trkpt lat="36.42059085" lon="-6.14832658">
        <ele>48.0</ele>
        <time>2019-10-25T10:15:25Z</time>
      </trkpt>
      <trkpt lat="36.42060908" lon="-6.14825818">
        <ele>48.0</ele>
        <time>2019-10-25T10:15:27Z</time>
      </trkpt>
      <trkpt lat="36.42062206" lon="-6.14819423">
        <ele>48.0</ele>
        <time>2019-10-25T10:15:29Z</time>
      </trkpt>
      <trkpt lat="36.42064761" lon="-6.14812929">
        <ele>49.0</ele>
        <time>2019-10-25T10:15:32Z</time>
      </trkpt>
      <trkpt lat="36.42069201" lon="-6.14807832">
        <ele>52.0</ele>
        <time>2019-10-25T10:15:35Z</time>
      </trkpt>
      <trkpt lat="36.42073403" lon="-6.14803173">
        <ele>52.0</ele>
        <time>2019-10-25T10:15:37Z</time>
      </trkpt>
      <trkpt lat="36.42077127" lon="-6.14796872">
        <ele>50.0</ele>
        <time>2019-10-25T10:15:40Z</time>
      </trkpt>
      <trkpt lat="36.42078965" lon="-6.14791135">
        <ele>50.0</ele>
        <time>2019-10-25T10:15:42Z</time>
      </trkpt>
      <trkpt lat="36.42081056" lon="-6.14785374">
        <ele>51.0</ele>
        <time>2019-10-25T10:15:44Z</time>
      </trkpt>
      <trkpt lat="36.42082398" lon="-6.14779912">
        <ele>47.0</ele>
        <time>2019-10-25T10:15:49Z</time>
      </trkpt>
      <trkpt lat="36.42082298" lon="-6.14773158">
        <ele>52.0</ele>
        <time>2019-10-25T10:16:08Z</time>
      </trkpt>
      <trkpt lat="36.42078474" lon="-6.1476791">
        <ele>53.0</ele>
        <time>2019-10-25T10:16:11Z</time>
      </trkpt>
      <trkpt lat="36.42078946" lon="-6.1476193">
        <ele>54.0</ele>
        <time>2019-10-25T10:16:14Z</time>
      </trkpt>
      <trkpt lat="36.42079376" lon="-6.14750205">
        <ele>55.0</ele>
        <time>2019-10-25T10:16:18Z</time>
      </trkpt>
      <trkpt lat="36.42078154" lon="-6.14742448">
        <ele>54.0</ele>
        <time>2019-10-25T10:16:20Z</time>
      </trkpt>
      <trkpt lat="36.42077398" lon="-6.14736276">
        <ele>55.0</ele>
        <time>2019-10-25T10:16:22Z</time>
      </trkpt>
      <trkpt lat="36.42077119" lon="-6.14730054">
        <ele>52.0</ele>
        <time>2019-10-25T10:16:25Z</time>
      </trkpt>
      <trkpt lat="36.42076905" lon="-6.14723685">
        <ele>55.0</ele>
        <time>2019-10-25T10:16:34Z</time>
      </trkpt>
      <trkpt lat="36.42077672" lon="-6.14718096">
        <ele>53.0</ele>
        <time>2019-10-25T10:16:43Z</time>
      </trkpt>
      <trkpt lat="36.4207586" lon="-6.14712487">
        <ele>51.0</ele>
        <time>2019-10-25T10:16:49Z</time>
      </trkpt>
      <trkpt lat="36.42073341" lon="-6.14707302">
        <ele>49.0</ele>
        <time>2019-10-25T10:16:56Z</time>
      </trkpt>
      <trkpt lat="36.42070655" lon="-6.1470236">
        <ele>50.0</ele>
        <time>2019-10-25T10:17:01Z</time>
      </trkpt>
      <trkpt lat="36.42069004" lon="-6.14695485">
        <ele>51.0</ele>
        <time>2019-10-25T10:17:04Z</time>
      </trkpt>
      <trkpt lat="36.42066644" lon="-6.14690159">
        <ele>56.0</ele>
        <time>2019-10-25T10:17:07Z</time>
      </trkpt>
      <trkpt lat="36.42063034" lon="-6.14684063">
        <ele>60.0</ele>
        <time>2019-10-25T10:17:09Z</time>
      </trkpt>
      <trkpt lat="36.42059624" lon="-6.14676273">
        <ele>60.0</ele>
        <time>2019-10-25T10:17:11Z</time>
      </trkpt>
      <trkpt lat="36.42058281" lon="-6.14669088">
        <ele>60.0</ele>
        <time>2019-10-25T10:17:13Z</time>
      </trkpt>
      <trkpt lat="36.42057224" lon="-6.14660541">
        <ele>59.0</ele>
        <time>2019-10-25T10:17:15Z</time>
      </trkpt>
      <trkpt lat="36.42055947" lon="-6.14653237">
        <ele>60.0</ele>
        <time>2019-10-25T10:17:17Z</time>
      </trkpt>
      <trkpt lat="36.42053721" lon="-6.14647496">
        <ele>57.0</ele>
        <time>2019-10-25T10:17:19Z</time>
      </trkpt>
      <trkpt lat="36.42049787" lon="-6.1464096">
        <ele>58.0</ele>
        <time>2019-10-25T10:17:22Z</time>
      </trkpt>
      <trkpt lat="36.4204695" lon="-6.14636269">
        <ele>58.0</ele>
        <time>2019-10-25T10:17:27Z</time>
      </trkpt>
      <trkpt lat="36.42042745" lon="-6.14633186">
        <ele>59.0</ele>
        <time>2019-10-25T10:17:31Z</time>
      </trkpt>
      <trkpt lat="36.42034845" lon="-6.14625703">
        <ele>55.0</ele>
        <time>2019-10-25T10:17:38Z</time>
      </trkpt>
      <trkpt lat="36.420273" lon="-6.14626685">
        <ele>55.0</ele>
        <time>2019-10-25T10:17:47Z</time>
      </trkpt>
      <trkpt lat="36.42028687" lon="-6.14620372">
        <ele>55.0</ele>
        <time>2019-10-25T10:17:49Z</time>
      </trkpt>
      <trkpt lat="36.42028373" lon="-6.14614538">
        <ele>55.0</ele>
        <time>2019-10-25T10:17:52Z</time>
      </trkpt>
      <trkpt lat="36.4202958" lon="-6.14608294">
        <ele>54.0</ele>
        <time>2019-10-25T10:17:55Z</time>
      </trkpt>
      <trkpt lat="36.42032329" lon="-6.14601183">
        <ele>53.0</ele>
        <time>2019-10-25T10:17:59Z</time>
      </trkpt>
      <trkpt lat="36.42033696" lon="-6.145941">
        <ele>51.0</ele>
        <time>2019-10-25T10:18:02Z</time>
      </trkpt>
      <trkpt lat="36.42037302" lon="-6.1458727">
        <ele>51.0</ele>
        <time>2019-10-25T10:18:04Z</time>
      </trkpt>
      <trkpt lat="36.42033461" lon="-6.14583918">
        <ele>51.0</ele>
        <time>2019-10-25T10:18:08Z</time>
      </trkpt>
      <trkpt lat="36.42027627" lon="-6.14582019">
        <ele>50.0</ele>
        <time>2019-10-25T10:18:11Z</time>
      </trkpt>
      <trkpt lat="36.42022384" lon="-6.1457854">
        <ele>49.0</ele>
        <time>2019-10-25T10:18:15Z</time>
      </trkpt>
      <trkpt lat="36.42019367" lon="-6.14573889">
        <ele>49.0</ele>
        <time>2019-10-25T10:18:20Z</time>
      </trkpt>
      <trkpt lat="36.4201423" lon="-6.14573422">
        <ele>41.0</ele>
        <time>2019-10-25T10:18:33Z</time>
      </trkpt>
      <trkpt lat="36.42009697" lon="-6.14571657">
        <ele>43.0</ele>
        <time>2019-10-25T10:18:38Z</time>
      </trkpt>
      <trkpt lat="36.42004298" lon="-6.14569587">
        <ele>43.0</ele>
        <time>2019-10-25T10:18:42Z</time>
      </trkpt>
      <trkpt lat="36.41998156" lon="-6.14568156">
        <ele>45.0</ele>
        <time>2019-10-25T10:18:45Z</time>
      </trkpt>
      <trkpt lat="36.41993364" lon="-6.14567922">
        <ele>46.0</ele>
        <time>2019-10-25T10:18:47Z</time>
      </trkpt>
      <trkpt lat="36.41988902" lon="-6.14566287">
        <ele>46.0</ele>
        <time>2019-10-25T10:18:49Z</time>
      </trkpt>
      <trkpt lat="36.41983999" lon="-6.14563939">
        <ele>43.0</ele>
        <time>2019-10-25T10:18:51Z</time>
      </trkpt>
      <trkpt lat="36.41979675" lon="-6.14562004">
        <ele>43.0</ele>
        <time>2019-10-25T10:18:53Z</time>
      </trkpt>
      <trkpt lat="36.41974268" lon="-6.1456068">
        <ele>42.0</ele>
        <time>2019-10-25T10:18:57Z</time>
      </trkpt>
      <trkpt lat="36.41969689" lon="-6.14558382">
        <ele>43.0</ele>
        <time>2019-10-25T10:19:01Z</time>
      </trkpt>
      <trkpt lat="36.41965848" lon="-6.14555145">
        <ele>46.0</ele>
        <time>2019-10-25T10:19:04Z</time>
      </trkpt>
      <trkpt lat="36.41960131" lon="-6.14553018">
        <ele>48.0</ele>
        <time>2019-10-25T10:19:08Z</time>
      </trkpt>
      <trkpt lat="36.41953406" lon="-6.1454946">
        <ele>53.0</ele>
        <time>2019-10-25T10:19:11Z</time>
      </trkpt>
      <trkpt lat="36.41948772" lon="-6.14547781">
        <ele>56.0</ele>
        <time>2019-10-25T10:19:13Z</time>
      </trkpt>
      <trkpt lat="36.41943174" lon="-6.1454759">
        <ele>54.0</ele>
        <time>2019-10-25T10:19:17Z</time>
      </trkpt>
      <trkpt lat="36.41938366" lon="-6.14546049">
        <ele>56.0</ele>
        <time>2019-10-25T10:19:22Z</time>
      </trkpt>
      <trkpt lat="36.41933743" lon="-6.14546235">
        <ele>54.0</ele>
        <time>2019-10-25T10:19:26Z</time>
      </trkpt>
      <trkpt lat="36.41928662" lon="-6.14546417">
        <ele>55.0</ele>
        <time>2019-10-25T10:19:31Z</time>
      </trkpt>
      <trkpt lat="36.4192405" lon="-6.14546354">
        <ele>54.0</ele>
        <time>2019-10-25T10:19:35Z</time>
      </trkpt>
      <trkpt lat="36.41918726" lon="-6.14545698">
        <ele>55.0</ele>
        <time>2019-10-25T10:19:39Z</time>
      </trkpt>
      <trkpt lat="36.41913914" lon="-6.14544937">
        <ele>57.0</ele>
        <time>2019-10-25T10:19:42Z</time>
      </trkpt>
      <trkpt lat="36.4190677" lon="-6.14544233">
        <ele>58.0</ele>
        <time>2019-10-25T10:19:46Z</time>
      </trkpt>
      <trkpt lat="36.41902238" lon="-6.14545899">
        <ele>64.0</ele>
        <time>2019-10-25T10:19:51Z</time>
      </trkpt>
      <trkpt lat="36.4189885" lon="-6.14550964">
        <ele>63.0</ele>
        <time>2019-10-25T10:19:56Z</time>
      </trkpt>
      <trkpt lat="36.4189659" lon="-6.14557163">
        <ele>60.0</ele>
        <time>2019-10-25T10:19:59Z</time>
      </trkpt>
      <trkpt lat="36.41897177" lon="-6.14562835">
        <ele>57.0</ele>
        <time>2019-10-25T10:20:09Z</time>
      </trkpt>
      <trkpt lat="36.41895488" lon="-6.14568246">
        <ele>57.0</ele>
        <time>2019-10-25T10:20:16Z</time>
      </trkpt>
      <trkpt lat="36.41890696" lon="-6.14572647">
        <ele>58.0</ele>
        <time>2019-10-25T10:20:19Z</time>
      </trkpt>
      <trkpt lat="36.41888463" lon="-6.14578759">
        <ele>56.0</ele>
        <time>2019-10-25T10:20:23Z</time>
      </trkpt>
      <trkpt lat="36.41884248" lon="-6.14582927">
        <ele>58.0</ele>
        <time>2019-10-25T10:20:27Z</time>
      </trkpt>
      <trkpt lat="36.41880082" lon="-6.14586793">
        <ele>60.0</ele>
        <time>2019-10-25T10:20:31Z</time>
      </trkpt>
      <trkpt lat="36.41874064" lon="-6.14590738">
        <ele>61.0</ele>
        <time>2019-10-25T10:20:42Z</time>
      </trkpt>
      <trkpt lat="36.41869522" lon="-6.1459388">
        <ele>59.0</ele>
        <time>2019-10-25T10:20:45Z</time>
      </trkpt>
      <trkpt lat="36.41865021" lon="-6.14594582">
        <ele>60.0</ele>
        <time>2019-10-25T10:20:48Z</time>
      </trkpt>
      <trkpt lat="36.41860811" lon="-6.14596679">
        <ele>60.0</ele>
        <time>2019-10-25T10:20:53Z</time>
      </trkpt>
      <trkpt lat="36.41856253" lon="-6.14600134">
        <ele>63.0</ele>
        <time>2019-10-25T10:20:57Z</time>
      </trkpt>
      <trkpt lat="36.41851812" lon="-6.14602683">
        <ele>62.0</ele>
        <time>2019-10-25T10:20:59Z</time>
      </trkpt>
      <trkpt lat="36.41846733" lon="-6.14606114">
        <ele>66.0</ele>
        <time>2019-10-25T10:21:02Z</time>
      </trkpt>
      <trkpt lat="36.41842618" lon="-6.1460918">
        <ele>65.0</ele>
        <time>2019-10-25T10:21:07Z</time>
      </trkpt>
      <trkpt lat="36.41838638" lon="-6.14613079">
        <ele>63.0</ele>
        <time>2019-10-25T10:21:13Z</time>
      </trkpt>
      <trkpt lat="36.41833084" lon="-6.14617057">
        <ele>61.0</ele>
        <time>2019-10-25T10:21:17Z</time>
      </trkpt>
      <trkpt lat="36.41827753" lon="-6.1461902">
        <ele>58.0</ele>
        <time>2019-10-25T10:21:19Z</time>
      </trkpt>
      <trkpt lat="36.41820726" lon="-6.14619493">
        <ele>60.0</ele>
        <time>2019-10-25T10:21:21Z</time>
      </trkpt>
      <trkpt lat="36.4181586" lon="-6.14617416">
        <ele>60.0</ele>
        <time>2019-10-25T10:21:23Z</time>
      </trkpt>
      <trkpt lat="36.41810615" lon="-6.14618571">
        <ele>57.0</ele>
        <time>2019-10-25T10:21:32Z</time>
      </trkpt>
      <trkpt lat="36.41807044" lon="-6.14622196">
        <ele>58.0</ele>
        <time>2019-10-25T10:21:37Z</time>
      </trkpt>
      <trkpt lat="36.41802782" lon="-6.14617972">
        <ele>45.0</ele>
        <time>2019-10-25T10:21:48Z</time>
      </trkpt>
      <trkpt lat="36.4179818" lon="-6.14617748">
        <ele>44.0</ele>
        <time>2019-10-25T10:21:53Z</time>
      </trkpt>
      <trkpt lat="36.41793919" lon="-6.14622214">
        <ele>38.0</ele>
        <time>2019-10-25T10:22:00Z</time>
      </trkpt>
      <trkpt lat="36.41789594" lon="-6.14627398">
        <ele>40.0</ele>
        <time>2019-10-25T10:22:03Z</time>
      </trkpt>
      <trkpt lat="36.41785843" lon="-6.14630987">
        <ele>41.0</ele>
        <time>2019-10-25T10:22:05Z</time>
      </trkpt>
      <trkpt lat="36.41781951" lon="-6.14633953">
        <ele>43.0</ele>
        <time>2019-10-25T10:22:07Z</time>
      </trkpt>
      <trkpt lat="36.41775776" lon="-6.14636605">
        <ele>44.0</ele>
        <time>2019-10-25T10:22:10Z</time>
      </trkpt>
      <trkpt lat="36.41769733" lon="-6.14636653">
        <ele>49.0</ele>
        <time>2019-10-25T10:22:13Z</time>
      </trkpt>
      <trkpt lat="36.41765119" lon="-6.14634464">
        <ele>48.0</ele>
        <time>2019-10-25T10:22:15Z</time>
      </trkpt>
      <trkpt lat="36.41760633" lon="-6.1463268">
        <ele>50.0</ele>
        <time>2019-10-25T10:22:17Z</time>
      </trkpt>
      <trkpt lat="36.41754727" lon="-6.14631972">
        <ele>52.0</ele>
        <time>2019-10-25T10:22:20Z</time>
      </trkpt>
      <trkpt lat="36.41749799" lon="-6.14629033">
        <ele>56.0</ele>
        <time>2019-10-25T10:22:23Z</time>
      </trkpt>
      <trkpt lat="36.41745468" lon="-6.14626626">
        <ele>60.0</ele>
        <time>2019-10-25T10:22:27Z</time>
      </trkpt>
      <trkpt lat="36.41740491" lon="-6.14625454">
        <ele>64.0</ele>
        <time>2019-10-25T10:22:58Z</time>
      </trkpt>
      <trkpt lat="36.41735864" lon="-6.14626059">
        <ele>62.0</ele>
        <time>2019-10-25T10:23:04Z</time>
      </trkpt>
      <trkpt lat="36.41730496" lon="-6.14626981">
        <ele>66.0</ele>
        <time>2019-10-25T10:23:09Z</time>
      </trkpt>
      <trkpt lat="36.41725973" lon="-6.1462424">
        <ele>68.0</ele>
        <time>2019-10-25T10:23:14Z</time>
      </trkpt>
      <trkpt lat="36.417199" lon="-6.14622495">
        <ele>69.0</ele>
        <time>2019-10-25T10:23:20Z</time>
      </trkpt>
      <trkpt lat="36.4171496" lon="-6.14623275">
        <ele>70.0</ele>
        <time>2019-10-25T10:23:22Z</time>
      </trkpt>
      <trkpt lat="36.41709466" lon="-6.14624326">
        <ele>69.0</ele>
        <time>2019-10-25T10:23:24Z</time>
      </trkpt>
      <trkpt lat="36.41703409" lon="-6.14625397">
        <ele>69.0</ele>
        <time>2019-10-25T10:23:27Z</time>
      </trkpt>
      <trkpt lat="36.41697877" lon="-6.14625713">
        <ele>71.0</ele>
        <time>2019-10-25T10:23:30Z</time>
      </trkpt>
      <trkpt lat="36.4169098" lon="-6.14627628">
        <ele>73.0</ele>
        <time>2019-10-25T10:23:33Z</time>
      </trkpt>
      <trkpt lat="36.41685613" lon="-6.14628455">
        <ele>71.0</ele>
        <time>2019-10-25T10:23:35Z</time>
      </trkpt>
      <trkpt lat="36.41679117" lon="-6.14628491">
        <ele>69.0</ele>
        <time>2019-10-25T10:23:38Z</time>
      </trkpt>
      <trkpt lat="36.41674357" lon="-6.14627603">
        <ele>65.0</ele>
        <time>2019-10-25T10:23:42Z</time>
      </trkpt>
      <trkpt lat="36.41669058" lon="-6.14628025">
        <ele>69.0</ele>
        <time>2019-10-25T10:23:51Z</time>
      </trkpt>
      <trkpt lat="36.41663767" lon="-6.14629984">
        <ele>67.0</ele>
        <time>2019-10-25T10:23:53Z</time>
      </trkpt>
      <trkpt lat="36.41659879" lon="-6.14633063">
        <ele>67.0</ele>
        <time>2019-10-25T10:23:58Z</time>
      </trkpt>
      <trkpt lat="36.41655161" lon="-6.14635296">
        <ele>65.0</ele>
        <time>2019-10-25T10:24:07Z</time>
      </trkpt>
      <trkpt lat="36.41649137" lon="-6.1463836">
        <ele>65.0</ele>
        <time>2019-10-25T10:24:10Z</time>
      </trkpt>
      <trkpt lat="36.41644426" lon="-6.14641878">
        <ele>65.0</ele>
        <time>2019-10-25T10:24:14Z</time>
      </trkpt>
      <trkpt lat="36.41646766" lon="-6.14647164">
        <ele>63.0</ele>
        <time>2019-10-25T10:24:24Z</time>
      </trkpt>
      <trkpt lat="36.41648017" lon="-6.14652694">
        <ele>63.0</ele>
        <time>2019-10-25T10:24:27Z</time>
      </trkpt>
      <trkpt lat="36.41652272" lon="-6.14659314">
        <ele>62.0</ele>
        <time>2019-10-25T10:24:30Z</time>
      </trkpt>
      <trkpt lat="36.41655425" lon="-6.14663479">
        <ele>60.0</ele>
        <time>2019-10-25T10:24:32Z</time>
      </trkpt>
      <trkpt lat="36.41659047" lon="-6.14668451">
        <ele>61.0</ele>
        <time>2019-10-25T10:24:35Z</time>
      </trkpt>
      <trkpt lat="36.41660456" lon="-6.14674874">
        <ele>61.0</ele>
        <time>2019-10-25T10:24:49Z</time>
      </trkpt>
      <trkpt lat="36.41661103" lon="-6.14682001">
        <ele>58.0</ele>
        <time>2019-10-25T10:24:54Z</time>
      </trkpt>
      <trkpt lat="36.41658396" lon="-6.14688036">
        <ele>62.0</ele>
        <time>2019-10-25T10:25:00Z</time>
      </trkpt>
      <trkpt lat="36.41657568" lon="-6.14693525">
        <ele>63.0</ele>
        <time>2019-10-25T10:25:02Z</time>
      </trkpt>
      <trkpt lat="36.41659569" lon="-6.14701865">
        <ele>60.0</ele>
        <time>2019-10-25T10:25:04Z</time>
      </trkpt>
      <trkpt lat="36.4166115" lon="-6.14708887">
        <ele>58.0</ele>
        <time>2019-10-25T10:25:06Z</time>
      </trkpt>
      <trkpt lat="36.41661604" lon="-6.14714759">
        <ele>58.0</ele>
        <time>2019-10-25T10:25:09Z</time>
      </trkpt>
      <trkpt lat="36.41660626" lon="-6.14720652">
        <ele>63.0</ele>
        <time>2019-10-25T10:25:17Z</time>
      </trkpt>
      <trkpt lat="36.4166184" lon="-6.14729139">
        <ele>66.0</ele>
        <time>2019-10-25T10:25:19Z</time>
      </trkpt>
      <trkpt lat="36.41664411" lon="-6.14734056">
        <ele>69.0</ele>
        <time>2019-10-25T10:25:21Z</time>
      </trkpt>
      <trkpt lat="36.41668771" lon="-6.14739958">
        <ele>67.0</ele>
        <time>2019-10-25T10:25:28Z</time>
      </trkpt>
      <trkpt lat="36.4167022" lon="-6.14745371">
        <ele>67.0</ele>
        <time>2019-10-25T10:25:33Z</time>
      </trkpt>
      <trkpt lat="36.41672227" lon="-6.14750631">
        <ele>68.0</ele>
        <time>2019-10-25T10:25:38Z</time>
      </trkpt>
      <trkpt lat="36.41673988" lon="-6.14757017">
        <ele>68.0</ele>
        <time>2019-10-25T10:25:42Z</time>
      </trkpt>
      <trkpt lat="36.41677416" lon="-6.14760784">
        <ele>67.0</ele>
        <time>2019-10-25T10:25:45Z</time>
      </trkpt>
      <trkpt lat="36.41681643" lon="-6.14764761">
        <ele>67.0</ele>
        <time>2019-10-25T10:25:48Z</time>
      </trkpt>
      <trkpt lat="36.41685015" lon="-6.14773681">
        <ele>67.0</ele>
        <time>2019-10-25T10:25:54Z</time>
      </trkpt>
      <trkpt lat="36.41679872" lon="-6.14778288">
        <ele>68.0</ele>
        <time>2019-10-25T10:25:58Z</time>
      </trkpt>
      <trkpt lat="36.41681721" lon="-6.14785038">
        <ele>68.0</ele>
        <time>2019-10-25T10:26:02Z</time>
      </trkpt>
      <trkpt lat="36.41685428" lon="-6.14789968">
        <ele>68.0</ele>
        <time>2019-10-25T10:26:04Z</time>
      </trkpt>
      <trkpt lat="36.41695422" lon="-6.14801666">
        <ele>66.0</ele>
        <time>2019-10-25T10:26:12Z</time>
      </trkpt>
      <trkpt lat="36.41692247" lon="-6.14807991">
        <ele>67.0</ele>
        <time>2019-10-25T10:26:15Z</time>
      </trkpt>
      <trkpt lat="36.41690789" lon="-6.14813517">
        <ele>68.0</ele>
        <time>2019-10-25T10:26:18Z</time>
      </trkpt>
      <trkpt lat="36.41697199" lon="-6.14814624">
        <ele>68.0</ele>
        <time>2019-10-25T10:26:21Z</time>
      </trkpt>
      <trkpt lat="36.41702142" lon="-6.1481809">
        <ele>69.0</ele>
        <time>2019-10-25T10:26:24Z</time>
      </trkpt>
      <trkpt lat="36.41703784" lon="-6.1482355">
        <ele>70.0</ele>
        <time>2019-10-25T10:26:28Z</time>
      </trkpt>
      <trkpt lat="36.41705038" lon="-6.14830767">
        <ele>71.0</ele>
        <time>2019-10-25T10:26:32Z</time>
      </trkpt>
      <trkpt lat="36.41704035" lon="-6.14836859">
        <ele>71.0</ele>
        <time>2019-10-25T10:26:35Z</time>
      </trkpt>
      <trkpt lat="36.41705285" lon="-6.14842912">
        <ele>68.0</ele>
        <time>2019-10-25T10:26:39Z</time>
      </trkpt>
      <trkpt lat="36.41705674" lon="-6.14850224">
        <ele>64.0</ele>
        <time>2019-10-25T10:26:47Z</time>
      </trkpt>
      <trkpt lat="36.41702358" lon="-6.14856149">
        <ele>64.0</ele>
        <time>2019-10-25T10:26:51Z</time>
      </trkpt>
      <trkpt lat="36.41700924" lon="-6.14862734">
        <ele>64.0</ele>
        <time>2019-10-25T10:26:55Z</time>
      </trkpt>
      <trkpt lat="36.4170537" lon="-6.14868338">
        <ele>65.0</ele>
        <time>2019-10-25T10:26:59Z</time>
      </trkpt>
      <trkpt lat="36.41710842" lon="-6.14871572">
        <ele>65.0</ele>
        <time>2019-10-25T10:27:02Z</time>
      </trkpt>
      <trkpt lat="36.41710741" lon="-6.14877378">
        <ele>64.0</ele>
        <time>2019-10-25T10:27:06Z</time>
      </trkpt>
      <trkpt lat="36.41708269" lon="-6.14883434">
        <ele>64.0</ele>
        <time>2019-10-25T10:27:09Z</time>
      </trkpt>
      <trkpt lat="36.41705192" lon="-6.1489014">
        <ele>65.0</ele>
        <time>2019-10-25T10:27:12Z</time>
      </trkpt>
      <trkpt lat="36.41704451" lon="-6.14896559">
        <ele>65.0</ele>
        <time>2019-10-25T10:27:15Z</time>
      </trkpt>
      <trkpt lat="36.41707979" lon="-6.14901179">
        <ele>62.0</ele>
        <time>2019-10-25T10:27:19Z</time>
      </trkpt>
      <trkpt lat="36.41713932" lon="-6.14903581">
        <ele>65.0</ele>
        <time>2019-10-25T10:27:22Z</time>
      </trkpt>
      <trkpt lat="36.41718068" lon="-6.14906413">
        <ele>62.0</ele>
        <time>2019-10-25T10:27:24Z</time>
      </trkpt>
      <trkpt lat="36.41723217" lon="-6.14910174">
        <ele>63.0</ele>
        <time>2019-10-25T10:27:27Z</time>
      </trkpt>
      <trkpt lat="36.41727159" lon="-6.14914342">
        <ele>66.0</ele>
        <time>2019-10-25T10:27:30Z</time>
      </trkpt>
      <trkpt lat="36.41729166" lon="-6.14919553">
        <ele>67.0</ele>
        <time>2019-10-25T10:27:33Z</time>
      </trkpt>
      <trkpt lat="36.41727349" lon="-6.14931257">
        <ele>68.0</ele>
        <time>2019-10-25T10:27:40Z</time>
      </trkpt>
      <trkpt lat="36.41720785" lon="-6.14941395">
        <ele>65.0</ele>
        <time>2019-10-25T10:27:46Z</time>
      </trkpt>
      <trkpt lat="36.41715708" lon="-6.14945411">
        <ele>67.0</ele>
        <time>2019-10-25T10:27:50Z</time>
      </trkpt>
      <trkpt lat="36.41711888" lon="-6.14948578">
        <ele>64.0</ele>
        <time>2019-10-25T10:27:54Z</time>
      </trkpt>
      <trkpt lat="36.41708206" lon="-6.1495292">
        <ele>59.0</ele>
        <time>2019-10-25T10:27:59Z</time>
      </trkpt>
      <trkpt lat="36.4170354" lon="-6.14955011">
        <ele>61.0</ele>
        <time>2019-10-25T10:28:03Z</time>
      </trkpt>
      <trkpt lat="36.41698683" lon="-6.14956712">
        <ele>65.0</ele>
        <time>2019-10-25T10:28:08Z</time>
      </trkpt>
      <trkpt lat="36.41693502" lon="-6.14955367">
        <ele>65.0</ele>
        <time>2019-10-25T10:28:13Z</time>
      </trkpt>
      <trkpt lat="36.41688773" lon="-6.14956106">
        <ele>67.0</ele>
        <time>2019-10-25T10:28:17Z</time>
      </trkpt>
      <trkpt lat="36.41684158" lon="-6.14956124">
        <ele>68.0</ele>
        <time>2019-10-25T10:28:21Z</time>
      </trkpt>
      <trkpt lat="36.41679168" lon="-6.14958315">
        <ele>68.0</ele>
        <time>2019-10-25T10:28:26Z</time>
      </trkpt>
      <trkpt lat="36.41676354" lon="-6.14964185">
        <ele>69.0</ele>
        <time>2019-10-25T10:28:32Z</time>
      </trkpt>
      <trkpt lat="36.4167371" lon="-6.14969501">
        <ele>68.0</ele>
        <time>2019-10-25T10:28:35Z</time>
      </trkpt>
      <trkpt lat="36.41672089" lon="-6.14978223">
        <ele>67.0</ele>
        <time>2019-10-25T10:28:38Z</time>
      </trkpt>
      <trkpt lat="36.41672833" lon="-6.14983839">
        <ele>66.0</ele>
        <time>2019-10-25T10:28:39Z</time>
      </trkpt>
      <trkpt lat="36.41674263" lon="-6.14989145">
        <ele>67.0</ele>
        <time>2019-10-25T10:28:40Z</time>
      </trkpt>
      <trkpt lat="36.41676935" lon="-6.14996135">
        <ele>66.0</ele>
        <time>2019-10-25T10:28:42Z</time>
      </trkpt>
      <trkpt lat="36.41676933" lon="-6.15001821">
        <ele>66.0</ele>
        <time>2019-10-25T10:28:45Z</time>
      </trkpt>
      <trkpt lat="36.41676021" lon="-6.15009414">
        <ele>67.0</ele>
        <time>2019-10-25T10:28:48Z</time>
      </trkpt>
      <trkpt lat="36.41673401" lon="-6.1501461">
        <ele>66.0</ele>
        <time>2019-10-25T10:28:52Z</time>
      </trkpt>
      <trkpt lat="36.41669441" lon="-6.15018517">
        <ele>69.0</ele>
        <time>2019-10-25T10:28:59Z</time>
      </trkpt>
      <trkpt lat="36.4166456" lon="-6.1501919">
        <ele>67.0</ele>
        <time>2019-10-25T10:29:03Z</time>
      </trkpt>
      <trkpt lat="36.41659457" lon="-6.15017324">
        <ele>68.0</ele>
        <time>2019-10-25T10:29:06Z</time>
      </trkpt>
      <trkpt lat="36.41654746" lon="-6.15018476">
        <ele>69.0</ele>
        <time>2019-10-25T10:29:12Z</time>
      </trkpt>
      <trkpt lat="36.41651277" lon="-6.15023315">
        <ele>70.0</ele>
        <time>2019-10-25T10:29:17Z</time>
      </trkpt>
      <trkpt lat="36.41650648" lon="-6.15029275">
        <ele>66.0</ele>
        <time>2019-10-25T10:29:22Z</time>
      </trkpt>
      <trkpt lat="36.41650625" lon="-6.15035965">
        <ele>69.0</ele>
        <time>2019-10-25T10:29:27Z</time>
      </trkpt>
      <trkpt lat="36.41649708" lon="-6.15042998">
        <ele>73.0</ele>
        <time>2019-10-25T10:29:31Z</time>
      </trkpt>
      <trkpt lat="36.41646692" lon="-6.15048816">
        <ele>72.0</ele>
        <time>2019-10-25T10:29:35Z</time>
      </trkpt>
      <trkpt lat="36.41644027" lon="-6.15054551">
        <ele>75.0</ele>
        <time>2019-10-25T10:29:39Z</time>
      </trkpt>
      <trkpt lat="36.41641414" lon="-6.15060254">
        <ele>74.0</ele>
        <time>2019-10-25T10:29:43Z</time>
      </trkpt>
      <trkpt lat="36.41640542" lon="-6.15065868">
        <ele>72.0</ele>
        <time>2019-10-25T10:29:47Z</time>
      </trkpt>
      <trkpt lat="36.4164064" lon="-6.15071596">
        <ele>73.0</ele>
        <time>2019-10-25T10:29:52Z</time>
      </trkpt>
      <trkpt lat="36.41640187" lon="-6.15078825">
        <ele>73.0</ele>
        <time>2019-10-25T10:29:56Z</time>
      </trkpt>
      <trkpt lat="36.41637109" lon="-6.15084632">
        <ele>74.0</ele>
        <time>2019-10-25T10:30:01Z</time>
      </trkpt>
      <trkpt lat="36.41635605" lon="-6.15091286">
        <ele>76.0</ele>
        <time>2019-10-25T10:30:06Z</time>
      </trkpt>
      <trkpt lat="36.41633515" lon="-6.15097437">
        <ele>77.0</ele>
        <time>2019-10-25T10:30:11Z</time>
      </trkpt>
      <trkpt lat="36.41630597" lon="-6.15102389">
        <ele>78.0</ele>
        <time>2019-10-25T10:30:15Z</time>
      </trkpt>
      <trkpt lat="36.41628454" lon="-6.15107574">
        <ele>77.0</ele>
        <time>2019-10-25T10:30:20Z</time>
      </trkpt>
      <trkpt lat="36.41628148" lon="-6.15114308">
        <ele>74.0</ele>
        <time>2019-10-25T10:30:26Z</time>
      </trkpt>
      <trkpt lat="36.41626481" lon="-6.15120407">
        <ele>74.0</ele>
        <time>2019-10-25T10:30:31Z</time>
      </trkpt>
      <trkpt lat="36.41625009" lon="-6.15125881">
        <ele>73.0</ele>
        <time>2019-10-25T10:30:35Z</time>
      </trkpt>
      <trkpt lat="36.41623601" lon="-6.1513189">
        <ele>71.0</ele>
        <time>2019-10-25T10:30:39Z</time>
      </trkpt>
      <trkpt lat="36.41622225" lon="-6.15137251">
        <ele>69.0</ele>
        <time>2019-10-25T10:30:43Z</time>
      </trkpt>
      <trkpt lat="36.41619511" lon="-6.15142565">
        <ele>67.0</ele>
        <time>2019-10-25T10:30:48Z</time>
      </trkpt>
      <trkpt lat="36.41618272" lon="-6.15148277">
        <ele>67.0</ele>
        <time>2019-10-25T10:30:53Z</time>
      </trkpt>
      <trkpt lat="36.41617814" lon="-6.15155206">
        <ele>64.0</ele>
        <time>2019-10-25T10:30:58Z</time>
      </trkpt>
      <trkpt lat="36.41615665" lon="-6.15160904">
        <ele>67.0</ele>
        <time>2019-10-25T10:31:02Z</time>
      </trkpt>
      <trkpt lat="36.41613516" lon="-6.15166697">
        <ele>66.0</ele>
        <time>2019-10-25T10:31:06Z</time>
      </trkpt>
      <trkpt lat="36.41613437" lon="-6.15172573">
        <ele>64.0</ele>
        <time>2019-10-25T10:31:10Z</time>
      </trkpt>
      <trkpt lat="36.41613398" lon="-6.1518645">
        <ele>67.0</ele>
        <time>2019-10-25T10:31:14Z</time>
      </trkpt>
      <trkpt lat="36.41613398" lon="-6.1518645">
        <ele>76.0</ele>
        <time>2019-10-25T09:57:36Z</time>
      </trkpt>
      <trkpt lat="36.41613484" lon="-6.15192547">
        <ele>76.0</ele>
        <time>2019-10-25T09:57:49Z</time>
      </trkpt>
      <trkpt lat="36.41611759" lon="-6.15199638">
        <ele>77.0</ele>
        <time>2019-10-25T09:57:53Z</time>
      </trkpt>
      <trkpt lat="36.41610923" lon="-6.1520607">
        <ele>76.0</ele>
        <time>2019-10-25T09:57:56Z</time>
      </trkpt>
      <trkpt lat="36.41612657" lon="-6.15211927">
        <ele>77.0</ele>
        <time>2019-10-25T09:58:00Z</time>
      </trkpt>
      <trkpt lat="36.41613466" lon="-6.1521769">
        <ele>77.0</ele>
        <time>2019-10-25T09:58:04Z</time>
      </trkpt>
      <trkpt lat="36.41612891" lon="-6.15224009">
        <ele>75.0</ele>
        <time>2019-10-25T09:58:09Z</time>
      </trkpt>
      <trkpt lat="36.41611055" lon="-6.15229416">
        <ele>76.0</ele>
        <time>2019-10-25T09:58:13Z</time>
      </trkpt>
      <trkpt lat="36.41607864" lon="-6.15236126">
        <ele>76.0</ele>
        <time>2019-10-25T09:58:19Z</time>
      </trkpt>
      <trkpt lat="36.41606841" lon="-6.15242828">
        <ele>78.0</ele>
        <time>2019-10-25T09:58:23Z</time>
      </trkpt>
      <trkpt lat="36.41607011" lon="-6.15248492">
        <ele>79.0</ele>
        <time>2019-10-25T09:58:25Z</time>
      </trkpt>
      <trkpt lat="36.4160787" lon="-6.152545">
        <ele>80.0</ele>
        <time>2019-10-25T09:58:27Z</time>
      </trkpt>
      <trkpt lat="36.41611163" lon="-6.15260158">
        <ele>81.0</ele>
        <time>2019-10-25T09:58:29Z</time>
      </trkpt>
      <trkpt lat="36.41614257" lon="-6.15264344">
        <ele>79.0</ele>
        <time>2019-10-25T09:58:31Z</time>
      </trkpt>
      <trkpt lat="36.41616429" lon="-6.15269446">
        <ele>78.0</ele>
        <time>2019-10-25T09:58:33Z</time>
      </trkpt>
      <trkpt lat="36.41619156" lon="-6.15275944">
        <ele>76.0</ele>
        <time>2019-10-25T09:58:37Z</time>
      </trkpt>
      <trkpt lat="36.41620451" lon="-6.15282663">
        <ele>76.0</ele>
        <time>2019-10-25T09:58:41Z</time>
      </trkpt>
      <trkpt lat="36.41622268" lon="-6.15288835">
        <ele>75.0</ele>
        <time>2019-10-25T09:58:47Z</time>
      </trkpt>
      <trkpt lat="36.41623989" lon="-6.15294223">
        <ele>77.0</ele>
        <time>2019-10-25T09:58:50Z</time>
      </trkpt>
      <trkpt lat="36.41624064" lon="-6.15299873">
        <ele>75.0</ele>
        <time>2019-10-25T09:58:53Z</time>
      </trkpt>
      <trkpt lat="36.41623338" lon="-6.15306164">
        <ele>76.0</ele>
        <time>2019-10-25T09:58:56Z</time>
      </trkpt>
      <trkpt lat="36.41623708" lon="-6.15312435">
        <ele>74.0</ele>
        <time>2019-10-25T09:58:59Z</time>
      </trkpt>
      <trkpt lat="36.41622948" lon="-6.15318665">
        <ele>75.0</ele>
        <time>2019-10-25T09:59:03Z</time>
      </trkpt>
      <trkpt lat="36.41623372" lon="-6.15325575">
        <ele>76.0</ele>
        <time>2019-10-25T09:59:07Z</time>
      </trkpt>
      <trkpt lat="36.4162392" lon="-6.15332645">
        <ele>77.0</ele>
        <time>2019-10-25T09:59:12Z</time>
      </trkpt>
      <trkpt lat="36.41625277" lon="-6.15338979">
        <ele>76.0</ele>
        <time>2019-10-25T09:59:16Z</time>
      </trkpt>
      <trkpt lat="36.41625883" lon="-6.15345244">
        <ele>73.0</ele>
        <time>2019-10-25T09:59:20Z</time>
      </trkpt>
      <trkpt lat="36.41627202" lon="-6.15351148">
        <ele>70.0</ele>
        <time>2019-10-25T09:59:24Z</time>
      </trkpt>
      <trkpt lat="36.41628364" lon="-6.15356931">
        <ele>69.0</ele>
        <time>2019-10-25T09:59:28Z</time>
      </trkpt>
      <trkpt lat="36.41630071" lon="-6.15362878">
        <ele>67.0</ele>
        <time>2019-10-25T09:59:32Z</time>
      </trkpt>
      <trkpt lat="36.41631057" lon="-6.15369459">
        <ele>67.0</ele>
        <time>2019-10-25T09:59:35Z</time>
      </trkpt>
      <trkpt lat="36.41631966" lon="-6.15376034">
        <ele>66.0</ele>
        <time>2019-10-25T09:59:39Z</time>
      </trkpt>
      <trkpt lat="36.41632312" lon="-6.15382923">
        <ele>65.0</ele>
        <time>2019-10-25T09:59:43Z</time>
      </trkpt>
      <trkpt lat="36.41632736" lon="-6.15388997">
        <ele>64.0</ele>
        <time>2019-10-25T09:59:47Z</time>
      </trkpt>
      <trkpt lat="36.41633787" lon="-6.1539462">
        <ele>64.0</ele>
        <time>2019-10-25T09:59:51Z</time>
      </trkpt>
      <trkpt lat="36.41634473" lon="-6.15400545">
        <ele>65.0</ele>
        <time>2019-10-25T09:59:55Z</time>
      </trkpt>
      <trkpt lat="36.4163502" lon="-6.15406714">
        <ele>65.0</ele>
        <time>2019-10-25T09:59:59Z</time>
      </trkpt>
      <trkpt lat="36.41636155" lon="-6.1541218">
        <ele>66.0</ele>
        <time>2019-10-25T10:00:03Z</time>
      </trkpt>
      <trkpt lat="36.41638273" lon="-6.15418519">
        <ele>67.0</ele>
        <time>2019-10-25T10:00:08Z</time>
      </trkpt>
      <trkpt lat="36.41638854" lon="-6.15425157">
        <ele>66.0</ele>
        <time>2019-10-25T10:00:13Z</time>
      </trkpt>
      <trkpt lat="36.41638952" lon="-6.15430843">
        <ele>65.0</ele>
        <time>2019-10-25T10:00:17Z</time>
      </trkpt>
      <trkpt lat="36.41638926" lon="-6.15438078">
        <ele>64.0</ele>
        <time>2019-10-25T10:00:22Z</time>
      </trkpt>
      <trkpt lat="36.41638955" lon="-6.15443734">
        <ele>64.0</ele>
        <time>2019-10-25T10:00:25Z</time>
      </trkpt>
      <trkpt lat="36.41638652" lon="-6.15450806">
        <ele>65.0</ele>
        <time>2019-10-25T10:00:29Z</time>
      </trkpt>
      <trkpt lat="36.41640122" lon="-6.15457666">
        <ele>64.0</ele>
        <time>2019-10-25T10:00:33Z</time>
      </trkpt>
      <trkpt lat="36.41641397" lon="-6.15463691">
        <ele>62.0</ele>
        <time>2019-10-25T10:00:36Z</time>
      </trkpt>
      <trkpt lat="36.41641947" lon="-6.15471023">
        <ele>63.0</ele>
        <time>2019-10-25T10:00:40Z</time>
      </trkpt>
      <trkpt lat="36.41641433" lon="-6.15477082">
        <ele>62.0</ele>
        <time>2019-10-25T10:00:43Z</time>
      </trkpt>
      <trkpt lat="36.41641285" lon="-6.15484345">
        <ele>64.0</ele>
        <time>2019-10-25T10:00:47Z</time>
      </trkpt>
      <trkpt lat="36.41641809" lon="-6.15490419">
        <ele>64.0</ele>
        <time>2019-10-25T10:00:50Z</time>
      </trkpt>
      <trkpt lat="36.41642738" lon="-6.15497563">
        <ele>65.0</ele>
        <time>2019-10-25T10:00:54Z</time>
      </trkpt>
      <trkpt lat="36.41643468" lon="-6.15503283">
        <ele>65.0</ele>
        <time>2019-10-25T10:00:57Z</time>
      </trkpt>
      <trkpt lat="36.41643597" lon="-6.15510007">
        <ele>66.0</ele>
        <time>2019-10-25T10:01:01Z</time>
      </trkpt>
      <trkpt lat="36.41643673" lon="-6.15516256">
        <ele>63.0</ele>
        <time>2019-10-25T10:01:05Z</time>
      </trkpt>
      <trkpt lat="36.41645053" lon="-6.15521778">
        <ele>62.0</ele>
        <time>2019-10-25T10:01:09Z</time>
      </trkpt>
      <trkpt lat="36.41646567" lon="-6.15528247">
        <ele>63.0</ele>
        <time>2019-10-25T10:01:13Z</time>
      </trkpt>
      <trkpt lat="36.41648272" lon="-6.15534438">
        <ele>62.0</ele>
        <time>2019-10-25T10:01:18Z</time>
      </trkpt>
      <trkpt lat="36.41650701" lon="-6.15539619">
        <ele>62.0</ele>
        <time>2019-10-25T10:01:25Z</time>
      </trkpt>
      <trkpt lat="36.41651488" lon="-6.15545664">
        <ele>60.0</ele>
        <time>2019-10-25T10:01:32Z</time>
      </trkpt>
      <trkpt lat="36.41652975" lon="-6.15551373">
        <ele>65.0</ele>
        <time>2019-10-25T10:01:36Z</time>
      </trkpt>
      <trkpt lat="36.41654894" lon="-6.15557146">
        <ele>64.0</ele>
        <time>2019-10-25T10:01:39Z</time>
      </trkpt>
      <trkpt lat="36.41656677" lon="-6.15562415">
        <ele>64.0</ele>
        <time>2019-10-25T10:01:42Z</time>
      </trkpt>
      <trkpt lat="36.41659422" lon="-6.15568267">
        <ele>61.0</ele>
        <time>2019-10-25T10:01:46Z</time>
      </trkpt>
      <trkpt lat="36.41664088" lon="-6.15570796">
        <ele>62.0</ele>
        <time>2019-10-25T10:01:50Z</time>
      </trkpt>
      <trkpt lat="36.41670461" lon="-6.15570918">
        <ele>59.0</ele>
        <time>2019-10-25T10:01:54Z</time>
      </trkpt>
      <trkpt lat="36.41675029" lon="-6.15571615">
        <ele>57.0</ele>
        <time>2019-10-25T10:01:57Z</time>
      </trkpt>
      <trkpt lat="36.41680054" lon="-6.15571621">
        <ele>58.0</ele>
        <time>2019-10-25T10:02:02Z</time>
      </trkpt>
      <trkpt lat="36.4168531" lon="-6.15568841">
        <ele>56.0</ele>
        <time>2019-10-25T10:02:06Z</time>
      </trkpt>
      <trkpt lat="36.41690528" lon="-6.15566565">
        <ele>58.0</ele>
        <time>2019-10-25T10:02:09Z</time>
      </trkpt>
      <trkpt lat="36.41694783" lon="-6.15564009">
        <ele>66.0</ele>
        <time>2019-10-25T10:02:11Z</time>
      </trkpt>
      <trkpt lat="36.41699162" lon="-6.15561467">
        <ele>65.0</ele>
        <time>2019-10-25T10:02:14Z</time>
      </trkpt>
      <trkpt lat="36.4170379" lon="-6.15559893">
        <ele>63.0</ele>
        <time>2019-10-25T10:02:17Z</time>
      </trkpt>
      <trkpt lat="36.41708743" lon="-6.15561929">
        <ele>59.0</ele>
        <time>2019-10-25T10:02:24Z</time>
      </trkpt>
      <trkpt lat="36.41713461" lon="-6.15560479">
        <ele>58.0</ele>
        <time>2019-10-25T10:02:29Z</time>
      </trkpt>
      <trkpt lat="36.41718378" lon="-6.15558108">
        <ele>58.0</ele>
        <time>2019-10-25T10:02:36Z</time>
      </trkpt>
      <trkpt lat="36.41723999" lon="-6.15556849">
        <ele>60.0</ele>
        <time>2019-10-25T10:02:41Z</time>
      </trkpt>
      <trkpt lat="36.41729638" lon="-6.15554654">
        <ele>58.0</ele>
        <time>2019-10-25T10:02:44Z</time>
      </trkpt>
      <trkpt lat="36.41734713" lon="-6.15552903">
        <ele>59.0</ele>
        <time>2019-10-25T10:02:47Z</time>
      </trkpt>
      <trkpt lat="36.41739924" lon="-6.15550803">
        <ele>60.0</ele>
        <time>2019-10-25T10:02:50Z</time>
      </trkpt>
      <trkpt lat="36.41744291" lon="-6.15548713">
        <ele>60.0</ele>
        <time>2019-10-25T10:02:53Z</time>
      </trkpt>
      <trkpt lat="36.4174933" lon="-6.1554623">
        <ele>59.0</ele>
        <time>2019-10-25T10:02:57Z</time>
      </trkpt>
      <trkpt lat="36.41753883" lon="-6.15544111">
        <ele>60.0</ele>
        <time>2019-10-25T10:03:00Z</time>
      </trkpt>
      <trkpt lat="36.41758916" lon="-6.15541945">
        <ele>62.0</ele>
        <time>2019-10-25T10:03:03Z</time>
      </trkpt>
      <trkpt lat="36.4176508" lon="-6.15538847">
        <ele>62.0</ele>
        <time>2019-10-25T10:03:06Z</time>
      </trkpt>
      <trkpt lat="36.41770968" lon="-6.15535896">
        <ele>64.0</ele>
        <time>2019-10-25T10:03:09Z</time>
      </trkpt>
      <trkpt lat="36.41776233" lon="-6.15535102">
        <ele>68.0</ele>
        <time>2019-10-25T10:03:12Z</time>
      </trkpt>
      <trkpt lat="36.41781902" lon="-6.15536815">
        <ele>64.0</ele>
        <time>2019-10-25T10:03:20Z</time>
      </trkpt>
      <trkpt lat="36.4178761" lon="-6.15536139">
        <ele>59.0</ele>
        <time>2019-10-25T10:03:31Z</time>
      </trkpt>
      <trkpt lat="36.41793999" lon="-6.15534399">
        <ele>60.0</ele>
        <time>2019-10-25T10:03:35Z</time>
      </trkpt>
      <trkpt lat="36.41799619" lon="-6.15532802">
        <ele>60.0</ele>
        <time>2019-10-25T10:03:38Z</time>
      </trkpt>
      <trkpt lat="36.41805092" lon="-6.15531648">
        <ele>62.0</ele>
        <time>2019-10-25T10:03:41Z</time>
      </trkpt>
      <trkpt lat="36.41810066" lon="-6.15532053">
        <ele>62.0</ele>
        <time>2019-10-25T10:03:45Z</time>
      </trkpt>
      <trkpt lat="36.41815547" lon="-6.1552963">
        <ele>62.0</ele>
        <time>2019-10-25T10:03:48Z</time>
      </trkpt>
      <trkpt lat="36.41821545" lon="-6.15528729">
        <ele>64.0</ele>
        <time>2019-10-25T10:03:51Z</time>
      </trkpt>
      <trkpt lat="36.41827347" lon="-6.15526211">
        <ele>58.0</ele>
        <time>2019-10-25T10:03:55Z</time>
      </trkpt>
      <trkpt lat="36.41831746" lon="-6.15523582">
        <ele>60.0</ele>
        <time>2019-10-25T10:03:57Z</time>
      </trkpt>
      <trkpt lat="36.41836064" lon="-6.15520525">
        <ele>57.0</ele>
        <time>2019-10-25T10:03:59Z</time>
      </trkpt>
      <trkpt lat="36.4184149" lon="-6.15516667">
        <ele>56.0</ele>
        <time>2019-10-25T10:04:01Z</time>
      </trkpt>
      <trkpt lat="36.4184634" lon="-6.15512909">
        <ele>56.0</ele>
        <time>2019-10-25T10:04:03Z</time>
      </trkpt>
      <trkpt lat="36.41850459" lon="-6.15508862">
        <ele>55.0</ele>
        <time>2019-10-25T10:04:05Z</time>
      </trkpt>
      <trkpt lat="36.41855055" lon="-6.1550511">
        <ele>56.0</ele>
        <time>2019-10-25T10:04:08Z</time>
      </trkpt>
      <trkpt lat="36.41859438" lon="-6.15500832">
        <ele>56.0</ele>
        <time>2019-10-25T10:04:13Z</time>
      </trkpt>
      <trkpt lat="36.41863763" lon="-6.15499138">
        <ele>56.0</ele>
        <time>2019-10-25T10:04:15Z</time>
      </trkpt>
      <trkpt lat="36.41867959" lon="-6.15494269">
        <ele>55.0</ele>
        <time>2019-10-25T10:04:19Z</time>
      </trkpt>
      <trkpt lat="36.41867064" lon="-6.15488404">
        <ele>55.0</ele>
        <time>2019-10-25T10:04:27Z</time>
      </trkpt>
      <trkpt lat="36.41865505" lon="-6.15483039">
        <ele>55.0</ele>
        <time>2019-10-25T10:04:33Z</time>
      </trkpt>
      <trkpt lat="36.41863487" lon="-6.15477506">
        <ele>56.0</ele>
        <time>2019-10-25T10:04:39Z</time>
      </trkpt>
      <trkpt lat="36.41860734" lon="-6.15472401">
        <ele>55.0</ele>
        <time>2019-10-25T10:04:44Z</time>
      </trkpt>
      <trkpt lat="36.41858216" lon="-6.15466908">
        <ele>55.0</ele>
        <time>2019-10-25T10:04:48Z</time>
      </trkpt>
      <trkpt lat="36.41857215" lon="-6.15452446">
        <ele>53.0</ele>
        <time>2019-10-25T10:04:55Z</time>
      </trkpt>
      <trkpt lat="36.41857161" lon="-6.15444832">
        <ele>53.0</ele>
        <time>2019-10-25T10:04:58Z</time>
      </trkpt>
      <trkpt lat="36.41857832" lon="-6.15438139">
        <ele>54.0</ele>
        <time>2019-10-25T10:05:01Z</time>
      </trkpt>
      <trkpt lat="36.41858645" lon="-6.15431783">
        <ele>54.0</ele>
        <time>2019-10-25T10:05:04Z</time>
      </trkpt>
      <trkpt lat="36.41859373" lon="-6.15425772">
        <ele>54.0</ele>
        <time>2019-10-25T10:05:07Z</time>
      </trkpt>
      <trkpt lat="36.41860603" lon="-6.1542011">
        <ele>56.0</ele>
        <time>2019-10-25T10:05:10Z</time>
      </trkpt>
      <trkpt lat="36.41863306" lon="-6.15413745">
        <ele>57.0</ele>
        <time>2019-10-25T10:05:14Z</time>
      </trkpt>
      <trkpt lat="36.41864585" lon="-6.15406569">
        <ele>55.0</ele>
        <time>2019-10-25T10:05:18Z</time>
      </trkpt>
      <trkpt lat="36.41862448" lon="-6.15401588">
        <ele>52.0</ele>
        <time>2019-10-25T10:05:22Z</time>
      </trkpt>
      <trkpt lat="36.41858954" lon="-6.15398018">
        <ele>51.0</ele>
        <time>2019-10-25T10:05:26Z</time>
      </trkpt>
      <trkpt lat="36.41855678" lon="-6.15393693">
        <ele>52.0</ele>
        <time>2019-10-25T10:05:32Z</time>
      </trkpt>
      <trkpt lat="36.41853761" lon="-6.15388577">
        <ele>49.0</ele>
        <time>2019-10-25T10:05:37Z</time>
      </trkpt>
      <trkpt lat="36.41853982" lon="-6.15381819">
        <ele>52.0</ele>
        <time>2019-10-25T10:05:45Z</time>
      </trkpt>
      <trkpt lat="36.41853536" lon="-6.15374488">
        <ele>52.0</ele>
        <time>2019-10-25T10:05:48Z</time>
      </trkpt>
      <trkpt lat="36.41851916" lon="-6.15366405">
        <ele>51.0</ele>
        <time>2019-10-25T10:05:51Z</time>
      </trkpt>
      <trkpt lat="36.41851703" lon="-6.15360325">
        <ele>49.0</ele>
        <time>2019-10-25T10:05:53Z</time>
      </trkpt>
      <trkpt lat="36.41850882" lon="-6.15353895">
        <ele>49.0</ele>
        <time>2019-10-25T10:05:56Z</time>
      </trkpt>
      <trkpt lat="36.41848462" lon="-6.15347051">
        <ele>47.0</ele>
        <time>2019-10-25T10:06:01Z</time>
      </trkpt>
      <trkpt lat="36.41850365" lon="-6.15340901">
        <ele>47.0</ele>
        <time>2019-10-25T10:06:07Z</time>
      </trkpt>
      <trkpt lat="36.41850858" lon="-6.15335211">
        <ele>48.0</ele>
        <time>2019-10-25T10:06:11Z</time>
      </trkpt>
      <trkpt lat="36.41849228" lon="-6.15329168">
        <ele>45.0</ele>
        <time>2019-10-25T10:06:18Z</time>
      </trkpt>
      <trkpt lat="36.41847848" lon="-6.15323097">
        <ele>46.0</ele>
        <time>2019-10-25T10:06:25Z</time>
      </trkpt>
      <trkpt lat="36.41847308" lon="-6.15316835">
        <ele>47.0</ele>
        <time>2019-10-25T10:06:29Z</time>
      </trkpt>
      <trkpt lat="36.41846378" lon="-6.15310279">
        <ele>41.0</ele>
        <time>2019-10-25T10:06:32Z</time>
      </trkpt>
      <trkpt lat="36.41845819" lon="-6.15304687">
        <ele>42.0</ele>
        <time>2019-10-25T10:06:34Z</time>
      </trkpt>
      <trkpt lat="36.41847208" lon="-6.15296307">
        <ele>43.0</ele>
        <time>2019-10-25T10:06:37Z</time>
      </trkpt>
      <trkpt lat="36.41848186" lon="-6.15288268">
        <ele>44.0</ele>
        <time>2019-10-25T10:06:40Z</time>
      </trkpt>
      <trkpt lat="36.41850288" lon="-6.15282014">
        <ele>44.0</ele>
        <time>2019-10-25T10:06:42Z</time>
      </trkpt>
      <trkpt lat="36.41852582" lon="-6.15275565">
        <ele>46.0</ele>
        <time>2019-10-25T10:06:44Z</time>
      </trkpt>
      <trkpt lat="36.41854588" lon="-6.15269551">
        <ele>46.0</ele>
        <time>2019-10-25T10:06:46Z</time>
      </trkpt>
      <trkpt lat="36.41856268" lon="-6.15263334">
        <ele>47.0</ele>
        <time>2019-10-25T10:06:48Z</time>
      </trkpt>
      <trkpt lat="36.41857092" lon="-6.15256396">
        <ele>46.0</ele>
        <time>2019-10-25T10:06:50Z</time>
      </trkpt>
      <trkpt lat="36.41857626" lon="-6.15250789">
        <ele>45.0</ele>
        <time>2019-10-25T10:06:54Z</time>
      </trkpt>
      <trkpt lat="36.41858844" lon="-6.1524513">
        <ele>46.0</ele>
        <time>2019-10-25T10:06:57Z</time>
      </trkpt>
      <trkpt lat="36.41861748" lon="-6.1523999">
        <ele>44.0</ele>
        <time>2019-10-25T10:07:02Z</time>
      </trkpt>
      <trkpt lat="36.41863798" lon="-6.15234766">
        <ele>44.0</ele>
        <time>2019-10-25T10:07:12Z</time>
      </trkpt>
      <trkpt lat="36.41866944" lon="-6.15230482">
        <ele>46.0</ele>
        <time>2019-10-25T10:07:22Z</time>
      </trkpt>
      <trkpt lat="36.41864747" lon="-6.15224415">
        <ele>45.0</ele>
        <time>2019-10-25T10:07:25Z</time>
      </trkpt>
      <trkpt lat="36.41863377" lon="-6.1521561">
        <ele>44.0</ele>
        <time>2019-10-25T10:07:33Z</time>
      </trkpt>
      <trkpt lat="36.418614" lon="-6.15207795">
        <ele>46.0</ele>
        <time>2019-10-25T10:07:36Z</time>
      </trkpt>
      <trkpt lat="36.41860602" lon="-6.1520041">
        <ele>44.0</ele>
        <time>2019-10-25T10:07:38Z</time>
      </trkpt>
      <trkpt lat="36.41861519" lon="-6.15193667">
        <ele>47.0</ele>
        <time>2019-10-25T10:07:40Z</time>
      </trkpt>
      <trkpt lat="36.41862959" lon="-6.15187562">
        <ele>47.0</ele>
        <time>2019-10-25T10:07:43Z</time>
      </trkpt>
      <trkpt lat="36.41861771" lon="-6.15179095">
        <ele>49.0</ele>
        <time>2019-10-25T10:07:46Z</time>
      </trkpt>
      <trkpt lat="36.41864654" lon="-6.15173248">
        <ele>53.0</ele>
        <time>2019-10-25T10:07:49Z</time>
      </trkpt>
      <trkpt lat="36.41866913" lon="-6.15167494">
        <ele>51.0</ele>
        <time>2019-10-25T10:07:52Z</time>
      </trkpt>
      <trkpt lat="36.41868341" lon="-6.15161099">
        <ele>52.0</ele>
        <time>2019-10-25T10:07:56Z</time>
      </trkpt>
      <trkpt lat="36.41869897" lon="-6.15154794">
        <ele>49.0</ele>
        <time>2019-10-25T10:08:00Z</time>
      </trkpt>
      <trkpt lat="36.41869712" lon="-6.15147686">
        <ele>51.0</ele>
        <time>2019-10-25T10:08:04Z</time>
      </trkpt>
      <trkpt lat="36.41869197" lon="-6.15140983">
        <ele>51.0</ele>
        <time>2019-10-25T10:08:08Z</time>
      </trkpt>
      <trkpt lat="36.41869815" lon="-6.15133564">
        <ele>50.0</ele>
        <time>2019-10-25T10:08:12Z</time>
      </trkpt>
      <trkpt lat="36.41870282" lon="-6.15127463">
        <ele>50.0</ele>
        <time>2019-10-25T10:08:17Z</time>
      </trkpt>
      <trkpt lat="36.41869659" lon="-6.15120929">
        <ele>50.0</ele>
        <time>2019-10-25T10:08:22Z</time>
      </trkpt>
      <trkpt lat="36.41869254" lon="-6.15115039">
        <ele>56.0</ele>
        <time>2019-10-25T10:08:32Z</time>
      </trkpt>
      <trkpt lat="36.41870749" lon="-6.15108752">
        <ele>55.0</ele>
        <time>2019-10-25T10:08:37Z</time>
      </trkpt>
      <trkpt lat="36.41871368" lon="-6.15103163">
        <ele>53.0</ele>
        <time>2019-10-25T10:08:43Z</time>
      </trkpt>
      <trkpt lat="36.41871987" lon="-6.15096452">
        <ele>58.0</ele>
        <time>2019-10-25T10:08:48Z</time>
      </trkpt>
      <trkpt lat="36.41873521" lon="-6.15091108">
        <ele>56.0</ele>
        <time>2019-10-25T10:08:52Z</time>
      </trkpt>
      <trkpt lat="36.418747" lon="-6.15084993">
        <ele>62.0</ele>
        <time>2019-10-25T10:08:59Z</time>
      </trkpt>
      <trkpt lat="36.41874807" lon="-6.15078115">
        <ele>58.0</ele>
        <time>2019-10-25T10:09:05Z</time>
      </trkpt>
      <trkpt lat="36.41874782" lon="-6.15070297">
        <ele>58.0</ele>
        <time>2019-10-25T10:09:11Z</time>
      </trkpt>
      <trkpt lat="36.41872704" lon="-6.15063679">
        <ele>53.0</ele>
        <time>2019-10-25T10:10:18Z</time>
      </trkpt>
      <trkpt lat="36.41871005" lon="-6.15058317">
        <ele>55.0</ele>
        <time>2019-10-25T10:10:19Z</time>
      </trkpt>
      <trkpt lat="36.41873976" lon="-6.15052876">
        <ele>54.0</ele>
        <time>2019-10-25T10:11:38Z</time>
      </trkpt>
      <trkpt lat="36.4187629" lon="-6.15047967">
        <ele>61.0</ele>
        <time>2019-10-25T10:11:44Z</time>
      </trkpt>
      <trkpt lat="36.41877268" lon="-6.15040795">
        <ele>60.0</ele>
        <time>2019-10-25T10:11:49Z</time>
      </trkpt>
      <trkpt lat="36.4187812" lon="-6.15033852">
        <ele>58.0</ele>
        <time>2019-10-25T10:11:52Z</time>
      </trkpt>
      <trkpt lat="36.41879209" lon="-6.15028345">
        <ele>60.0</ele>
        <time>2019-10-25T10:11:55Z</time>
      </trkpt>
      <trkpt lat="36.4188209" lon="-6.15022608">
        <ele>57.0</ele>
        <time>2019-10-25T10:11:58Z</time>
      </trkpt>
      <trkpt lat="36.41883491" lon="-6.15014678">
        <ele>57.0</ele>
        <time>2019-10-25T10:12:01Z</time>
      </trkpt>
      <trkpt lat="36.41884225" lon="-6.15007517">
        <ele>53.0</ele>
        <time>2019-10-25T10:12:04Z</time>
      </trkpt>
      <trkpt lat="36.41886302" lon="-6.15000978">
        <ele>53.0</ele>
        <time>2019-10-25T10:12:09Z</time>
      </trkpt>
      <trkpt lat="36.41888902" lon="-6.14995344">
        <ele>53.0</ele>
        <time>2019-10-25T10:12:12Z</time>
      </trkpt>
      <trkpt lat="36.41889983" lon="-6.14988501">
        <ele>54.0</ele>
        <time>2019-10-25T10:12:15Z</time>
      </trkpt>
      <trkpt lat="36.41889549" lon="-6.14982779">
        <ele>55.0</ele>
        <time>2019-10-25T10:12:18Z</time>
      </trkpt>
      <trkpt lat="36.41889812" lon="-6.14977086">
        <ele>53.0</ele>
        <time>2019-10-25T10:12:25Z</time>
      </trkpt>
      <trkpt lat="36.41895321" lon="-6.14976801">
        <ele>54.0</ele>
        <time>2019-10-25T10:12:42Z</time>
      </trkpt>
      <trkpt lat="36.41900004" lon="-6.14976088">
        <ele>56.0</ele>
        <time>2019-10-25T10:12:46Z</time>
      </trkpt>
      <trkpt lat="36.41904435" lon="-6.1497483">
        <ele>55.0</ele>
        <time>2019-10-25T10:12:50Z</time>
      </trkpt>
      <trkpt lat="36.41909549" lon="-6.14974409">
        <ele>53.0</ele>
        <time>2019-10-25T10:12:55Z</time>
      </trkpt>
      <trkpt lat="36.41914138" lon="-6.14973999">
        <ele>55.0</ele>
        <time>2019-10-25T10:13:00Z</time>
      </trkpt>
      <trkpt lat="36.41919694" lon="-6.14972857">
        <ele>52.0</ele>
        <time>2019-10-25T10:13:05Z</time>
      </trkpt>
      <trkpt lat="36.41924452" lon="-6.149703">
        <ele>52.0</ele>
        <time>2019-10-25T10:13:08Z</time>
      </trkpt>
      <trkpt lat="36.41928611" lon="-6.14968116">
        <ele>53.0</ele>
        <time>2019-10-25T10:13:10Z</time>
      </trkpt>
      <trkpt lat="36.41934927" lon="-6.14965828">
        <ele>56.0</ele>
        <time>2019-10-25T10:13:13Z</time>
      </trkpt>
      <trkpt lat="36.41940016" lon="-6.14964433">
        <ele>58.0</ele>
        <time>2019-10-25T10:13:15Z</time>
      </trkpt>
      <trkpt lat="36.41944855" lon="-6.14962968">
        <ele>59.0</ele>
        <time>2019-10-25T10:13:17Z</time>
      </trkpt>
      <trkpt lat="36.41949293" lon="-6.14961476">
        <ele>57.0</ele>
        <time>2019-10-25T10:13:19Z</time>
      </trkpt>
      <trkpt lat="36.41955253" lon="-6.14961355">
        <ele>57.0</ele>
        <time>2019-10-25T10:13:22Z</time>
      </trkpt>
      <trkpt lat="36.41960345" lon="-6.14960275">
        <ele>59.0</ele>
        <time>2019-10-25T10:13:25Z</time>
      </trkpt>
      <trkpt lat="36.41964807" lon="-6.14957105">
        <ele>60.0</ele>
        <time>2019-10-25T10:13:29Z</time>
      </trkpt>
      <trkpt lat="36.41969909" lon="-6.14955867">
        <ele>59.0</ele>
        <time>2019-10-25T10:13:32Z</time>
      </trkpt>
      <trkpt lat="36.41975387" lon="-6.14955557">
        <ele>59.0</ele>
        <time>2019-10-25T10:13:35Z</time>
      </trkpt>
      <trkpt lat="36.41980195" lon="-6.14952991">
        <ele>61.0</ele>
        <time>2019-10-25T10:13:38Z</time>
      </trkpt>
      <trkpt lat="36.41984627" lon="-6.14951134">
        <ele>58.0</ele>
        <time>2019-10-25T10:13:41Z</time>
      </trkpt>
      <trkpt lat="36.4198812" lon="-6.14946265">
        <ele>57.0</ele>
        <time>2019-10-25T10:13:43Z</time>
      </trkpt>
      <trkpt lat="36.41990676" lon="-6.14939218">
        <ele>57.0</ele>
        <time>2019-10-25T10:13:46Z</time>
      </trkpt>
      <trkpt lat="36.41994181" lon="-6.14932296">
        <ele>56.0</ele>
        <time>2019-10-25T10:13:49Z</time>
      </trkpt>
      <trkpt lat="36.41996933" lon="-6.14925609">
        <ele>53.0</ele>
        <time>2019-10-25T10:13:52Z</time>
      </trkpt>
      <trkpt lat="36.42000006" lon="-6.14921012">
        <ele>48.0</ele>
        <time>2019-10-25T10:13:56Z</time>
      </trkpt>
      <trkpt lat="36.42004049" lon="-6.14916772">
        <ele>52.0</ele>
        <time>2019-10-25T10:14:00Z</time>
      </trkpt>
      <trkpt lat="36.42007825" lon="-6.14912689">
        <ele>55.0</ele>
        <time>2019-10-25T10:14:04Z</time>
      </trkpt>
      <trkpt lat="36.4201025" lon="-6.14907089">
        <ele>55.0</ele>
        <time>2019-10-25T10:14:12Z</time>
      </trkpt>
      <trkpt lat="36.42011314" lon="-6.14901594">
        <ele>51.0</ele>
        <time>2019-10-25T10:14:19Z</time>
      </trkpt>
      <trkpt lat="36.42006032" lon="-6.14902379">
        <ele>53.0</ele>
        <time>2019-10-25T10:14:30Z</time>
      </trkpt>
      <trkpt lat="36.42009147" lon="-6.14898293">
        <ele>49.0</ele>
        <time>2019-10-25T10:14:38Z</time>
      </trkpt>
      <trkpt lat="36.42014043" lon="-6.14894682">
        <ele>47.0</ele>
        <time>2019-10-25T10:14:43Z</time>
      </trkpt>
      <trkpt lat="36.42018092" lon="-6.14890748">
        <ele>43.0</ele>
        <time>2019-10-25T10:14:49Z</time>
      </trkpt>
      <trkpt lat="36.42022847" lon="-6.14887785">
        <ele>36.0</ele>
        <time>2019-10-25T10:14:54Z</time>
      </trkpt>
      <trkpt lat="36.42025892" lon="-6.14883469">
        <ele>35.0</ele>
        <time>2019-10-25T10:14:58Z</time>
      </trkpt>
      <trkpt lat="36.42029896" lon="-6.14878757">
        <ele>37.0</ele>
        <time>2019-10-25T10:15:01Z</time>
      </trkpt>
      <trkpt lat="36.42034114" lon="-6.14873902">
        <ele>39.0</ele>
        <time>2019-10-25T10:15:05Z</time>
      </trkpt>
      <trkpt lat="36.42038496" lon="-6.14870495">
        <ele>36.0</ele>
        <time>2019-10-25T10:15:08Z</time>
      </trkpt>
      <trkpt lat="36.42042439" lon="-6.14863191">
        <ele>40.0</ele>
        <time>2019-10-25T10:15:10Z</time>
      </trkpt>
      <trkpt lat="36.42045297" lon="-6.14854486">
        <ele>41.0</ele>
        <time>2019-10-25T10:15:12Z</time>
      </trkpt>
      <trkpt lat="36.42048645" lon="-6.14847819">
        <ele>41.0</ele>
        <time>2019-10-25T10:15:14Z</time>
      </trkpt>
      <trkpt lat="36.42051505" lon="-6.14842655">
        <ele>40.0</ele>
        <time>2019-10-25T10:15:17Z</time>
      </trkpt>
      <trkpt lat="36.42055885" lon="-6.1483969">
        <ele>47.0</ele>
        <time>2019-10-25T10:15:23Z</time>
      </trkpt>
      <trkpt lat="36.42059085" lon="-6.14832658">
        <ele>48.0</ele>
        <time>2019-10-25T10:15:25Z</time>
      </trkpt>
      <trkpt lat="36.42060908" lon="-6.14825818">
        <ele>48.0</ele>
        <time>2019-10-25T10:15:27Z</time>
      </trkpt>
      <trkpt lat="36.42062206" lon="-6.14819423">
        <ele>48.0</ele>
        <time>2019-10-25T10:15:29Z</time>
      </trkpt>
      <trkpt lat="36.42064761" lon="-6.14812929">
        <ele>49.0</ele>
        <time>2019-10-25T10:15:32Z</time>
      </trkpt>
      <trkpt lat="36.42069201" lon="-6.14807832">
        <ele>52.0</ele>
        <time>2019-10-25T10:15:35Z</time>
      </trkpt>
      <trkpt lat="36.42073403" lon="-6.14803173">
        <ele>52.0</ele>
        <time>2019-10-25T10:15:37Z</time>
      </trkpt>
      <trkpt lat="36.42077127" lon="-6.14796872">
        <ele>50.0</ele>
        <time>2019-10-25T10:15:40Z</time>
      </trkpt>
      <trkpt lat="36.42078965" lon="-6.14791135">
        <ele>50.0</ele>
        <time>2019-10-25T10:15:42Z</time>
      </trkpt>
      <trkpt lat="36.42081056" lon="-6.14785374">
        <ele>51.0</ele>
        <time>2019-10-25T10:15:44Z</time>
      </trkpt>
      <trkpt lat="36.42082398" lon="-6.14779912">
        <ele>47.0</ele>
        <time>2019-10-25T10:15:49Z</time>
      </trkpt>
      <trkpt lat="36.42082298" lon="-6.14773158">
        <ele>52.0</ele>
        <time>2019-10-25T10:16:08Z</time>
      </trkpt>
      <trkpt lat="36.42078474" lon="-6.1476791">
        <ele>53.0</ele>
        <time>2019-10-25T10:16:11Z</time>
      </trkpt>
      <trkpt lat="36.42078946" lon="-6.1476193">
        <ele>54.0</ele>
        <time>2019-10-25T10:16:14Z</time>
      </trkpt>
      <trkpt lat="36.42079376" lon="-6.14750205">
        <ele>55.0</ele>
        <time>2019-10-25T10:16:18Z</time>
      </trkpt>
      <trkpt lat="36.42078154" lon="-6.14742448">
        <ele>54.0</ele>
        <time>2019-10-25T10:16:20Z</time>
      </trkpt>
      <trkpt lat="36.42077398" lon="-6.14736276">
        <ele>55.0</ele>
        <time>2019-10-25T10:16:22Z</time>
      </trkpt>
      <trkpt lat="36.42077119" lon="-6.14730054">
        <ele>52.0</ele>
        <time>2019-10-25T10:16:25Z</time>
      </trkpt>
      <trkpt lat="36.42076905" lon="-6.14723685">
        <ele>55.0</ele>
        <time>2019-10-25T10:16:34Z</time>
      </trkpt>
      <trkpt lat="36.42077672" lon="-6.14718096">
        <ele>53.0</ele>
        <time>2019-10-25T10:16:43Z</time>
      </trkpt>
      <trkpt lat="36.4207586" lon="-6.14712487">
        <ele>51.0</ele>
        <time>2019-10-25T10:16:49Z</time>
      </trkpt>
      <trkpt lat="36.42073341" lon="-6.14707302">
        <ele>49.0</ele>
        <time>2019-10-25T10:16:56Z</time>
      </trkpt>
      <trkpt lat="36.42070655" lon="-6.1470236">
        <ele>50.0</ele>
        <time>2019-10-25T10:17:01Z</time>
      </trkpt>
      <trkpt lat="36.42069004" lon="-6.14695485">
        <ele>51.0</ele>
        <time>2019-10-25T10:17:04Z</time>
      </trkpt>
      <trkpt lat="36.42066644" lon="-6.14690159">
        <ele>56.0</ele>
        <time>2019-10-25T10:17:07Z</time>
      </trkpt>
      <trkpt lat="36.42063034" lon="-6.14684063">
        <ele>60.0</ele>
        <time>2019-10-25T10:17:09Z</time>
      </trkpt>
      <trkpt lat="36.42059624" lon="-6.14676273">
        <ele>60.0</ele>
        <time>2019-10-25T10:17:11Z</time>
      </trkpt>
      <trkpt lat="36.42058281" lon="-6.14669088">
        <ele>60.0</ele>
        <time>2019-10-25T10:17:13Z</time>
      </trkpt>
      <trkpt lat="36.42057224" lon="-6.14660541">
        <ele>59.0</ele>
        <time>2019-10-25T10:17:15Z</time>
      </trkpt>
      <trkpt lat="36.42055947" lon="-6.14653237">
        <ele>60.0</ele>
        <time>2019-10-25T10:17:17Z</time>
      </trkpt>
      <trkpt lat="36.42053721" lon="-6.14647496">
        <ele>57.0</ele>
        <time>2019-10-25T10:17:19Z</time>
      </trkpt>
      <trkpt lat="36.42049787" lon="-6.1464096">
        <ele>58.0</ele>
        <time>2019-10-25T10:17:22Z</time>
      </trkpt>
      <trkpt lat="36.4204695" lon="-6.14636269">
        <ele>58.0</ele>
        <time>2019-10-25T10:17:27Z</time>
      </trkpt>
      <trkpt lat="36.42042745" lon="-6.14633186">
        <ele>59.0</ele>
        <time>2019-10-25T10:17:31Z</time>
      </trkpt>
      <trkpt lat="36.42034845" lon="-6.14625703">
        <ele>55.0</ele>
        <time>2019-10-25T10:17:38Z</time>
      </trkpt>
      <trkpt lat="36.420273" lon="-6.14626685">
        <ele>55.0</ele>
        <time>2019-10-25T10:17:47Z</time>
      </trkpt>
      <trkpt lat="36.42028687" lon="-6.14620372">
        <ele>55.0</ele>
        <time>2019-10-25T10:17:49Z</time>
      </trkpt>
      <trkpt lat="36.42028373" lon="-6.14614538">
        <ele>55.0</ele>
        <time>2019-10-25T10:17:52Z</time>
      </trkpt>
      <trkpt lat="36.4202958" lon="-6.14608294">
        <ele>54.0</ele>
        <time>2019-10-25T10:17:55Z</time>
      </trkpt>
      <trkpt lat="36.42032329" lon="-6.14601183">
        <ele>53.0</ele>
        <time>2019-10-25T10:17:59Z</time>
      </trkpt>
      <trkpt lat="36.42033696" lon="-6.145941">
        <ele>51.0</ele>
        <time>2019-10-25T10:18:02Z</time>
      </trkpt>
      <trkpt lat="36.42037302" lon="-6.1458727">
        <ele>51.0</ele>
        <time>2019-10-25T10:18:04Z</time>
      </trkpt>
      <trkpt lat="36.42033461" lon="-6.14583918">
        <ele>51.0</ele>
        <time>2019-10-25T10:18:08Z</time>
      </trkpt>
      <trkpt lat="36.42027627" lon="-6.14582019">
        <ele>50.0</ele>
        <time>2019-10-25T10:18:11Z</time>
      </trkpt>
      <trkpt lat="36.42022384" lon="-6.1457854">
        <ele>49.0</ele>
        <time>2019-10-25T10:18:15Z</time>
      </trkpt>
      <trkpt lat="36.42019367" lon="-6.14573889">
        <ele>49.0</ele>
        <time>2019-10-25T10:18:20Z</time>
      </trkpt>
      <trkpt lat="36.4201423" lon="-6.14573422">
        <ele>41.0</ele>
        <time>2019-10-25T10:18:33Z</time>
      </trkpt>
      <trkpt lat="36.42009697" lon="-6.14571657">
        <ele>43.0</ele>
        <time>2019-10-25T10:18:38Z</time>
      </trkpt>
      <trkpt lat="36.42004298" lon="-6.14569587">
        <ele>43.0</ele>
        <time>2019-10-25T10:18:42Z</time>
      </trkpt>
      <trkpt lat="36.41998156" lon="-6.14568156">
        <ele>45.0</ele>
        <time>2019-10-25T10:18:45Z</time>
      </trkpt>
      <trkpt lat="36.41993364" lon="-6.14567922">
        <ele>46.0</ele>
        <time>2019-10-25T10:18:47Z</time>
      </trkpt>
      <trkpt lat="36.41988902" lon="-6.14566287">
        <ele>46.0</ele>
        <time>2019-10-25T10:18:49Z</time>
      </trkpt>
      <trkpt lat="36.41983999" lon="-6.14563939">
        <ele>43.0</ele>
        <time>2019-10-25T10:18:51Z</time>
      </trkpt>
      <trkpt lat="36.41979675" lon="-6.14562004">
        <ele>43.0</ele>
        <time>2019-10-25T10:18:53Z</time>
      </trkpt>
      <trkpt lat="36.41974268" lon="-6.1456068">
        <ele>42.0</ele>
        <time>2019-10-25T10:18:57Z</time>
      </trkpt>
      <trkpt lat="36.41969689" lon="-6.14558382">
        <ele>43.0</ele>
        <time>2019-10-25T10:19:01Z</time>
      </trkpt>
      <trkpt lat="36.41965848" lon="-6.14555145">
        <ele>46.0</ele>
        <time>2019-10-25T10:19:04Z</time>
      </trkpt>
      <trkpt lat="36.41960131" lon="-6.14553018">
        <ele>48.0</ele>
        <time>2019-10-25T10:19:08Z</time>
      </trkpt>
      <trkpt lat="36.41953406" lon="-6.1454946">
        <ele>53.0</ele>
        <time>2019-10-25T10:19:11Z</time>
      </trkpt>
      <trkpt lat="36.41948772" lon="-6.14547781">
        <ele>56.0</ele>
        <time>2019-10-25T10:19:13Z</time>
      </trkpt>
      <trkpt lat="36.41943174" lon="-6.1454759">
        <ele>54.0</ele>
        <time>2019-10-25T10:19:17Z</time>
      </trkpt>
      <trkpt lat="36.41938366" lon="-6.14546049">
        <ele>56.0</ele>
        <time>2019-10-25T10:19:22Z</time>
      </trkpt>
      <trkpt lat="36.41933743" lon="-6.14546235">
        <ele>54.0</ele>
        <time>2019-10-25T10:19:26Z</time>
      </trkpt>
      <trkpt lat="36.41928662" lon="-6.14546417">
        <ele>55.0</ele>
        <time>2019-10-25T10:19:31Z</time>
      </trkpt>
      <trkpt lat="36.4192405" lon="-6.14546354">
        <ele>54.0</ele>
        <time>2019-10-25T10:19:35Z</time>
      </trkpt>
      <trkpt lat="36.41918726" lon="-6.14545698">
        <ele>55.0</ele>
        <time>2019-10-25T10:19:39Z</time>
      </trkpt>
      <trkpt lat="36.41913914" lon="-6.14544937">
        <ele>57.0</ele>
        <time>2019-10-25T10:19:42Z</time>
      </trkpt>
      <trkpt lat="36.4190677" lon="-6.14544233">
        <ele>58.0</ele>
        <time>2019-10-25T10:19:46Z</time>
      </trkpt>
      <trkpt lat="36.41902238" lon="-6.14545899">
        <ele>64.0</ele>
        <time>2019-10-25T10:19:51Z</time>
      </trkpt>
      <trkpt lat="36.4189885" lon="-6.14550964">
        <ele>63.0</ele>
        <time>2019-10-25T10:19:56Z</time>
      </trkpt>
      <trkpt lat="36.4189659" lon="-6.14557163">
        <ele>60.0</ele>
        <time>2019-10-25T10:19:59Z</time>
      </trkpt>
      <trkpt lat="36.41897177" lon="-6.14562835">
        <ele>57.0</ele>
        <time>2019-10-25T10:20:09Z</time>
      </trkpt>
      <trkpt lat="36.41895488" lon="-6.14568246">
        <ele>57.0</ele>
        <time>2019-10-25T10:20:16Z</time>
      </trkpt>
      <trkpt lat="36.41890696" lon="-6.14572647">
        <ele>58.0</ele>
        <time>2019-10-25T10:20:19Z</time>
      </trkpt>
      <trkpt lat="36.41888463" lon="-6.14578759">
        <ele>56.0</ele>
        <time>2019-10-25T10:20:23Z</time>
      </trkpt>
      <trkpt lat="36.41884248" lon="-6.14582927">
        <ele>58.0</ele>
        <time>2019-10-25T10:20:27Z</time>
      </trkpt>
      <trkpt lat="36.41880082" lon="-6.14586793">
        <ele>60.0</ele>
        <time>2019-10-25T10:20:31Z</time>
      </trkpt>
      <trkpt lat="36.41874064" lon="-6.14590738">
        <ele>61.0</ele>
        <time>2019-10-25T10:20:42Z</time>
      </trkpt>
      <trkpt lat="36.41869522" lon="-6.1459388">
        <ele>59.0</ele>
        <time>2019-10-25T10:20:45Z</time>
      </trkpt>
      <trkpt lat="36.41865021" lon="-6.14594582">
        <ele>60.0</ele>
        <time>2019-10-25T10:20:48Z</time>
      </trkpt>
      <trkpt lat="36.41860811" lon="-6.14596679">
        <ele>60.0</ele>
        <time>2019-10-25T10:20:53Z</time>
      </trkpt>
      <trkpt lat="36.41856253" lon="-6.14600134">
        <ele>63.0</ele>
        <time>2019-10-25T10:20:57Z</time>
      </trkpt>
      <trkpt lat="36.41851812" lon="-6.14602683">
        <ele>62.0</ele>
        <time>2019-10-25T10:20:59Z</time>
      </trkpt>
      <trkpt lat="36.41846733" lon="-6.14606114">
        <ele>66.0</ele>
        <time>2019-10-25T10:21:02Z</time>
      </trkpt>
      <trkpt lat="36.41842618" lon="-6.1460918">
        <ele>65.0</ele>
        <time>2019-10-25T10:21:07Z</time>
      </trkpt>
      <trkpt lat="36.41838638" lon="-6.14613079">
        <ele>63.0</ele>
        <time>2019-10-25T10:21:13Z</time>
      </trkpt>
      <trkpt lat="36.41833084" lon="-6.14617057">
        <ele>61.0</ele>
        <time>2019-10-25T10:21:17Z</time>
      </trkpt>
      <trkpt lat="36.41827753" lon="-6.1461902">
        <ele>58.0</ele>
        <time>2019-10-25T10:21:19Z</time>
      </trkpt>
      <trkpt lat="36.41820726" lon="-6.14619493">
        <ele>60.0</ele>
        <time>2019-10-25T10:21:21Z</time>
      </trkpt>
      <trkpt lat="36.4181586" lon="-6.14617416">
        <ele>60.0</ele>
        <time>2019-10-25T10:21:23Z</time>
      </trkpt>
      <trkpt lat="36.41810615" lon="-6.14618571">
        <ele>57.0</ele>
        <time>2019-10-25T10:21:32Z</time>
      </trkpt>
      <trkpt lat="36.41807044" lon="-6.14622196">
        <ele>58.0</ele>
        <time>2019-10-25T10:21:37Z</time>
      </trkpt>
      <trkpt lat="36.41802782" lon="-6.14617972">
        <ele>45.0</ele>
        <time>2019-10-25T10:21:48Z</time>
      </trkpt>
      <trkpt lat="36.4179818" lon="-6.14617748">
        <ele>44.0</ele>
        <time>2019-10-25T10:21:53Z</time>
      </trkpt>
      <trkpt lat="36.41793919" lon="-6.14622214">
        <ele>38.0</ele>
        <time>2019-10-25T10:22:00Z</time>
      </trkpt>
      <trkpt lat="36.41789594" lon="-6.14627398">
        <ele>40.0</ele>
        <time>2019-10-25T10:22:03Z</time>
      </trkpt>
      <trkpt lat="36.41785843" lon="-6.14630987">
        <ele>41.0</ele>
        <time>2019-10-25T10:22:05Z</time>
      </trkpt>
      <trkpt lat="36.41781951" lon="-6.14633953">
        <ele>43.0</ele>
        <time>2019-10-25T10:22:07Z</time>
      </trkpt>
      <trkpt lat="36.41775776" lon="-6.14636605">
        <ele>44.0</ele>
        <time>2019-10-25T10:22:10Z</time>
      </trkpt>
      <trkpt lat="36.41769733" lon="-6.14636653">
        <ele>49.0</ele>
        <time>2019-10-25T10:22:13Z</time>
      </trkpt>
      <trkpt lat="36.41765119" lon="-6.14634464">
        <ele>48.0</ele>
        <time>2019-10-25T10:22:15Z</time>
      </trkpt>
      <trkpt lat="36.41760633" lon="-6.1463268">
        <ele>50.0</ele>
        <time>2019-10-25T10:22:17Z</time>
      </trkpt>
      <trkpt lat="36.41754727" lon="-6.14631972">
        <ele>52.0</ele>
        <time>2019-10-25T10:22:20Z</time>
      </trkpt>
      <trkpt lat="36.41749799" lon="-6.14629033">
        <ele>56.0</ele>
        <time>2019-10-25T10:22:23Z</time>
      </trkpt>
      <trkpt lat="36.41745468" lon="-6.14626626">
        <ele>60.0</ele>
        <time>2019-10-25T10:22:27Z</time>
      </trkpt>
      <trkpt lat="36.41740491" lon="-6.14625454">
        <ele>64.0</ele>
        <time>2019-10-25T10:22:58Z</time>
      </trkpt>
      <trkpt lat="36.41735864" lon="-6.14626059">
        <ele>62.0</ele>
        <time>2019-10-25T10:23:04Z</time>
      </trkpt>
      <trkpt lat="36.41730496" lon="-6.14626981">
        <ele>66.0</ele>
        <time>2019-10-25T10:23:09Z</time>
      </trkpt>
      <trkpt lat="36.41725973" lon="-6.1462424">
        <ele>68.0</ele>
        <time>2019-10-25T10:23:14Z</time>
      </trkpt>
      <trkpt lat="36.417199" lon="-6.14622495">
        <ele>69.0</ele>
        <time>2019-10-25T10:23:20Z</time>
      </trkpt>
      <trkpt lat="36.4171496" lon="-6.14623275">
        <ele>70.0</ele>
        <time>2019-10-25T10:23:22Z</time>
      </trkpt>
      <trkpt lat="36.41709466" lon="-6.14624326">
        <ele>69.0</ele>
        <time>2019-10-25T10:23:24Z</time>
      </trkpt>
      <trkpt lat="36.41703409" lon="-6.14625397">
        <ele>69.0</ele>
        <time>2019-10-25T10:23:27Z</time>
      </trkpt>
      <trkpt lat="36.41697877" lon="-6.14625713">
        <ele>71.0</ele>
        <time>2019-10-25T10:23:30Z</time>
      </trkpt>
      <trkpt lat="36.4169098" lon="-6.14627628">
        <ele>73.0</ele>
        <time>2019-10-25T10:23:33Z</time>
      </trkpt>
      <trkpt lat="36.41685613" lon="-6.14628455">
        <ele>71.0</ele>
        <time>2019-10-25T10:23:35Z</time>
      </trkpt>
      <trkpt lat="36.41679117" lon="-6.14628491">
        <ele>69.0</ele>
        <time>2019-10-25T10:23:38Z</time>
      </trkpt>
      <trkpt lat="36.41674357" lon="-6.14627603">
        <ele>65.0</ele>
        <time>2019-10-25T10:23:42Z</time>
      </trkpt>
      <trkpt lat="36.41669058" lon="-6.14628025">
        <ele>69.0</ele>
        <time>2019-10-25T10:23:51Z</time>
      </trkpt>
      <trkpt lat="36.41663767" lon="-6.14629984">
        <ele>67.0</ele>
        <time>2019-10-25T10:23:53Z</time>
      </trkpt>
      <trkpt lat="36.41659879" lon="-6.14633063">
        <ele>67.0</ele>
        <time>2019-10-25T10:23:58Z</time>
      </trkpt>
      <trkpt lat="36.41655161" lon="-6.14635296">
        <ele>65.0</ele>
        <time>2019-10-25T10:24:07Z</time>
      </trkpt>
      <trkpt lat="36.41649137" lon="-6.1463836">
        <ele>65.0</ele>
        <time>2019-10-25T10:24:10Z</time>
      </trkpt>
      <trkpt lat="36.41644426" lon="-6.14641878">
        <ele>65.0</ele>
        <time>2019-10-25T10:24:14Z</time>
      </trkpt>
      <trkpt lat="36.41646766" lon="-6.14647164">
        <ele>63.0</ele>
        <time>2019-10-25T10:24:24Z</time>
      </trkpt>
      <trkpt lat="36.41648017" lon="-6.14652694">
        <ele>63.0</ele>
        <time>2019-10-25T10:24:27Z</time>
      </trkpt>
      <trkpt lat="36.41652272" lon="-6.14659314">
        <ele>62.0</ele>
        <time>2019-10-25T10:24:30Z</time>
      </trkpt>
      <trkpt lat="36.41655425" lon="-6.14663479">
        <ele>60.0</ele>
        <time>2019-10-25T10:24:32Z</time>
      </trkpt>
      <trkpt lat="36.41659047" lon="-6.14668451">
        <ele>61.0</ele>
        <time>2019-10-25T10:24:35Z</time>
      </trkpt>
      <trkpt lat="36.41660456" lon="-6.14674874">
        <ele>61.0</ele>
        <time>2019-10-25T10:24:49Z</time>
      </trkpt>
      <trkpt lat="36.41661103" lon="-6.14682001">
        <ele>58.0</ele>
        <time>2019-10-25T10:24:54Z</time>
      </trkpt>
      <trkpt lat="36.41658396" lon="-6.14688036">
        <ele>62.0</ele>
        <time>2019-10-25T10:25:00Z</time>
      </trkpt>
      <trkpt lat="36.41657568" lon="-6.14693525">
        <ele>63.0</ele>
        <time>2019-10-25T10:25:02Z</time>
      </trkpt>
      <trkpt lat="36.41659569" lon="-6.14701865">
        <ele>60.0</ele>
        <time>2019-10-25T10:25:04Z</time>
      </trkpt>
      <trkpt lat="36.4166115" lon="-6.14708887">
        <ele>58.0</ele>
        <time>2019-10-25T10:25:06Z</time>
      </trkpt>
      <trkpt lat="36.41661604" lon="-6.14714759">
        <ele>58.0</ele>
        <time>2019-10-25T10:25:09Z</time>
      </trkpt>
      <trkpt lat="36.41660626" lon="-6.14720652">
        <ele>63.0</ele>
        <time>2019-10-25T10:25:17Z</time>
      </trkpt>
      <trkpt lat="36.4166184" lon="-6.14729139">
        <ele>66.0</ele>
        <time>2019-10-25T10:25:19Z</time>
      </trkpt>
      <trkpt lat="36.41664411" lon="-6.14734056">
        <ele>69.0</ele>
        <time>2019-10-25T10:25:21Z</time>
      </trkpt>
      <trkpt lat="36.41668771" lon="-6.14739958">
        <ele>67.0</ele>
        <time>2019-10-25T10:25:28Z</time>
      </trkpt>
      <trkpt lat="36.4167022" lon="-6.14745371">
        <ele>67.0</ele>
        <time>2019-10-25T10:25:33Z</time>
      </trkpt>
      <trkpt lat="36.41672227" lon="-6.14750631">
        <ele>68.0</ele>
        <time>2019-10-25T10:25:38Z</time>
      </trkpt>
      <trkpt lat="36.41673988" lon="-6.14757017">
        <ele>68.0</ele>
        <time>2019-10-25T10:25:42Z</time>
      </trkpt>
      <trkpt lat="36.41677416" lon="-6.14760784">
        <ele>67.0</ele>
        <time>2019-10-25T10:25:45Z</time>
      </trkpt>
      <trkpt lat="36.41681643" lon="-6.14764761">
        <ele>67.0</ele>
        <time>2019-10-25T10:25:48Z</time>
      </trkpt>
      <trkpt lat="36.41685015" lon="-6.14773681">
        <ele>67.0</ele>
        <time>2019-10-25T10:25:54Z</time>
      </trkpt>
      <trkpt lat="36.41679872" lon="-6.14778288">
        <ele>68.0</ele>
        <time>2019-10-25T10:25:58Z</time>
      </trkpt>
      <trkpt lat="36.41681721" lon="-6.14785038">
        <ele>68.0</ele>
        <time>2019-10-25T10:26:02Z</time>
      </trkpt>
      <trkpt lat="36.41685428" lon="-6.14789968">
        <ele>68.0</ele>
        <time>2019-10-25T10:26:04Z</time>
      </trkpt>
      <trkpt lat="36.41695422" lon="-6.14801666">
        <ele>66.0</ele>
        <time>2019-10-25T10:26:12Z</time>
      </trkpt>
      <trkpt lat="36.41692247" lon="-6.14807991">
        <ele>67.0</ele>
        <time>2019-10-25T10:26:15Z</time>
      </trkpt>
      <trkpt lat="36.41690789" lon="-6.14813517">
        <ele>68.0</ele>
        <time>2019-10-25T10:26:18Z</time>
      </trkpt>
      <trkpt lat="36.41697199" lon="-6.14814624">
        <ele>68.0</ele>
        <time>2019-10-25T10:26:21Z</time>
      </trkpt>
      <trkpt lat="36.41702142" lon="-6.1481809">
        <ele>69.0</ele>
        <time>2019-10-25T10:26:24Z</time>
      </trkpt>
      <trkpt lat="36.41703784" lon="-6.1482355">
        <ele>70.0</ele>
        <time>2019-10-25T10:26:28Z</time>
      </trkpt>
      <trkpt lat="36.41705038" lon="-6.14830767">
        <ele>71.0</ele>
        <time>2019-10-25T10:26:32Z</time>
      </trkpt>
      <trkpt lat="36.41704035" lon="-6.14836859">
        <ele>71.0</ele>
        <time>2019-10-25T10:26:35Z</time>
      </trkpt>
      <trkpt lat="36.41705285" lon="-6.14842912">
        <ele>68.0</ele>
        <time>2019-10-25T10:26:39Z</time>
      </trkpt>
      <trkpt lat="36.41705674" lon="-6.14850224">
        <ele>64.0</ele>
        <time>2019-10-25T10:26:47Z</time>
      </trkpt>
      <trkpt lat="36.41702358" lon="-6.14856149">
        <ele>64.0</ele>
        <time>2019-10-25T10:26:51Z</time>
      </trkpt>
      <trkpt lat="36.41700924" lon="-6.14862734">
        <ele>64.0</ele>
        <time>2019-10-25T10:26:55Z</time>
      </trkpt>
      <trkpt lat="36.4170537" lon="-6.14868338">
        <ele>65.0</ele>
        <time>2019-10-25T10:26:59Z</time>
      </trkpt>
      <trkpt lat="36.41710842" lon="-6.14871572">
        <ele>65.0</ele>
        <time>2019-10-25T10:27:02Z</time>
      </trkpt>
      <trkpt lat="36.41710741" lon="-6.14877378">
        <ele>64.0</ele>
        <time>2019-10-25T10:27:06Z</time>
      </trkpt>
      <trkpt lat="36.41708269" lon="-6.14883434">
        <ele>64.0</ele>
        <time>2019-10-25T10:27:09Z</time>
      </trkpt>
      <trkpt lat="36.41705192" lon="-6.1489014">
        <ele>65.0</ele>
        <time>2019-10-25T10:27:12Z</time>
      </trkpt>
      <trkpt lat="36.41704451" lon="-6.14896559">
        <ele>65.0</ele>
        <time>2019-10-25T10:27:15Z</time>
      </trkpt>
      <trkpt lat="36.41707979" lon="-6.14901179">
        <ele>62.0</ele>
        <time>2019-10-25T10:27:19Z</time>
      </trkpt>
      <trkpt lat="36.41713932" lon="-6.14903581">
        <ele>65.0</ele>
        <time>2019-10-25T10:27:22Z</time>
      </trkpt>
      <trkpt lat="36.41718068" lon="-6.14906413">
        <ele>62.0</ele>
        <time>2019-10-25T10:27:24Z</time>
      </trkpt>
      <trkpt lat="36.41723217" lon="-6.14910174">
        <ele>63.0</ele>
        <time>2019-10-25T10:27:27Z</time>
      </trkpt>
      <trkpt lat="36.41727159" lon="-6.14914342">
        <ele>66.0</ele>
        <time>2019-10-25T10:27:30Z</time>
      </trkpt>
      <trkpt lat="36.41729166" lon="-6.14919553">
        <ele>67.0</ele>
        <time>2019-10-25T10:27:33Z</time>
      </trkpt>
      <trkpt lat="36.41727349" lon="-6.14931257">
        <ele>68.0</ele>
        <time>2019-10-25T10:27:40Z</time>
      </trkpt>
      <trkpt lat="36.41720785" lon="-6.14941395">
        <ele>65.0</ele>
        <time>2019-10-25T10:27:46Z</time>
      </trkpt>
      <trkpt lat="36.41715708" lon="-6.14945411">
        <ele>67.0</ele>
        <time>2019-10-25T10:27:50Z</time>
      </trkpt>
      <trkpt lat="36.41711888" lon="-6.14948578">
        <ele>64.0</ele>
        <time>2019-10-25T10:27:54Z</time>
      </trkpt>
      <trkpt lat="36.41708206" lon="-6.1495292">
        <ele>59.0</ele>
        <time>2019-10-25T10:27:59Z</time>
      </trkpt>
      <trkpt lat="36.4170354" lon="-6.14955011">
        <ele>61.0</ele>
        <time>2019-10-25T10:28:03Z</time>
      </trkpt>
      <trkpt lat="36.41698683" lon="-6.14956712">
        <ele>65.0</ele>
        <time>2019-10-25T10:28:08Z</time>
      </trkpt>
      <trkpt lat="36.41693502" lon="-6.14955367">
        <ele>65.0</ele>
        <time>2019-10-25T10:28:13Z</time>
      </trkpt>
      <trkpt lat="36.41688773" lon="-6.14956106">
        <ele>67.0</ele>
        <time>2019-10-25T10:28:17Z</time>
      </trkpt>
      <trkpt lat="36.41684158" lon="-6.14956124">
        <ele>68.0</ele>
        <time>2019-10-25T10:28:21Z</time>
      </trkpt>
      <trkpt lat="36.41679168" lon="-6.14958315">
        <ele>68.0</ele>
        <time>2019-10-25T10:28:26Z</time>
      </trkpt>
      <trkpt lat="36.41676354" lon="-6.14964185">
        <ele>69.0</ele>
        <time>2019-10-25T10:28:32Z</time>
      </trkpt>
      <trkpt lat="36.4167371" lon="-6.14969501">
        <ele>68.0</ele>
        <time>2019-10-25T10:28:35Z</time>
      </trkpt>
      <trkpt lat="36.41672089" lon="-6.14978223">
        <ele>67.0</ele>
        <time>2019-10-25T10:28:38Z</time>
      </trkpt>
      <trkpt lat="36.41672833" lon="-6.14983839">
        <ele>66.0</ele>
        <time>2019-10-25T10:28:39Z</time>
      </trkpt>
      <trkpt lat="36.41674263" lon="-6.14989145">
        <ele>67.0</ele>
        <time>2019-10-25T10:28:40Z</time>
      </trkpt>
      <trkpt lat="36.41676935" lon="-6.14996135">
        <ele>66.0</ele>
        <time>2019-10-25T10:28:42Z</time>
      </trkpt>
      <trkpt lat="36.41676933" lon="-6.15001821">
        <ele>66.0</ele>
        <time>2019-10-25T10:28:45Z</time>
      </trkpt>
      <trkpt lat="36.41676021" lon="-6.15009414">
        <ele>67.0</ele>
        <time>2019-10-25T10:28:48Z</time>
      </trkpt>
      <trkpt lat="36.41673401" lon="-6.1501461">
        <ele>66.0</ele>
        <time>2019-10-25T10:28:52Z</time>
      </trkpt>
      <trkpt lat="36.41669441" lon="-6.15018517">
        <ele>69.0</ele>
        <time>2019-10-25T10:28:59Z</time>
      </trkpt>
      <trkpt lat="36.4166456" lon="-6.1501919">
        <ele>67.0</ele>
        <time>2019-10-25T10:29:03Z</time>
      </trkpt>
      <trkpt lat="36.41659457" lon="-6.15017324">
        <ele>68.0</ele>
        <time>2019-10-25T10:29:06Z</time>
      </trkpt>
      <trkpt lat="36.41654746" lon="-6.15018476">
        <ele>69.0</ele>
        <time>2019-10-25T10:29:12Z</time>
      </trkpt>
      <trkpt lat="36.41651277" lon="-6.15023315">
        <ele>70.0</ele>
        <time>2019-10-25T10:29:17Z</time>
      </trkpt>
      <trkpt lat="36.41650648" lon="-6.15029275">
        <ele>66.0</ele>
        <time>2019-10-25T10:29:22Z</time>
      </trkpt>
      <trkpt lat="36.41650625" lon="-6.15035965">
        <ele>69.0</ele>
        <time>2019-10-25T10:29:27Z</time>
      </trkpt>
      <trkpt lat="36.41649708" lon="-6.15042998">
        <ele>73.0</ele>
        <time>2019-10-25T10:29:31Z</time>
      </trkpt>
      <trkpt lat="36.41646692" lon="-6.15048816">
        <ele>72.0</ele>
        <time>2019-10-25T10:29:35Z</time>
      </trkpt>
      <trkpt lat="36.41644027" lon="-6.15054551">
        <ele>75.0</ele>
        <time>2019-10-25T10:29:39Z</time>
      </trkpt>
      <trkpt lat="36.41641414" lon="-6.15060254">
        <ele>74.0</ele>
        <time>2019-10-25T10:29:43Z</time>
      </trkpt>
      <trkpt lat="36.41640542" lon="-6.15065868">
        <ele>72.0</ele>
        <time>2019-10-25T10:29:47Z</time>
      </trkpt>
      <trkpt lat="36.4164064" lon="-6.15071596">
        <ele>73.0</ele>
        <time>2019-10-25T10:29:52Z</time>
      </trkpt>
      <trkpt lat="36.41640187" lon="-6.15078825">
        <ele>73.0</ele>
        <time>2019-10-25T10:29:56Z</time>
      </trkpt>
      <trkpt lat="36.41637109" lon="-6.15084632">
        <ele>74.0</ele>
        <time>2019-10-25T10:30:01Z</time>
      </trkpt>
      <trkpt lat="36.41635605" lon="-6.15091286">
        <ele>76.0</ele>
        <time>2019-10-25T10:30:06Z</time>
      </trkpt>
      <trkpt lat="36.41633515" lon="-6.15097437">
        <ele>77.0</ele>
        <time>2019-10-25T10:30:11Z</time>
      </trkpt>
      <trkpt lat="36.41630597" lon="-6.15102389">
        <ele>78.0</ele>
        <time>2019-10-25T10:30:15Z</time>
      </trkpt>
      <trkpt lat="36.41628454" lon="-6.15107574">
        <ele>77.0</ele>
        <time>2019-10-25T10:30:20Z</time>
      </trkpt>
      <trkpt lat="36.41628148" lon="-6.15114308">
        <ele>74.0</ele>
        <time>2019-10-25T10:30:26Z</time>
      </trkpt>
      <trkpt lat="36.41626481" lon="-6.15120407">
        <ele>74.0</ele>
        <time>2019-10-25T10:30:31Z</time>
      </trkpt>
      <trkpt lat="36.41625009" lon="-6.15125881">
        <ele>73.0</ele>
        <time>2019-10-25T10:30:35Z</time>
      </trkpt>
      <trkpt lat="36.41623601" lon="-6.1513189">
        <ele>71.0</ele>
        <time>2019-10-25T10:30:39Z</time>
      </trkpt>
      <trkpt lat="36.41622225" lon="-6.15137251">
        <ele>69.0</ele>
        <time>2019-10-25T10:30:43Z</time>
      </trkpt>
      <trkpt lat="36.41619511" lon="-6.15142565">
        <ele>67.0</ele>
        <time>2019-10-25T10:30:48Z</time>
      </trkpt>
      <trkpt lat="36.41618272" lon="-6.15148277">
        <ele>67.0</ele>
        <time>2019-10-25T10:30:53Z</time>
      </trkpt>
      <trkpt lat="36.41617814" lon="-6.15155206">
        <ele>64.0</ele>
        <time>2019-10-25T10:30:58Z</time>
      </trkpt>
      <trkpt lat="36.41615665" lon="-6.15160904">
        <ele>67.0</ele>
        <time>2019-10-25T10:31:02Z</time>
      </trkpt>
      <trkpt lat="36.41613516" lon="-6.15166697">
        <ele>66.0</ele>
        <time>2019-10-25T10:31:06Z</time>
      </trkpt>
      <trkpt lat="36.41613437" lon="-6.15172573">
        <ele>64.0</ele>
        <time>2019-10-25T10:31:10Z</time>
      </trkpt>
      <trkpt lat="36.41613398" lon="-6.1518645">
        <ele>67.0</ele>
        <time>2019-10-25T10:31:14Z</time>
      </trkpt>
    </trkseg>
  </trk>
</gpx>
